Time,TemperatureF,DewpointF,PressureIn,WindDirection,WindDirectionDegrees,WindSpeedMPH,WindSpeedGustMPH,Humidity,HourlyPrecipIn,Conditions,Clouds,dailyrainin,SoftwareType,DateUTC
2013-05-24 00:00:00,73.5,71.0,29.88,West,279,0.0,1.0,92,0.00,,---,0.00,VWS V14.00,2013-05-24 04:00:00,
2013-05-24 00:01:00,73.5,71.0,29.88,West,279,0.0,0.0,92,0.00,,---,0.00,VWS V14.00,2013-05-24 04:01:00,
2013-05-24 00:02:00,73.6,71.1,29.88,West,279,0.0,0.0,92,0.00,,---,0.00,VWS V14.00,2013-05-24 04:02:00,
2013-05-24 00:03:00,73.6,71.1,29.88,West,279,0.0,0.0,92,0.00,,---,0.00,VWS V14.00,2013-05-24 04:03:00,
2013-05-24 00:04:00,73.6,71.1,29.88,West,279,0.0,0.0,92,0.00,,---,0.00,VWS V14.00,2013-05-24 04:04:00,
2013-05-24 00:05:00,73.5,71.0,29.88,West,279,0.0,0.0,92,0.00,,---,0.00,VWS V14.00,2013-05-24 04:05:00,
2013-05-24 00:06:00,73.4,70.9,29.88,West,279,0.0,0.0,92,0.00,,---,0.00,VWS V14.00,2013-05-24 04:06:00,
2013-05-24 00:07:00,73.5,71.0,29.88,West,279,0.0,0.0,92,0.00,,---,0.00,VWS V14.00,2013-05-24 04:07:00,
2013-05-24 00:08:00,73.5,71.0,29.88,West,279,0.0,0.0,92,0.00,,---,0.00,VWS V14.00,2013-05-24 04:08:00,
2013-05-24 00:09:00,73.5,71.0,29.88,West,279,0.0,0.0,92,0.00,,---,0.00,VWS V14.00,2013-05-24 04:09:00,
2013-05-24 00:10:00,73.5,71.0,29.88,West,279,0.0,0.0,92,0.00,,---,0.00,VWS V14.00,2013-05-24 04:10:00,
2013-05-24 00:11:00,73.3,70.8,29.88,West,279,0.0,0.0,92,0.00,,---,0.00,VWS V14.00,2013-05-24 04:11:00,
2013-05-24 00:12:00,73.4,70.9,29.88,West,279,0.0,0.0,92,0.00,,---,0.00,VWS V14.00,2013-05-24 04:12:00,
2013-05-24 00:13:00,73.4,70.9,29.88,West,279,0.0,1.0,92,0.00,,---,0.00,VWS V14.00,2013-05-24 04:13:00,
2013-05-24 00:14:00,73.4,70.9,29.88,West,279,0.0,0.0,92,0.00,,---,0.00,VWS V14.00,2013-05-24 04:14:00,
2013-05-24 00:15:00,73.3,70.8,29.88,West,279,0.0,0.0,92,0.00,,---,0.00,VWS V14.00,2013-05-24 04:15:00,
2013-05-24 00:16:00,73.2,70.7,29.88,West,279,0.0,0.0,92,0.00,,---,0.00,VWS V14.00,2013-05-24 04:16:00,
2013-05-24 00:17:00,73.3,70.8,29.88,West,279,0.0,0.0,92,0.00,,---,0.00,VWS V14.00,2013-05-24 04:17:00,
2013-05-24 00:18:00,73.3,70.8,29.88,West,279,0.0,0.0,92,0.00,,---,0.00,VWS V14.00,2013-05-24 04:18:00,
2013-05-24 00:19:00,73.3,70.8,29.88,West,279,0.0,0.0,92,0.00,,---,0.00,VWS V14.00,2013-05-24 04:19:00,
2013-05-24 00:20:00,73.3,70.8,29.88,West,279,0.0,0.0,92,0.00,,---,0.00,VWS V14.00,2013-05-24 04:20:00,
2013-05-24 00:21:00,73.1,70.6,29.88,West,279,0.0,0.0,92,0.00,,---,0.00,VWS V14.00,2013-05-24 04:21:00,
2013-05-24 00:22:00,73.2,70.7,29.88,West,279,0.0,0.0,92,0.00,,---,0.00,VWS V14.00,2013-05-24 04:22:00,
2013-05-24 00:23:00,73.2,70.7,29.88,West,279,0.0,0.0,92,0.00,,---,0.00,VWS V14.00,2013-05-24 04:23:00,
2013-05-24 00:24:00,73.2,70.7,29.88,West,279,0.0,0.0,92,0.00,,---,0.00,VWS V14.00,2013-05-24 04:24:00,
2013-05-24 00:25:00,73.1,70.6,29.88,West,279,0.0,0.0,92,0.00,,---,0.00,VWS V14.00,2013-05-24 04:25:00,
2013-05-24 00:26:00,73.0,70.2,29.88,West,279,0.0,0.0,91,0.00,,---,0.00,VWS V14.00,2013-05-24 04:26:00,
2013-05-24 00:27:00,73.1,70.6,29.88,West,279,0.0,0.0,92,0.00,,---,0.00,VWS V14.00,2013-05-24 04:27:00,
2013-05-24 00:28:00,73.1,70.6,29.88,West,279,0.0,0.0,92,0.00,,---,0.00,VWS V14.00,2013-05-24 04:28:00,
2013-05-24 00:29:00,73.1,70.6,29.88,West,279,0.0,0.0,92,0.00,,---,0.00,VWS V14.00,2013-05-24 04:29:00,
2013-05-24 00:30:00,73.1,70.6,29.88,West,279,0.0,0.0,92,0.00,,---,0.00,VWS V14.00,2013-05-24 04:30:00,
2013-05-24 00:31:00,72.9,70.1,29.88,West,279,0.0,0.0,91,0.00,,---,0.00,VWS V14.00,2013-05-24 04:31:00,
2013-05-24 00:32:00,73.0,70.2,29.88,West,279,0.0,0.0,91,0.00,,---,0.00,VWS V14.00,2013-05-24 04:32:00,
2013-05-24 00:33:00,73.0,70.5,29.88,West,279,0.0,2.0,92,0.00,,---,0.00,VWS V14.00,2013-05-24 04:33:00,
2013-05-24 00:34:00,73.0,70.5,29.88,West,279,0.0,2.0,92,0.00,,---,0.00,VWS V14.00,2013-05-24 04:34:00,
2013-05-24 00:35:00,73.0,70.5,29.88,West,279,0.0,0.0,92,0.00,,---,0.00,VWS V14.00,2013-05-24 04:35:00,
2013-05-24 00:36:00,72.8,70.0,29.88,West,279,0.0,0.0,91,0.00,,---,0.00,VWS V14.00,2013-05-24 04:36:00,
2013-05-24 00:37:00,72.9,70.1,29.88,West,279,0.0,0.0,91,0.00,,---,0.00,VWS V14.00,2013-05-24 04:37:00,
2013-05-24 00:38:00,72.9,70.1,29.88,West,279,0.0,1.0,91,0.00,,---,0.00,VWS V14.00,2013-05-24 04:38:00,
2013-05-24 00:39:00,72.9,70.1,29.88,West,279,0.0,0.0,91,0.00,,---,0.00,VWS V14.00,2013-05-24 04:39:00,
2013-05-24 00:40:00,72.9,70.1,29.88,West,279,0.0,0.0,91,0.00,,---,0.00,VWS V14.00,2013-05-24 04:40:00,
2013-05-24 00:41:00,72.8,70.0,29.88,West,279,0.0,0.0,91,0.00,,---,0.00,VWS V14.00,2013-05-24 04:41:00,
2013-05-24 00:42:00,72.9,70.1,29.88,West,279,0.0,0.0,91,0.00,,---,0.00,VWS V14.00,2013-05-24 04:42:00,
2013-05-24 00:43:00,72.8,70.0,29.88,West,279,0.0,0.0,91,0.00,,---,0.00,VWS V14.00,2013-05-24 04:43:00,
2013-05-24 00:44:00,72.8,70.0,29.88,West,279,0.0,0.0,91,0.00,,---,0.00,VWS V14.00,2013-05-24 04:44:00,
2013-05-24 00:45:00,72.8,70.0,29.88,West,279,0.0,2.0,91,0.00,,---,0.00,VWS V14.00,2013-05-24 04:45:00,
2013-05-24 00:46:00,72.8,70.0,29.88,West,279,0.0,0.0,91,0.00,,---,0.00,VWS V14.00,2013-05-24 04:46:00,
2013-05-24 00:47:00,72.8,70.0,29.88,West,279,0.0,0.0,91,0.00,,---,0.00,VWS V14.00,2013-05-24 04:47:00,
2013-05-24 00:48:00,72.8,70.0,29.88,West,279,1.0,1.0,91,0.00,,---,0.00,VWS V14.00,2013-05-24 04:48:00,
2013-05-24 00:49:00,72.8,70.0,29.88,West,279,0.0,1.0,91,0.00,,---,0.00,VWS V14.00,2013-05-24 04:49:00,
2013-05-24 00:50:00,72.8,70.0,29.88,West,279,0.0,0.0,91,0.00,,---,0.00,VWS V14.00,2013-05-24 04:50:00,
2013-05-24 00:51:00,72.7,69.9,29.87,West,279,0.0,0.0,91,0.00,,---,0.00,VWS V14.00,2013-05-24 04:51:00,
2013-05-24 00:52:00,72.8,70.0,29.88,West,279,0.0,0.0,91,0.00,,---,0.00,VWS V14.00,2013-05-24 04:52:00,
2013-05-24 00:53:00,72.7,69.9,29.88,West,279,0.0,0.0,91,0.00,,---,0.00,VWS V14.00,2013-05-24 04:53:00,
2013-05-24 00:54:00,72.7,69.9,29.87,West,279,0.0,0.0,91,0.00,,---,0.00,VWS V14.00,2013-05-24 04:54:00,
2013-05-24 00:55:00,72.7,69.9,29.88,West,279,0.0,0.0,91,0.00,,---,0.00,VWS V14.00,2013-05-24 04:55:00,
2013-05-24 00:56:00,72.6,69.8,29.87,West,279,0.0,0.0,91,0.00,,---,0.00,VWS V14.00,2013-05-24 04:56:00,
2013-05-24 00:57:00,72.7,69.9,29.87,West,279,0.0,0.0,91,0.00,,---,0.00,VWS V14.00,2013-05-24 04:57:00,
2013-05-24 00:58:00,72.7,69.9,29.87,West,279,0.0,0.0,91,0.00,,---,0.00,VWS V14.00,2013-05-24 04:58:00,
2013-05-24 00:59:00,72.7,69.9,29.87,West,279,0.0,0.0,91,0.00,,---,0.00,VWS V14.00,2013-05-24 04:59:00,
2013-05-24 01:00:00,72.7,69.9,29.87,West,279,0.0,0.0,91,0.00,,---,0.00,VWS V14.00,2013-05-24 05:00:00,
2013-05-24 01:01:00,72.6,69.5,29.87,West,279,0.0,0.0,90,0.00,,---,0.00,VWS V14.00,2013-05-24 05:01:00,
2013-05-24 01:02:00,72.6,69.8,29.87,West,279,0.0,0.0,91,0.00,,---,0.00,VWS V14.00,2013-05-24 05:02:00,
2013-05-24 01:03:00,72.6,69.5,29.87,West,279,0.0,0.0,90,0.00,,---,0.00,VWS V14.00,2013-05-24 05:03:00,
2013-05-24 01:04:00,72.6,69.5,29.87,West,279,0.0,0.0,90,0.00,,---,0.00,VWS V14.00,2013-05-24 05:04:00,
2013-05-24 01:05:00,72.6,69.8,29.87,West,279,0.0,0.0,91,0.00,,---,0.00,VWS V14.00,2013-05-24 05:05:00,
2013-05-24 01:06:00,72.5,69.4,29.87,West,279,0.0,0.0,90,0.00,,---,0.00,VWS V14.00,2013-05-24 05:06:00,
2013-05-24 01:07:00,72.6,69.5,29.87,West,279,0.0,0.0,90,0.00,,---,0.00,VWS V14.00,2013-05-24 05:07:00,
2013-05-24 01:08:00,72.5,69.4,29.87,West,279,0.0,0.0,90,0.00,,---,0.00,VWS V14.00,2013-05-24 05:08:00,
2013-05-24 01:09:00,72.6,69.5,29.87,West,279,0.0,0.0,90,0.00,,---,0.00,VWS V14.00,2013-05-24 05:09:00,
2013-05-24 01:10:00,72.5,69.4,29.87,West,279,0.0,0.0,90,0.00,,---,0.00,VWS V14.00,2013-05-24 05:10:00,
2013-05-24 01:11:00,72.5,69.4,29.87,West,279,0.0,0.0,90,0.00,,---,0.00,VWS V14.00,2013-05-24 05:11:00,
2013-05-24 01:12:00,72.5,69.4,29.87,West,279,0.0,0.0,90,0.00,,---,0.00,VWS V14.00,2013-05-24 05:12:00,
2013-05-24 01:13:00,72.5,69.4,29.87,West,279,0.0,0.0,90,0.00,,---,0.00,VWS V14.00,2013-05-24 05:13:00,
2013-05-24 01:14:00,72.5,69.4,29.87,West,279,0.0,0.0,90,0.00,,---,0.00,VWS V14.00,2013-05-24 05:14:00,
2013-05-24 01:15:00,72.5,69.4,29.87,West,279,0.0,0.0,90,0.00,,---,0.00,VWS V14.00,2013-05-24 05:15:00,
2013-05-24 01:16:00,72.4,69.3,29.86,West,279,0.0,0.0,90,0.00,,---,0.00,VWS V14.00,2013-05-24 05:16:00,
2013-05-24 01:17:00,72.5,69.4,29.87,West,279,0.0,0.0,90,0.00,,---,0.00,VWS V14.00,2013-05-24 05:17:00,
2013-05-24 01:18:00,72.4,69.3,29.87,West,279,0.0,0.0,90,0.00,,---,0.00,VWS V14.00,2013-05-24 05:18:00,
2013-05-24 01:19:00,72.4,69.3,29.87,West,279,0.0,0.0,90,0.00,,---,0.00,VWS V14.00,2013-05-24 05:19:00,
2013-05-24 01:20:00,72.4,69.3,29.87,West,279,0.0,0.0,90,0.00,,---,0.00,VWS V14.00,2013-05-24 05:20:00,
2013-05-24 01:21:00,72.4,69.0,29.86,West,279,0.0,0.0,89,0.00,,---,0.00,VWS V14.00,2013-05-24 05:21:00,
2013-05-24 01:22:00,72.4,69.3,29.86,West,279,0.0,0.0,90,0.00,,---,0.00,VWS V14.00,2013-05-24 05:22:00,
2013-05-24 01:23:00,72.4,69.3,29.86,West,279,0.0,0.0,90,0.00,,---,0.00,VWS V14.00,2013-05-24 05:23:00,
2013-05-24 01:24:00,72.4,69.3,29.87,West,279,0.0,0.0,90,0.00,,---,0.00,VWS V14.00,2013-05-24 05:24:00,
2013-05-24 01:25:00,72.4,69.0,29.86,West,279,0.0,0.0,89,0.00,,---,0.00,VWS V14.00,2013-05-24 05:25:00,
2013-05-24 01:26:00,72.3,68.9,29.87,West,279,0.0,0.0,89,0.00,,---,0.00,VWS V14.00,2013-05-24 05:26:00,
2013-05-24 01:27:00,72.4,69.0,29.86,West,279,0.0,0.0,89,0.00,,---,0.00,VWS V14.00,2013-05-24 05:27:00,
2013-05-24 01:28:00,72.4,69.0,29.86,West,279,0.0,0.0,89,0.00,,---,0.00,VWS V14.00,2013-05-24 05:28:00,
2013-05-24 01:29:00,72.3,68.9,29.86,West,279,0.0,0.0,89,0.00,,---,0.00,VWS V14.00,2013-05-24 05:29:00,
2013-05-24 01:30:00,72.3,68.9,29.86,West,279,0.0,0.0,89,0.00,,---,0.00,VWS V14.00,2013-05-24 05:30:00,
2013-05-24 01:31:00,72.2,68.8,29.86,West,279,0.0,0.0,89,0.00,,---,0.00,VWS V14.00,2013-05-24 05:31:00,
2013-05-24 01:32:00,72.3,68.9,29.87,West,279,0.0,0.0,89,0.00,,---,0.00,VWS V14.00,2013-05-24 05:32:00,
2013-05-24 01:33:00,72.3,68.9,29.86,West,279,0.0,0.0,89,0.00,,---,0.00,VWS V14.00,2013-05-24 05:33:00,
2013-05-24 01:34:00,72.3,68.9,29.86,West,279,0.0,0.0,89,0.00,,---,0.00,VWS V14.00,2013-05-24 05:34:00,
2013-05-24 01:35:00,72.3,68.9,29.86,West,279,0.0,0.0,89,0.00,,---,0.00,VWS V14.00,2013-05-24 05:35:00,
2013-05-24 01:36:00,72.2,68.8,29.86,West,279,0.0,0.0,89,0.00,,---,0.00,VWS V14.00,2013-05-24 05:36:00,
2013-05-24 01:37:00,72.2,68.8,29.86,West,279,0.0,0.0,89,0.00,,---,0.00,VWS V14.00,2013-05-24 05:37:00,
2013-05-24 01:38:00,72.2,68.8,29.86,West,279,0.0,0.0,89,0.00,,---,0.00,VWS V14.00,2013-05-24 05:38:00,
2013-05-24 01:39:00,72.2,68.8,29.86,West,279,0.0,0.0,89,0.00,,---,0.00,VWS V14.00,2013-05-24 05:39:00,
2013-05-24 01:40:00,72.2,68.8,29.86,West,279,0.0,0.0,89,0.00,,---,0.00,VWS V14.00,2013-05-24 05:40:00,
2013-05-24 01:41:00,72.2,68.8,29.86,West,279,0.0,0.0,89,0.00,,---,0.00,VWS V14.00,2013-05-24 05:41:00,
2013-05-24 01:42:00,72.2,68.8,29.86,West,279,0.0,0.0,89,0.00,,---,0.00,VWS V14.00,2013-05-24 05:42:00,
2013-05-24 01:43:00,72.2,68.8,29.86,West,279,0.0,0.0,89,0.00,,---,0.00,VWS V14.00,2013-05-24 05:43:00,
2013-05-24 01:44:00,72.2,68.8,29.86,West,279,0.0,0.0,89,0.00,,---,0.00,VWS V14.00,2013-05-24 05:44:00,
2013-05-24 01:45:00,72.2,68.8,29.86,West,279,0.0,0.0,89,0.00,,---,0.00,VWS V14.00,2013-05-24 05:45:00,
2013-05-24 01:46:00,72.1,68.7,29.85,West,279,0.0,0.0,89,0.00,,---,0.00,VWS V14.00,2013-05-24 05:46:00,
2013-05-24 01:47:00,72.1,68.7,29.86,West,279,0.0,0.0,89,0.00,,---,0.00,VWS V14.00,2013-05-24 05:47:00,
2013-05-24 01:48:00,72.1,68.7,29.86,West,279,0.0,1.0,89,0.00,,---,0.00,VWS V14.00,2013-05-24 05:48:00,
2013-05-24 01:49:00,72.1,68.7,29.86,West,279,0.0,0.0,89,0.00,,---,0.00,VWS V14.00,2013-05-24 05:49:00,
2013-05-24 01:50:00,72.1,68.7,29.86,West,279,0.0,0.0,89,0.00,,---,0.00,VWS V14.00,2013-05-24 05:50:00,
2013-05-24 01:51:00,72.0,68.6,29.85,West,279,0.0,0.0,89,0.00,,---,0.00,VWS V14.00,2013-05-24 05:51:00,
2013-05-24 01:52:00,72.0,68.6,29.85,West,279,0.0,0.0,89,0.00,,---,0.00,VWS V14.00,2013-05-24 05:52:00,
2013-05-24 01:53:00,72.1,68.7,29.85,West,279,0.0,0.0,89,0.00,,---,0.00,VWS V14.00,2013-05-24 05:53:00,
2013-05-24 01:54:00,72.0,68.6,29.85,West,279,0.0,0.0,89,0.00,,---,0.00,VWS V14.00,2013-05-24 05:54:00,
2013-05-24 01:55:00,72.0,68.6,29.86,West,279,0.0,0.0,89,0.00,,---,0.00,VWS V14.00,2013-05-24 05:55:00,
2013-05-24 01:56:00,71.9,68.5,29.86,West,279,0.0,0.0,89,0.00,,---,0.00,VWS V14.00,2013-05-24 05:56:00,
2013-05-24 01:57:00,72.0,68.6,29.85,West,279,0.0,0.0,89,0.00,,---,0.00,VWS V14.00,2013-05-24 05:57:00,
2013-05-24 01:58:00,72.0,68.6,29.86,West,279,0.0,0.0,89,0.00,,---,0.00,VWS V14.00,2013-05-24 05:58:00,
2013-05-24 01:59:00,71.9,68.5,29.85,West,279,0.0,0.0,89,0.00,,---,0.00,VWS V14.00,2013-05-24 05:59:00,
2013-05-24 02:00:00,71.9,68.5,29.85,West,279,0.0,0.0,89,0.00,,---,0.00,VWS V14.00,2013-05-24 06:00:00,
2013-05-24 02:01:00,71.9,68.2,29.86,West,279,0.0,0.0,88,0.00,,---,0.00,VWS V14.00,2013-05-24 06:01:00,
2013-05-24 02:02:00,71.9,68.5,29.86,West,279,0.0,0.0,89,0.00,,---,0.00,VWS V14.00,2013-05-24 06:02:00,
2013-05-24 02:03:00,71.9,68.5,29.86,West,279,0.0,0.0,89,0.00,,---,0.00,VWS V14.00,2013-05-24 06:03:00,
2013-05-24 02:04:00,71.9,68.5,29.86,West,279,0.0,0.0,89,0.00,,---,0.00,VWS V14.00,2013-05-24 06:04:00,
2013-05-24 02:05:00,71.8,68.4,29.85,West,279,0.0,0.0,89,0.00,,---,0.00,VWS V14.00,2013-05-24 06:05:00,
2013-05-24 02:06:00,71.7,68.0,29.86,West,279,0.0,0.0,88,0.00,,---,0.00,VWS V14.00,2013-05-24 06:06:00,
2013-05-24 02:07:00,71.8,68.1,29.86,West,279,0.0,0.0,88,0.00,,---,0.00,VWS V14.00,2013-05-24 06:07:00,
2013-05-24 02:08:00,71.8,68.1,29.85,West,279,0.0,0.0,88,0.00,,---,0.00,VWS V14.00,2013-05-24 06:08:00,
2013-05-24 02:09:00,71.8,68.1,29.85,West,279,0.0,0.0,88,0.00,,---,0.00,VWS V14.00,2013-05-24 06:09:00,
2013-05-24 02:10:00,71.8,68.1,29.86,West,279,0.0,0.0,88,0.00,,---,0.00,VWS V14.00,2013-05-24 06:10:00,
2013-05-24 02:11:00,71.6,67.9,29.86,West,279,0.0,0.0,88,0.00,,---,0.00,VWS V14.00,2013-05-24 06:11:00,
2013-05-24 02:12:00,71.7,68.0,29.86,West,279,0.0,0.0,88,0.00,,---,0.00,VWS V14.00,2013-05-24 06:12:00,
2013-05-24 02:13:00,71.7,68.0,29.86,West,279,0.0,1.0,88,0.00,,---,0.00,VWS V14.00,2013-05-24 06:13:00,
2013-05-24 02:14:00,71.7,68.0,29.86,West,279,0.0,1.0,88,0.00,,---,0.00,VWS V14.00,2013-05-24 06:14:00,
2013-05-24 02:15:00,71.7,68.0,29.86,West,279,0.0,1.0,88,0.00,,---,0.00,VWS V14.00,2013-05-24 06:15:00,
2013-05-24 02:16:00,71.5,67.4,29.86,West,280,0.0,1.0,87,0.00,,---,0.00,VWS V14.00,2013-05-24 06:16:00,
2013-05-24 02:17:00,71.6,67.9,29.86,West,279,0.0,0.0,88,0.00,,---,0.00,VWS V14.00,2013-05-24 06:17:00,
2013-05-24 02:18:00,71.6,67.9,29.86,West,279,1.0,1.0,88,0.00,,---,0.00,VWS V14.00,2013-05-24 06:18:00,
2013-05-24 02:19:00,71.6,67.9,29.86,West,279,0.0,2.0,88,0.00,,---,0.00,VWS V14.00,2013-05-24 06:19:00,
2013-05-24 02:20:00,71.6,67.9,29.86,West,279,0.0,2.0,88,0.00,,---,0.00,VWS V14.00,2013-05-24 06:20:00,
2013-05-24 02:21:00,71.4,67.3,29.86,WNW,284,0.0,2.0,87,0.00,,---,0.00,VWS V14.00,2013-05-24 06:21:00,
2013-05-24 02:22:00,71.5,67.4,29.86,West,280,1.0,2.0,87,0.00,,---,0.00,VWS V14.00,2013-05-24 06:22:00,
2013-05-24 02:23:00,71.5,67.4,29.86,West,280,1.0,1.0,87,0.00,,---,0.00,VWS V14.00,2013-05-24 06:23:00,
2013-05-24 02:24:00,71.5,67.4,29.86,West,280,1.0,4.0,87,0.00,,---,0.00,VWS V14.00,2013-05-24 06:24:00,
2013-05-24 02:25:00,71.4,67.3,29.86,WNW,284,1.0,2.0,87,0.00,,---,0.00,VWS V14.00,2013-05-24 06:25:00,
2013-05-24 02:26:00,71.5,67.1,29.86,WNW,284,4.0,4.0,86,0.00,,---,0.00,VWS V14.00,2013-05-24 06:26:00,
2013-05-24 02:27:00,71.4,67.3,29.86,WNW,284,1.0,2.0,87,0.00,,---,0.00,VWS V14.00,2013-05-24 06:27:00,
2013-05-24 02:28:00,71.4,67.3,29.86,WNW,284,0.0,2.0,87,0.00,,---,0.00,VWS V14.00,2013-05-24 06:28:00,
2013-05-24 02:29:00,71.4,67.3,29.86,WNW,284,1.0,1.0,87,0.00,,---,0.00,VWS V14.00,2013-05-24 06:29:00,
2013-05-24 02:30:00,71.4,67.0,29.86,WNW,284,0.0,2.0,86,0.00,,---,0.00,VWS V14.00,2013-05-24 06:30:00,
2013-05-24 02:31:00,71.6,66.9,29.86,NW,306,0.0,1.0,85,0.00,,---,0.00,VWS V14.00,2013-05-24 06:31:00,
2013-05-24 02:32:00,71.5,67.1,29.86,WNW,284,2.0,4.0,86,0.00,,---,0.00,VWS V14.00,2013-05-24 06:32:00,
2013-05-24 02:33:00,71.5,67.1,29.86,WNW,286,1.0,7.0,86,0.00,,---,0.00,VWS V14.00,2013-05-24 06:33:00,
2013-05-24 02:34:00,71.5,67.1,29.86,WNW,294,0.0,4.0,86,0.00,,---,0.00,VWS V14.00,2013-05-24 06:34:00,
2013-05-24 02:35:00,71.5,66.8,29.86,NW,317,2.0,7.0,85,0.00,,---,0.00,VWS V14.00,2013-05-24 06:35:00,
2013-05-24 02:36:00,71.9,66.8,29.86,West,265,4.0,7.0,84,0.00,,---,0.00,VWS V14.00,2013-05-24 06:36:00,
2013-05-24 02:37:00,71.6,66.9,29.86,NW,306,0.0,1.0,85,0.00,,---,0.00,VWS V14.00,2013-05-24 06:37:00,
2013-05-24 02:38:00,71.7,66.9,29.86,NW,314,4.0,5.0,85,0.00,,---,0.00,VWS V14.00,2013-05-24 06:38:00,
2013-05-24 02:39:00,71.7,66.9,29.86,WNW,294,1.0,6.0,85,0.00,,---,0.00,VWS V14.00,2013-05-24 06:39:00,
2013-05-24 02:40:00,71.8,66.7,29.86,NNW,335,4.0,6.0,84,0.00,,---,0.00,VWS V14.00,2013-05-24 06:40:00,
2013-05-24 02:41:00,72.1,66.7,29.86,West,269,0.0,3.0,83,0.00,,---,0.00,VWS V14.00,2013-05-24 06:41:00,
2013-05-24 02:42:00,71.9,66.8,29.86,West,270,2.0,7.0,84,0.00,,---,0.00,VWS V14.00,2013-05-24 06:42:00,
2013-05-24 02:43:00,72.0,66.9,29.86,West,270,1.0,2.0,84,0.00,,---,0.00,VWS V14.00,2013-05-24 06:43:00,
2013-05-24 02:44:00,72.0,66.6,29.86,West,269,1.0,2.0,83,0.00,,---,0.00,VWS V14.00,2013-05-24 06:44:00,
2013-05-24 02:45:00,72.0,66.6,29.86,West,267,0.0,6.0,83,0.00,,---,0.00,VWS V14.00,2013-05-24 06:45:00,
2013-05-24 02:46:00,72.2,66.4,29.86,NW,318,2.0,8.0,82,0.00,,---,0.00,VWS V14.00,2013-05-24 06:46:00,
2013-05-24 02:47:00,72.1,66.7,29.86,West,269,0.0,3.0,83,0.00,,---,0.00,VWS V14.00,2013-05-24 06:47:00,
2013-05-24 02:48:00,72.1,66.7,29.86,West,269,0.0,0.0,83,0.00,,---,0.00,VWS V14.00,2013-05-24 06:48:00,
2013-05-24 02:49:00,72.2,66.4,29.86,West,270,2.0,2.0,82,0.00,,---,0.00,VWS V14.00,2013-05-24 06:49:00,
2013-05-24 02:50:00,72.2,66.4,29.86,West,271,0.0,2.0,82,0.00,,---,0.00,VWS V14.00,2013-05-24 06:50:00,
2013-05-24 02:51:00,72.4,65.9,29.86,West,266,1.0,6.0,80,0.00,,---,0.00,VWS V14.00,2013-05-24 06:51:00,
2013-05-24 02:52:00,72.2,66.1,29.86,NW,318,0.0,8.0,81,0.00,,---,0.00,VWS V14.00,2013-05-24 06:52:00,
2013-05-24 02:53:00,72.2,66.1,29.86,NW,318,0.0,2.0,81,0.00,,---,0.00,VWS V14.00,2013-05-24 06:53:00,
2013-05-24 02:54:00,72.3,66.2,29.86,NW,317,2.0,5.0,81,0.00,,---,0.00,VWS V14.00,2013-05-24 06:54:00,
2013-05-24 02:55:00,72.3,66.2,29.86,NW,304,6.0,6.0,81,0.00,,---,0.00,VWS V14.00,2013-05-24 06:55:00,
2013-05-24 02:56:00,72.6,65.7,29.86,WNW,294,2.0,5.0,79,0.00,,---,0.00,VWS V14.00,2013-05-24 06:56:00,
2013-05-24 02:57:00,72.4,65.9,29.86,WNW,288,7.0,10.0,80,0.00,,---,0.00,VWS V14.00,2013-05-24 06:57:00,
2013-05-24 02:58:00,72.4,65.9,29.86,NW,313,4.0,10.0,80,0.00,,---,0.00,VWS V14.00,2013-05-24 06:58:00,
2013-05-24 02:59:00,72.5,66.0,29.86,NW,313,1.0,4.0,80,0.00,,---,0.00,VWS V14.00,2013-05-24 06:59:00,
2013-05-24 03:00:00,72.5,65.6,29.86,WNW,290,1.0,5.0,79,0.00,,---,0.00,VWS V14.00,2013-05-24 07:00:00,
2013-05-24 03:01:00,72.7,65.4,29.86,West,280,8.0,8.0,78,0.00,,---,0.00,VWS V14.00,2013-05-24 07:01:00,
2013-05-24 03:02:00,72.6,65.7,29.86,WNW,294,0.0,5.0,79,0.00,,---,0.00,VWS V14.00,2013-05-24 07:02:00,
2013-05-24 03:03:00,72.6,65.7,29.86,WNW,284,4.0,8.0,79,0.00,,---,0.00,VWS V14.00,2013-05-24 07:03:00,
2013-05-24 03:04:00,72.6,65.7,29.86,NW,308,5.0,6.0,79,0.00,,---,0.00,VWS V14.00,2013-05-24 07:04:00,
2013-05-24 03:05:00,72.6,65.3,29.86,NW,317,2.0,5.0,78,0.00,,---,0.00,VWS V14.00,2013-05-24 07:05:00,
2013-05-24 03:06:00,72.8,65.6,29.85,WNW,284,1.0,4.0,78,0.00,,---,0.00,VWS V14.00,2013-05-24 07:06:00,
2013-05-24 03:07:00,72.7,65.4,29.86,WNW,302,1.0,8.0,78,0.00,,---,0.00,VWS V14.00,2013-05-24 07:07:00,
2013-05-24 03:08:00,72.8,65.6,29.86,NW,307,2.0,2.0,78,0.00,,---,0.00,VWS V14.00,2013-05-24 07:08:00,
2013-05-24 03:09:00,72.8,65.6,29.86,WNW,298,1.0,6.0,78,0.00,,---,0.00,VWS V14.00,2013-05-24 07:09:00,
2013-05-24 03:10:00,72.8,65.6,29.86,WNW,287,2.0,6.0,78,0.00,,---,0.00,VWS V14.00,2013-05-24 07:10:00,
2013-05-24 03:11:00,72.8,65.6,29.86,NW,313,4.0,5.0,78,0.00,,---,0.00,VWS V14.00,2013-05-24 07:11:00,
2013-05-24 03:12:00,72.8,65.6,29.85,WNW,284,2.0,4.0,78,0.00,,---,0.00,VWS V14.00,2013-05-24 07:12:00,
2013-05-24 03:13:00,72.8,65.6,29.85,NW,313,5.0,5.0,78,0.00,,---,0.00,VWS V14.00,2013-05-24 07:13:00,
2013-05-24 03:14:00,72.8,65.6,29.85,WNW,288,4.0,5.0,78,0.00,,---,0.00,VWS V14.00,2013-05-24 07:14:00,
2013-05-24 03:15:00,72.8,65.6,29.86,WNW,288,4.0,7.0,78,0.00,,---,0.00,VWS V14.00,2013-05-24 07:15:00,
2013-05-24 03:16:00,72.8,65.2,29.86,WNW,299,0.0,1.0,77,0.00,,---,0.00,VWS V14.00,2013-05-24 07:16:00,
2013-05-24 03:17:00,72.8,65.6,29.86,NW,313,0.0,5.0,78,0.00,,---,0.00,VWS V14.00,2013-05-24 07:17:00,
2013-05-24 03:18:00,72.8,65.6,29.85,NW,313,0.0,0.0,78,0.00,,---,0.00,VWS V14.00,2013-05-24 07:18:00,
2013-05-24 03:19:00,72.8,65.6,29.85,NW,313,0.0,2.0,78,0.00,,---,0.00,VWS V14.00,2013-05-24 07:19:00,
2013-05-24 03:20:00,72.8,65.6,29.86,NW,316,1.0,4.0,78,0.00,,---,0.00,VWS V14.00,2013-05-24 07:20:00,
2013-05-24 03:21:00,72.7,65.1,29.86,NW,314,0.0,5.0,77,0.00,,---,0.00,VWS V14.00,2013-05-24 07:21:00,
2013-05-24 03:22:00,72.8,65.2,29.86,WNW,299,0.0,1.0,77,0.00,,---,0.00,VWS V14.00,2013-05-24 07:22:00,
2013-05-24 03:23:00,72.8,65.2,29.86,WNW,299,0.0,2.0,77,0.00,,---,0.00,VWS V14.00,2013-05-24 07:23:00,
2013-05-24 03:24:00,72.7,65.1,29.86,WNW,292,5.0,5.0,77,0.00,,---,0.00,VWS V14.00,2013-05-24 07:24:00,
2013-05-24 03:25:00,72.7,65.1,29.86,WNW,295,7.0,7.0,77,0.00,,---,0.00,VWS V14.00,2013-05-24 07:25:00,
2013-05-24 03:26:00,72.6,64.6,29.86,WNW,293,1.0,4.0,76,0.00,,---,0.00,VWS V14.00,2013-05-24 07:26:00,
2013-05-24 03:27:00,72.6,64.6,29.86,NW,314,0.0,5.0,76,0.00,,---,0.00,VWS V14.00,2013-05-24 07:27:00,
2013-05-24 03:28:00,72.6,64.6,29.86,NNW,328,5.0,7.0,76,0.00,,---,0.00,VWS V14.00,2013-05-24 07:28:00,
2013-05-24 03:29:00,72.6,64.6,29.86,WNW,300,8.0,8.0,76,0.00,,---,0.00,VWS V14.00,2013-05-24 07:29:00,
2013-05-24 03:30:00,72.6,64.6,29.86,WNW,291,0.0,8.0,76,0.00,,---,0.00,VWS V14.00,2013-05-24 07:30:00,
2013-05-24 03:31:00,72.5,64.5,29.86,WNW,302,2.0,5.0,76,0.00,,---,0.00,VWS V14.00,2013-05-24 07:31:00,
2013-05-24 03:32:00,72.6,64.6,29.86,WNW,293,0.0,4.0,76,0.00,,---,0.00,VWS V14.00,2013-05-24 07:32:00,
2013-05-24 03:33:00,72.5,64.5,29.86,WNW,298,1.0,2.0,76,0.00,,---,0.00,VWS V14.00,2013-05-24 07:33:00,
2013-05-24 03:34:00,72.6,65.0,29.86,West,269,3.0,6.0,77,0.00,,---,0.00,VWS V14.00,2013-05-24 07:34:00,
2013-05-24 03:35:00,72.5,64.5,29.86,WNW,301,4.0,6.0,76,0.00,,---,0.00,VWS V14.00,2013-05-24 07:35:00,
2013-05-24 03:36:00,72.4,64.4,29.86,WNW,302,0.0,4.0,76,0.00,,---,0.00,VWS V14.00,2013-05-24 07:36:00,
2013-05-24 03:37:00,72.5,64.5,29.86,WNW,302,2.0,5.0,76,0.00,,---,0.00,VWS V14.00,2013-05-24 07:37:00,
2013-05-24 03:38:00,72.4,64.4,29.86,WNW,297,6.0,8.0,76,0.00,,---,0.00,VWS V14.00,2013-05-24 07:38:00,
2013-05-24 03:39:00,72.4,64.4,29.86,NW,309,0.0,6.0,76,0.00,,---,0.00,VWS V14.00,2013-05-24 07:39:00,
2013-05-24 03:40:00,72.4,64.4,29.86,WNW,302,0.0,4.0,76,0.00,,---,0.00,VWS V14.00,2013-05-24 07:40:00,
2013-05-24 03:41:00,72.2,64.2,29.86,NW,309,0.0,5.0,76,0.00,,---,0.00,VWS V14.00,2013-05-24 07:41:00,
2013-05-24 03:42:00,72.4,64.4,29.86,WNW,302,0.0,4.0,76,0.00,,---,0.00,VWS V14.00,2013-05-24 07:42:00,
2013-05-24 03:43:00,72.4,64.4,29.86,WNW,302,1.0,1.0,76,0.00,,---,0.00,VWS V14.00,2013-05-24 07:43:00,
2013-05-24 03:44:00,72.3,64.7,29.86,WNW,302,0.0,4.0,77,0.00,,---,0.00,VWS V14.00,2013-05-24 07:44:00,
2013-05-24 03:45:00,72.3,64.3,29.86,NW,323,0.0,5.0,76,0.00,,---,0.00,VWS V14.00,2013-05-24 07:45:00,
2013-05-24 03:46:00,72.1,64.5,29.86,WNW,294,0.0,4.0,77,0.00,,---,0.00,VWS V14.00,2013-05-24 07:46:00,
2013-05-24 03:47:00,72.2,64.2,29.86,WNW,286,4.0,5.0,76,0.00,,---,0.00,VWS V14.00,2013-05-24 07:47:00,
2013-05-24 03:48:00,72.2,64.2,29.86,WNW,286,2.0,4.0,76,0.00,,---,0.00,VWS V14.00,2013-05-24 07:48:00,
2013-05-24 03:49:00,72.2,64.6,29.86,WNW,298,0.0,7.0,77,0.00,,---,0.00,VWS V14.00,2013-05-24 07:49:00,
2013-05-24 03:50:00,72.1,64.1,29.86,WNW,294,0.0,6.0,76,0.00,,---,0.00,VWS V14.00,2013-05-24 07:50:00,
2013-05-24 03:51:00,71.9,63.9,29.86,WNW,286,4.0,4.0,76,0.00,,---,0.00,VWS V14.00,2013-05-24 07:51:00,
2013-05-24 03:52:00,72.1,64.5,29.86,WNW,294,0.0,4.0,77,0.00,,---,0.00,VWS V14.00,2013-05-24 07:52:00,
2013-05-24 03:53:00,72.1,64.5,29.86,WNW,290,0.0,5.0,77,0.00,,---,0.00,VWS V14.00,2013-05-24 07:53:00,
2013-05-24 03:54:00,72.0,64.4,29.86,WNW,290,0.0,1.0,77,0.00,,---,0.00,VWS V14.00,2013-05-24 07:54:00,
2013-05-24 03:55:00,72.0,64.4,29.86,NW,315,4.0,7.0,77,0.00,,---,0.00,VWS V14.00,2013-05-24 07:55:00,
2013-05-24 03:56:00,71.8,64.2,29.86,WNW,302,2.0,5.0,77,0.00,,---,0.00,VWS V14.00,2013-05-24 07:56:00,
2013-05-24 03:57:00,71.9,63.9,29.86,WNW,290,4.0,4.0,76,0.00,,---,0.00,VWS V14.00,2013-05-24 07:57:00,
2013-05-24 03:58:00,71.9,63.9,29.86,WNW,287,0.0,5.0,76,0.00,,---,0.00,VWS V14.00,2013-05-24 07:58:00,
2013-05-24 03:59:00,71.9,64.3,29.86,WNW,287,0.0,0.0,77,0.00,,---,0.00,VWS V14.00,2013-05-24 07:59:00,
2013-05-24 04:00:00,71.9,64.3,29.86,NW,304,2.0,4.0,77,0.00,,---,0.00,VWS V14.00,2013-05-24 08:00:00,
2013-05-24 04:01:00,71.7,64.1,29.86,WNW,302,0.0,0.0,77,0.00,,---,0.00,VWS V14.00,2013-05-24 08:01:00,
2013-05-24 04:02:00,71.8,64.2,29.86,WNW,302,0.0,5.0,77,0.00,,---,0.00,VWS V14.00,2013-05-24 08:02:00,
2013-05-24 04:03:00,71.8,64.2,29.86,WNW,302,1.0,1.0,77,0.00,,---,0.00,VWS V14.00,2013-05-24 08:03:00,
2013-05-24 04:04:00,71.7,64.1,29.86,WNW,302,1.0,1.0,77,0.00,,---,0.00,VWS V14.00,2013-05-24 08:04:00,
2013-05-24 04:05:00,71.7,64.1,29.86,WNW,302,0.0,2.0,77,0.00,,---,0.00,VWS V14.00,2013-05-24 08:05:00,
2013-05-24 04:06:00,71.5,64.3,29.86,West,281,1.0,2.0,78,0.00,,---,0.00,VWS V14.00,2013-05-24 08:06:00,
2013-05-24 04:07:00,71.7,64.1,29.86,WNW,302,0.0,0.0,77,0.00,,---,0.00,VWS V14.00,2013-05-24 08:07:00,
2013-05-24 04:08:00,71.6,64.0,29.86,West,270,1.0,3.0,77,0.00,,---,0.00,VWS V14.00,2013-05-24 08:08:00,
2013-05-24 04:09:00,71.6,64.0,29.86,West,270,0.0,2.0,77,0.00,,---,0.00,VWS V14.00,2013-05-24 08:09:00,
2013-05-24 04:10:00,71.6,64.4,29.86,WNW,301,1.0,6.0,78,0.00,,---,0.00,VWS V14.00,2013-05-24 08:10:00,
2013-05-24 04:11:00,71.3,64.1,29.86,NW,317,0.0,5.0,78,0.00,,---,0.00,VWS V14.00,2013-05-24 08:11:00,
2013-05-24 04:12:00,71.5,64.3,29.86,West,280,0.0,2.0,78,0.00,,---,0.00,VWS V14.00,2013-05-24 08:12:00,
2013-05-24 04:13:00,71.5,64.3,29.86,WNW,296,1.0,5.0,78,0.00,,---,0.00,VWS V14.00,2013-05-24 08:13:00,
2013-05-24 04:14:00,71.4,64.2,29.86,WNW,289,1.0,6.0,78,0.00,,---,0.00,VWS V14.00,2013-05-24 08:14:00,
2013-05-24 04:15:00,71.4,64.2,29.86,NW,304,0.0,6.0,78,0.00,,---,0.00,VWS V14.00,2013-05-24 08:15:00,
2013-05-24 04:16:00,71.1,63.9,29.86,NW,309,0.0,4.0,78,0.00,,---,0.00,VWS V14.00,2013-05-24 08:16:00,
2013-05-24 04:17:00,71.3,64.1,29.86,NW,317,0.0,12.0,78,0.00,,---,0.00,VWS V14.00,2013-05-24 08:17:00,
2013-05-24 04:18:00,71.3,64.1,29.86,West,281,2.0,12.0,78,0.00,,---,0.00,VWS V14.00,2013-05-24 08:18:00,
2013-05-24 04:19:00,71.2,64.0,29.86,WNW,301,2.0,4.0,78,0.00,,---,0.00,VWS V14.00,2013-05-24 08:19:00,
2013-05-24 04:20:00,71.2,64.0,29.86,West,267,0.0,6.0,78,0.00,,---,0.00,VWS V14.00,2013-05-24 08:20:00,
2013-05-24 04:21:00,70.9,63.7,29.86,NW,308,1.0,2.0,78,0.00,,---,0.00,VWS V14.00,2013-05-24 08:21:00,
2013-05-24 04:22:00,71.1,63.9,29.86,NW,309,0.0,4.0,78,0.00,,---,0.00,VWS V14.00,2013-05-24 08:22:00,
2013-05-24 04:23:00,71.0,63.8,29.86,WNW,300,4.0,4.0,78,0.00,,---,0.00,VWS V14.00,2013-05-24 08:23:00,
2013-05-24 04:24:00,71.0,63.8,29.86,NW,315,2.0,4.0,78,0.00,,---,0.00,VWS V14.00,2013-05-24 08:24:00,
2013-05-24 04:25:00,71.0,63.8,29.86,NW,315,0.0,2.0,78,0.00,,---,0.00,VWS V14.00,2013-05-24 08:25:00,
2013-05-24 04:26:00,70.7,63.5,29.86,NW,319,0.0,1.0,78,0.00,,---,0.00,VWS V14.00,2013-05-24 08:26:00,
2013-05-24 04:27:00,70.9,63.7,29.86,NW,308,2.0,2.0,78,0.00,,---,0.00,VWS V14.00,2013-05-24 08:27:00,
2013-05-24 04:28:00,70.9,63.7,29.86,WNW,292,4.0,6.0,78,0.00,,---,0.00,VWS V14.00,2013-05-24 08:28:00,
2013-05-24 04:29:00,70.8,63.6,29.86,WNW,293,2.0,4.0,78,0.00,,---,0.00,VWS V14.00,2013-05-24 08:29:00,
2013-05-24 04:30:00,70.8,63.6,29.86,WNW,302,5.0,6.0,78,0.00,,---,0.00,VWS V14.00,2013-05-24 08:30:00,
2013-05-24 04:31:00,70.6,63.0,29.86,NW,309,0.0,0.0,77,0.00,,---,0.00,VWS V14.00,2013-05-24 08:31:00,
2013-05-24 04:32:00,70.7,63.5,29.86,NW,319,0.0,1.0,78,0.00,,---,0.00,VWS V14.00,2013-05-24 08:32:00,
2013-05-24 04:33:00,70.7,63.5,29.87,NW,309,1.0,5.0,78,0.00,,---,0.00,VWS V14.00,2013-05-24 08:33:00,
2013-05-24 04:34:00,70.7,63.5,29.86,NW,309,0.0,2.0,78,0.00,,---,0.00,VWS V14.00,2013-05-24 08:34:00,
2013-05-24 04:35:00,70.6,63.4,29.86,NW,309,0.0,2.0,78,0.00,,---,0.00,VWS V14.00,2013-05-24 08:35:00,
2013-05-24 04:36:00,70.5,63.3,29.87,WNW,303,4.0,6.0,78,0.00,,---,0.00,VWS V14.00,2013-05-24 08:36:00,
2013-05-24 04:37:00,70.6,63.0,29.86,NW,309,1.0,1.0,77,0.00,,---,0.00,VWS V14.00,2013-05-24 08:37:00,
2013-05-24 04:38:00,70.6,63.0,29.86,NW,309,1.0,2.0,77,0.00,,---,0.00,VWS V14.00,2013-05-24 08:38:00,
2013-05-24 04:39:00,70.6,63.0,29.86,NW,309,4.0,4.0,77,0.00,,---,0.00,VWS V14.00,2013-05-24 08:39:00,
2013-05-24 04:40:00,70.5,63.3,29.86,NW,309,0.0,4.0,78,0.00,,---,0.00,VWS V14.00,2013-05-24 08:40:00,
2013-05-24 04:41:00,70.4,63.2,29.86,WNW,302,0.0,4.0,78,0.00,,---,0.00,VWS V14.00,2013-05-24 08:41:00,
2013-05-24 04:42:00,70.5,63.3,29.87,WNW,299,2.0,6.0,78,0.00,,---,0.00,VWS V14.00,2013-05-24 08:42:00,
2013-05-24 04:43:00,70.5,63.3,29.86,WNW,299,0.0,2.0,78,0.00,,---,0.00,VWS V14.00,2013-05-24 08:43:00,
2013-05-24 04:44:00,70.4,63.2,29.86,WNW,299,0.0,2.0,78,0.00,,---,0.00,VWS V14.00,2013-05-24 08:44:00,
2013-05-24 04:45:00,70.4,63.2,29.86,WNW,298,2.0,4.0,78,0.00,,---,0.00,VWS V14.00,2013-05-24 08:45:00,
2013-05-24 04:46:00,70.3,63.1,29.86,NW,319,0.0,0.0,78,0.00,,---,0.00,VWS V14.00,2013-05-24 08:46:00,
2013-05-24 04:47:00,70.4,63.2,29.86,WNW,302,0.0,4.0,78,0.00,,---,0.00,VWS V14.00,2013-05-24 08:47:00,
2013-05-24 04:48:00,70.4,63.2,29.86,WNW,302,0.0,0.0,78,0.00,,---,0.00,VWS V14.00,2013-05-24 08:48:00,
2013-05-24 04:49:00,70.3,63.1,29.86,WNW,302,0.0,4.0,78,0.00,,---,0.00,VWS V14.00,2013-05-24 08:49:00,
2013-05-24 04:50:00,70.3,63.1,29.86,WNW,303,0.0,2.0,78,0.00,,---,0.00,VWS V14.00,2013-05-24 08:50:00,
2013-05-24 04:51:00,70.2,63.4,29.86,West,275,0.0,2.0,79,0.00,,---,0.00,VWS V14.00,2013-05-24 08:51:00,
2013-05-24 04:52:00,70.3,63.1,29.86,NW,319,0.0,1.0,78,0.00,,---,0.00,VWS V14.00,2013-05-24 08:52:00,
2013-05-24 04:53:00,70.3,63.1,29.86,NW,319,0.0,0.0,78,0.00,,---,0.00,VWS V14.00,2013-05-24 08:53:00,
2013-05-24 04:54:00,70.2,63.0,29.86,NW,319,1.0,2.0,78,0.00,,---,0.00,VWS V14.00,2013-05-24 08:54:00,
2013-05-24 04:55:00,70.2,63.4,29.86,West,275,0.0,4.0,79,0.00,,---,0.00,VWS V14.00,2013-05-24 08:55:00,
2013-05-24 04:56:00,70.0,62.8,29.86,WNW,286,0.0,1.0,78,0.00,,---,0.00,VWS V14.00,2013-05-24 08:56:00,
2013-05-24 04:57:00,70.2,63.4,29.86,West,276,0.0,2.0,79,0.00,,---,0.00,VWS V14.00,2013-05-24 08:57:00,
2013-05-24 04:58:00,70.1,63.3,29.86,West,276,2.0,4.0,79,0.00,,---,0.00,VWS V14.00,2013-05-24 08:58:00,
2013-05-24 04:59:00,70.1,63.3,29.86,West,276,0.0,2.0,79,0.00,,---,0.00,VWS V14.00,2013-05-24 08:59:00,
2013-05-24 05:00:00,70.1,63.3,29.86,WNW,286,1.0,6.0,79,0.00,,---,0.00,VWS V14.00,2013-05-24 09:00:00,
2013-05-24 05:01:00,69.8,62.6,29.86,WNW,289,4.0,4.0,78,0.00,,---,0.00,VWS V14.00,2013-05-24 09:01:00,
2013-05-24 05:02:00,70.0,62.8,29.86,WNW,286,0.0,1.0,78,0.00,,---,0.00,VWS V14.00,2013-05-24 09:02:00,
2013-05-24 05:03:00,69.9,62.7,29.86,WNW,286,0.0,4.0,78,0.00,,---,0.00,VWS V14.00,2013-05-24 09:03:00,
2013-05-24 05:04:00,69.9,62.7,29.86,WNW,287,0.0,1.0,78,0.00,,---,0.00,VWS V14.00,2013-05-24 09:04:00,
2013-05-24 05:05:00,69.9,62.7,29.86,WNW,287,0.0,1.0,78,0.00,,---,0.00,VWS V14.00,2013-05-24 09:05:00,
2013-05-24 05:06:00,69.7,62.5,29.86,WNW,287,4.0,4.0,78,0.00,,---,0.00,VWS V14.00,2013-05-24 09:06:00,
2013-05-24 05:07:00,69.8,62.6,29.86,WNW,291,1.0,4.0,78,0.00,,---,0.00,VWS V14.00,2013-05-24 09:07:00,
2013-05-24 05:08:00,69.8,62.6,29.86,WNW,285,4.0,6.0,78,0.00,,---,0.00,VWS V14.00,2013-05-24 09:08:00,
2013-05-24 05:09:00,69.7,62.5,29.86,WNW,286,0.0,4.0,78,0.00,,---,0.00,VWS V14.00,2013-05-24 09:09:00,
2013-05-24 05:10:00,69.7,62.5,29.86,WNW,285,0.0,5.0,78,0.00,,---,0.00,VWS V14.00,2013-05-24 09:10:00,
2013-05-24 05:11:00,69.5,62.3,29.86,NW,317,1.0,5.0,78,0.00,,---,0.00,VWS V14.00,2013-05-24 09:11:00,
2013-05-24 05:12:00,69.7,62.5,29.86,WNW,289,2.0,7.0,78,0.00,,---,0.00,VWS V14.00,2013-05-24 09:12:00,
2013-05-24 05:13:00,69.6,62.4,29.86,WNW,290,0.0,4.0,78,0.00,,---,0.00,VWS V14.00,2013-05-24 09:13:00,
2013-05-24 05:14:00,69.6,62.4,29.86,WNW,290,0.0,1.0,78,0.00,,---,0.00,VWS V14.00,2013-05-24 09:14:00,
2013-05-24 05:15:00,69.5,62.3,29.86,WNW,290,0.0,2.0,78,0.00,,---,0.00,VWS V14.00,2013-05-24 09:15:00,
2013-05-24 05:16:00,69.4,62.2,29.86,WNW,297,0.0,0.0,78,0.00,,---,0.00,VWS V14.00,2013-05-24 09:16:00,
2013-05-24 05:17:00,69.5,62.3,29.86,NW,317,2.0,5.0,78,0.00,,---,0.00,VWS V14.00,2013-05-24 09:17:00,
2013-05-24 05:18:00,69.4,62.2,29.86,NW,317,0.0,2.0,78,0.00,,---,0.00,VWS V14.00,2013-05-24 09:18:00,
2013-05-24 05:19:00,69.5,62.3,29.86,NW,304,0.0,5.0,78,0.00,,---,0.00,VWS V14.00,2013-05-24 09:19:00,
2013-05-24 05:20:00,69.4,62.2,29.86,NW,304,1.0,2.0,78,0.00,,---,0.00,VWS V14.00,2013-05-24 09:20:00,
2013-05-24 05:21:00,69.3,62.2,29.86,NW,306,0.0,4.0,78,0.00,,---,0.00,VWS V14.00,2013-05-24 09:21:00,
2013-05-24 05:22:00,69.4,62.2,29.86,WNW,297,0.0,1.0,78,0.00,,---,0.00,VWS V14.00,2013-05-24 09:22:00,
2013-05-24 05:23:00,69.4,62.2,29.86,WNW,292,1.0,8.0,78,0.00,,---,0.00,VWS V14.00,2013-05-24 09:23:00,
2013-05-24 05:24:00,69.3,62.2,29.86,WNW,294,2.0,2.0,78,0.00,,---,0.00,VWS V14.00,2013-05-24 09:24:00,
2013-05-24 05:25:00,69.3,62.2,29.86,WNW,294,0.0,2.0,78,0.00,,---,0.00,VWS V14.00,2013-05-24 09:25:00,
2013-05-24 05:26:00,69.2,62.1,29.86,NW,306,0.0,2.0,78,0.00,,---,0.00,VWS V14.00,2013-05-24 09:26:00,
2013-05-24 05:27:00,69.3,62.2,29.86,NW,306,0.0,4.0,78,0.00,,---,0.00,VWS V14.00,2013-05-24 09:27:00,
2013-05-24 05:28:00,69.3,62.2,29.86,NW,306,0.0,0.0,78,0.00,,---,0.00,VWS V14.00,2013-05-24 09:28:00,
2013-05-24 05:29:00,69.3,62.2,29.86,NW,306,0.0,1.0,78,0.00,,---,0.00,VWS V14.00,2013-05-24 09:29:00,
2013-05-24 05:30:00,69.2,62.1,29.86,NW,306,0.0,2.0,78,0.00,,---,0.00,VWS V14.00,2013-05-24 09:30:00,
2013-05-24 05:31:00,69.2,62.1,29.87,WNW,282,1.0,4.0,78,0.00,,---,0.00,VWS V14.00,2013-05-24 09:31:00,
2013-05-24 05:32:00,69.2,62.1,29.86,NW,306,0.0,2.0,78,0.00,,---,0.00,VWS V14.00,2013-05-24 09:32:00,
2013-05-24 05:33:00,69.2,62.1,29.86,NW,306,0.0,0.0,78,0.00,,---,0.00,VWS V14.00,2013-05-24 09:33:00,
2013-05-24 05:34:00,69.2,62.1,29.86,NW,306,0.0,0.0,78,0.00,,---,0.00,VWS V14.00,2013-05-24 09:34:00,
2013-05-24 05:35:00,69.2,62.1,29.86,West,270,1.0,5.0,78,0.00,,---,0.00,VWS V14.00,2013-05-24 09:35:00,
2013-05-24 05:36:00,69.1,61.6,29.87,WNW,291,1.0,4.0,77,0.00,,---,0.00,VWS V14.00,2013-05-24 09:36:00,
2013-05-24 05:37:00,69.2,62.1,29.87,WNW,283,2.0,4.0,78,0.00,,---,0.00,VWS V14.00,2013-05-24 09:37:00,
2013-05-24 05:38:00,69.1,62.0,29.87,WNW,284,0.0,2.0,78,0.00,,---,0.00,VWS V14.00,2013-05-24 09:38:00,
2013-05-24 05:39:00,69.1,62.0,29.87,WNW,284,0.0,1.0,78,0.00,,---,0.00,VWS V14.00,2013-05-24 09:39:00,
2013-05-24 05:40:00,69.1,62.0,29.87,WNW,294,1.0,6.0,78,0.00,,---,0.00,VWS V14.00,2013-05-24 09:40:00,
2013-05-24 05:41:00,69.0,61.9,29.87,West,280,0.0,4.0,78,0.00,,---,0.00,VWS V14.00,2013-05-24 09:41:00,
2013-05-24 05:42:00,69.1,62.0,29.87,WNW,291,0.0,4.0,78,0.00,,---,0.00,VWS V14.00,2013-05-24 09:42:00,
2013-05-24 05:43:00,69.0,61.5,29.86,West,270,0.0,7.0,77,0.00,,---,0.00,VWS V14.00,2013-05-24 09:43:00,
2013-05-24 05:44:00,69.1,61.6,29.87,WNW,294,0.0,2.0,77,0.00,,---,0.00,VWS V14.00,2013-05-24 09:44:00,
2013-05-24 05:45:00,69.1,62.0,29.87,WNW,294,0.0,0.0,78,0.00,,---,0.00,VWS V14.00,2013-05-24 09:45:00,
2013-05-24 05:46:00,68.9,61.8,29.88,WNW,292,0.0,4.0,78,0.00,,---,0.00,VWS V14.00,2013-05-24 09:46:00,
2013-05-24 05:47:00,69.0,61.9,29.87,West,280,0.0,4.0,78,0.00,,---,0.00,VWS V14.00,2013-05-24 09:47:00,
2013-05-24 05:48:00,69.0,61.9,29.87,West,280,0.0,1.0,78,0.00,,---,0.00,VWS V14.00,2013-05-24 09:48:00,
2013-05-24 05:49:00,69.0,61.9,29.87,WNW,290,2.0,2.0,78,0.00,,---,0.00,VWS V14.00,2013-05-24 09:49:00,
2013-05-24 05:50:00,69.0,61.9,29.87,WNW,289,0.0,5.0,78,0.00,,---,0.00,VWS V14.00,2013-05-24 09:50:00,
2013-05-24 05:51:00,68.8,61.7,29.88,WNW,302,4.0,5.0,78,0.00,,---,0.00,VWS V14.00,2013-05-24 09:51:00,
2013-05-24 05:52:00,68.9,61.8,29.88,WNW,292,1.0,4.0,78,0.00,,---,0.00,VWS V14.00,2013-05-24 09:52:00,
2013-05-24 05:53:00,68.9,61.4,29.88,WNW,290,4.0,5.0,77,0.00,,---,0.00,VWS V14.00,2013-05-24 09:53:00,
2013-05-24 05:54:00,68.9,61.4,29.88,WNW,300,4.0,6.0,77,0.00,,---,0.00,VWS V14.00,2013-05-24 09:54:00,
2013-05-24 05:55:00,68.9,61.4,29.88,WNW,303,0.0,4.0,77,0.00,,---,0.00,VWS V14.00,2013-05-24 09:55:00,
2013-05-24 05:56:00,68.8,61.3,29.88,WNW,290,2.0,4.0,77,0.00,,---,0.00,VWS V14.00,2013-05-24 09:56:00,
2013-05-24 05:57:00,68.8,61.7,29.88,WNW,302,5.0,5.0,78,0.00,,---,0.00,VWS V14.00,2013-05-24 09:57:00,
2013-05-24 05:58:00,68.8,61.7,29.88,NW,324,6.0,6.0,78,0.00,,---,0.00,VWS V14.00,2013-05-24 09:58:00,
2013-05-24 05:59:00,68.8,61.3,29.88,NW,308,4.0,11.0,77,0.00,,---,0.00,VWS V14.00,2013-05-24 09:59:00,
2013-05-24 06:00:00,68.8,61.3,29.88,WNW,292,1.0,6.0,77,0.00,,---,0.00,VWS V14.00,2013-05-24 10:00:00,
2013-05-24 06:01:00,68.7,61.2,29.88,WNW,303,4.0,4.0,77,0.00,,---,0.00,VWS V14.00,2013-05-24 10:01:00,
2013-05-24 06:02:00,68.8,61.3,29.88,WNW,291,1.0,4.0,77,0.00,,---,0.00,VWS V14.00,2013-05-24 10:02:00,
2013-05-24 06:03:00,68.7,61.2,29.88,West,281,2.0,4.0,77,0.00,,---,0.00,VWS V14.00,2013-05-24 10:03:00,
2013-05-24 06:04:00,68.7,61.2,29.88,NW,322,7.0,7.0,77,0.00,,---,0.00,VWS V14.00,2013-05-24 10:04:00,
2013-05-24 06:05:00,68.7,61.2,29.88,NW,313,0.0,7.0,77,0.00,,---,0.00,VWS V14.00,2013-05-24 10:05:00,
2013-05-24 06:06:00,68.6,61.1,29.89,NW,318,0.0,11.0,77,0.00,,---,0.00,VWS V14.00,2013-05-24 10:06:00,
2013-05-24 06:07:00,68.7,61.2,29.88,WSW,257,3.0,6.0,77,0.00,,---,0.00,VWS V14.00,2013-05-24 10:07:00,
2013-05-24 06:08:00,68.7,61.2,29.88,NW,306,1.0,6.0,77,0.00,,---,0.00,VWS V14.00,2013-05-24 10:08:00,
2013-05-24 06:09:00,68.7,61.2,29.88,NW,317,4.0,7.0,77,0.00,,---,0.00,VWS V14.00,2013-05-24 10:09:00,
2013-05-24 06:10:00,68.6,61.1,29.88,NW,310,1.0,4.0,77,0.00,,---,0.00,VWS V14.00,2013-05-24 10:10:00,
2013-05-24 06:11:00,68.6,61.1,29.89,NW,315,0.0,1.0,77,0.00,,---,0.00,VWS V14.00,2013-05-24 10:11:00,
2013-05-24 06:12:00,68.6,61.1,29.89,NW,317,2.0,11.0,77,0.00,,---,0.00,VWS V14.00,2013-05-24 10:12:00,
2013-05-24 06:13:00,68.6,61.1,29.89,West,265,5.0,5.0,77,0.00,,---,0.00,VWS V14.00,2013-05-24 10:13:00,
2013-05-24 06:14:00,68.6,61.1,29.89,West,278,7.0,7.0,77,0.00,,---,0.00,VWS V14.00,2013-05-24 10:14:00,
2013-05-24 06:15:00,68.6,61.1,29.89,NW,314,2.0,9.0,77,0.00,,---,0.00,VWS V14.00,2013-05-24 10:15:00,
2013-05-24 06:16:00,68.6,61.1,29.89,WNW,302,4.0,4.0,77,0.00,,---,0.00,VWS V14.00,2013-05-24 10:16:00,
2013-05-24 06:17:00,68.6,61.1,29.89,NW,315,0.0,1.0,77,0.00,,---,0.00,VWS V14.00,2013-05-24 10:17:00,
2013-05-24 06:18:00,68.6,61.1,29.89,WNW,298,1.0,5.0,77,0.00,,---,0.00,VWS V14.00,2013-05-24 10:18:00,
2013-05-24 06:19:00,68.6,61.1,29.89,NW,306,1.0,8.0,77,0.00,,---,0.00,VWS V14.00,2013-05-24 10:19:00,
2013-05-24 06:20:00,68.6,61.1,29.89,NNW,332,2.0,4.0,77,0.00,,---,0.00,VWS V14.00,2013-05-24 10:20:00,
2013-05-24 06:21:00,68.5,61.0,29.89,West,260,2.0,4.0,77,0.00,,---,0.00,VWS V14.00,2013-05-24 10:21:00,
2013-05-24 06:22:00,68.5,61.0,29.89,WNW,282,5.0,5.0,77,0.00,,---,0.00,VWS V14.00,2013-05-24 10:22:00,
2013-05-24 06:23:00,68.5,61.0,29.89,WSW,257,1.0,5.0,77,0.00,,---,0.00,VWS V14.00,2013-05-24 10:23:00,
2013-05-24 06:24:00,68.5,61.0,29.89,NW,313,1.0,9.0,77,0.00,,---,0.00,VWS V14.00,2013-05-24 10:24:00,
2013-05-24 06:25:00,68.5,61.0,29.89,West,268,1.0,4.0,77,0.00,,---,0.00,VWS V14.00,2013-05-24 10:25:00,
2013-05-24 06:26:00,68.5,61.0,29.89,NW,324,0.0,0.0,77,0.00,,---,0.00,VWS V14.00,2013-05-24 10:26:00,
2013-05-24 06:27:00,68.5,61.0,29.89,NW,318,2.0,5.0,77,0.00,,---,0.00,VWS V14.00,2013-05-24 10:27:00,
2013-05-24 06:28:00,68.5,61.0,29.89,WNW,298,4.0,4.0,77,0.00,,---,0.00,VWS V14.00,2013-05-24 10:28:00,
2013-05-24 06:29:00,68.5,61.0,29.89,WNW,290,5.0,5.0,77,0.00,,---,0.00,VWS V14.00,2013-05-24 10:29:00,
2013-05-24 06:30:00,68.5,61.0,29.89,NW,324,1.0,7.0,77,0.00,,---,0.00,VWS V14.00,2013-05-24 10:30:00,
2013-05-24 06:31:00,68.4,60.9,29.89,NW,317,1.0,5.0,77,0.00,,---,0.00,VWS V14.00,2013-05-24 10:31:00,
2013-05-24 06:32:00,68.5,61.0,29.89,NW,324,1.0,1.0,77,0.00,,---,0.00,VWS V14.00,2013-05-24 10:32:00,
2013-05-24 06:33:00,68.5,61.0,29.89,NW,324,0.0,1.0,77,0.00,,---,0.00,VWS V14.00,2013-05-24 10:33:00,
2013-05-24 06:34:00,68.5,61.0,29.89,NW,324,0.0,0.0,77,0.00,,---,0.00,VWS V14.00,2013-05-24 10:34:00,
2013-05-24 06:35:00,68.5,61.0,29.89,NW,324,0.0,0.0,77,0.00,,---,0.00,VWS V14.00,2013-05-24 10:35:00,
2013-05-24 06:36:00,68.4,60.9,29.90,West,275,1.0,1.0,77,0.00,,---,0.00,VWS V14.00,2013-05-24 10:36:00,
2013-05-24 06:37:00,68.4,60.9,29.89,WNW,288,4.0,5.0,77,0.00,,---,0.00,VWS V14.00,2013-05-24 10:37:00,
2013-05-24 06:38:00,68.4,60.9,29.89,West,275,1.0,5.0,77,0.00,,---,0.00,VWS V14.00,2013-05-24 10:38:00,
2013-05-24 06:39:00,68.4,60.9,29.90,West,275,1.0,2.0,77,0.00,,---,0.00,VWS V14.00,2013-05-24 10:39:00,
2013-05-24 06:40:00,68.3,60.8,29.90,WNW,297,2.0,5.0,77,0.00,,---,0.00,VWS V14.00,2013-05-24 10:40:00,
2013-05-24 06:41:00,68.4,60.9,29.90,West,275,0.0,1.0,77,0.00,,---,0.00,VWS V14.00,2013-05-24 10:41:00,
2013-05-24 06:42:00,68.4,60.9,29.90,West,275,0.0,2.0,77,0.00,,---,0.00,VWS V14.00,2013-05-24 10:42:00,
2013-05-24 06:43:00,68.4,60.9,29.90,West,276,0.0,1.0,77,0.00,,---,0.00,VWS V14.00,2013-05-24 10:43:00,
2013-05-24 06:44:00,68.3,60.8,29.90,West,277,2.0,4.0,77,0.00,,---,0.00,VWS V14.00,2013-05-24 10:44:00,
2013-05-24 06:45:00,68.2,60.7,29.90,WNW,287,5.0,8.0,77,0.00,,---,0.00,VWS V14.00,2013-05-24 10:45:00,
2013-05-24 06:46:00,68.3,60.8,29.90,NW,323,2.0,7.0,77,0.00,,---,0.00,VWS V14.00,2013-05-24 10:46:00,
2013-05-24 06:47:00,68.3,60.8,29.90,WNW,297,0.0,5.0,77,0.00,,---,0.00,VWS V14.00,2013-05-24 10:47:00,
2013-05-24 06:48:00,68.3,60.8,29.90,WNW,295,2.0,2.0,77,0.00,,---,0.00,VWS V14.00,2013-05-24 10:48:00,
2013-05-24 06:50:00,68.1,61.0,29.90,WNW,291,0.0,1.0,78,0.00,,---,0.00,VWS V14.00,2013-05-24 10:50:00,
2013-05-24 06:51:00,68.3,60.8,29.90,NW,305,1.0,1.0,77,0.00,,---,0.00,VWS V14.00,2013-05-24 10:51:00,
2013-05-24 06:52:00,68.2,60.7,29.90,WNW,288,1.0,8.0,77,0.00,,---,0.00,VWS V14.00,2013-05-24 10:52:00,
2013-05-24 06:53:00,68.2,60.7,29.90,WNW,297,2.0,4.0,77,0.00,,---,0.00,VWS V14.00,2013-05-24 10:53:00,
2013-05-24 06:54:00,68.2,60.7,29.90,WNW,297,0.0,2.0,77,0.00,,---,0.00,VWS V14.00,2013-05-24 10:54:00,
2013-05-24 06:55:00,68.1,61.0,29.90,West,265,2.0,6.0,78,0.00,,---,0.00,VWS V14.00,2013-05-24 10:55:00,
2013-05-24 06:56:00,68.2,60.7,29.90,WNW,291,1.0,1.0,77,0.00,,---,0.00,VWS V14.00,2013-05-24 10:56:00,
2013-05-24 06:58:00,68.1,61.0,29.90,WNW,291,0.0,0.0,78,0.00,,---,0.00,VWS V14.00,2013-05-24 10:58:00,
2013-05-24 06:59:00,68.1,61.0,29.90,West,275,0.0,5.0,78,0.00,,---,0.00,VWS V14.00,2013-05-24 10:59:00,
2013-05-24 07:00:00,68.0,60.9,29.91,WNW,288,1.0,1.0,78,0.00,,---,0.00,VWS V14.00,2013-05-24 11:00:00,
2013-05-24 07:01:00,68.1,61.0,29.90,NW,318,1.0,2.0,78,0.00,,---,0.00,VWS V14.00,2013-05-24 11:01:00,
2013-05-24 07:02:00,68.1,61.0,29.90,West,267,0.0,6.0,78,0.00,,---,0.00,VWS V14.00,2013-05-24 11:02:00,
2013-05-24 07:03:00,68.1,61.0,29.91,West,267,0.0,1.0,78,0.00,,---,0.00,VWS V14.00,2013-05-24 11:03:00,
2013-05-24 07:04:00,68.1,61.0,29.91,West,267,0.0,0.0,78,0.00,,---,0.00,VWS V14.00,2013-05-24 11:04:00,
2013-05-24 07:05:00,68.0,60.9,29.90,NW,318,2.0,2.0,78,0.00,,---,0.00,VWS V14.00,2013-05-24 11:05:00,
2013-05-24 07:06:00,68.0,60.9,29.91,WNW,288,0.0,0.0,78,0.00,,---,0.00,VWS V14.00,2013-05-24 11:06:00,
2013-05-24 07:07:00,68.0,60.9,29.91,WNW,288,0.0,1.0,78,0.00,,---,0.00,VWS V14.00,2013-05-24 11:07:00,
2013-05-24 07:08:00,68.0,60.9,29.91,WNW,288,1.0,1.0,78,0.00,,---,0.00,VWS V14.00,2013-05-24 11:08:00,
2013-05-24 07:10:00,67.9,61.2,29.91,NW,310,1.0,1.0,79,0.00,,---,0.00,VWS V14.00,2013-05-24 11:10:00,
2013-05-24 07:11:00,68.0,60.9,29.91,NW,318,0.0,2.0,78,0.00,,---,0.00,VWS V14.00,2013-05-24 11:11:00,
2013-05-24 07:12:00,68.0,60.9,29.90,NW,318,0.0,2.0,78,0.00,,---,0.00,VWS V14.00,2013-05-24 11:12:00,
2013-05-24 07:13:00,67.9,61.2,29.91,NW,318,0.0,1.0,79,0.00,,---,0.00,VWS V14.00,2013-05-24 11:13:00,
2013-05-24 07:14:00,67.9,61.2,29.91,WNW,300,8.0,8.0,79,0.00,,---,0.00,VWS V14.00,2013-05-24 11:14:00,
2013-05-24 07:15:00,67.9,61.2,29.90,West,281,1.0,4.0,79,0.00,,---,0.00,VWS V14.00,2013-05-24 11:15:00,
2013-05-24 07:16:00,67.9,61.2,29.91,NW,309,1.0,4.0,79,0.00,,---,0.00,VWS V14.00,2013-05-24 11:16:00,
2013-05-24 07:17:00,67.9,61.2,29.91,NW,310,0.0,1.0,79,0.00,,---,0.00,VWS V14.00,2013-05-24 11:17:00,
2013-05-24 07:18:00,67.9,61.2,29.91,NW,310,4.0,4.0,79,0.00,,---,0.00,VWS V14.00,2013-05-24 11:18:00,
2013-05-24 07:19:00,67.9,61.2,29.91,WNW,298,1.0,5.0,79,0.00,,---,0.00,VWS V14.00,2013-05-24 11:19:00,
2013-05-24 07:20:00,67.9,61.2,29.91,NW,321,2.0,7.0,79,0.00,,---,0.00,VWS V14.00,2013-05-24 11:20:00,
2013-05-24 07:21:00,67.9,61.2,29.90,WNW,287,2.0,8.0,79,0.00,,---,0.00,VWS V14.00,2013-05-24 11:21:00,
2013-05-24 07:22:00,67.9,61.2,29.90,West,281,0.0,4.0,79,0.00,,---,0.00,VWS V14.00,2013-05-24 11:22:00,
2013-05-24 07:23:00,67.9,61.2,29.90,WNW,287,2.0,4.0,79,0.00,,---,0.00,VWS V14.00,2013-05-24 11:23:00,
2013-05-24 07:24:00,67.9,61.2,29.90,WNW,290,0.0,2.0,79,0.00,,---,0.00,VWS V14.00,2013-05-24 11:24:00,
2013-05-24 07:25:00,67.9,61.2,29.91,WSW,257,6.0,7.0,79,0.00,,---,0.00,VWS V14.00,2013-05-24 11:25:00,
2013-05-24 07:26:00,67.9,61.2,29.90,WNW,293,2.0,2.0,79,0.00,,---,0.00,VWS V14.00,2013-05-24 11:26:00,
2013-05-24 07:27:00,67.9,61.2,29.91,NW,321,1.0,7.0,79,0.00,,---,0.00,VWS V14.00,2013-05-24 11:27:00,
2013-05-24 07:28:00,67.9,61.2,29.91,WNW,296,0.0,7.0,79,0.00,,---,0.00,VWS V14.00,2013-05-24 11:28:00,
2013-05-24 07:29:00,67.9,60.8,29.91,NW,319,0.0,4.0,78,0.00,,---,0.00,VWS V14.00,2013-05-24 11:29:00,
2013-05-24 07:30:00,68.0,61.2,29.91,WNW,292,0.0,1.0,79,0.00,,---,0.00,VWS V14.00,2013-05-24 11:30:00,
2013-05-24 07:31:00,67.9,61.2,29.91,NW,319,4.0,4.0,79,0.00,,---,0.00,VWS V14.00,2013-05-24 11:31:00,
2013-05-24 07:32:00,68.0,61.2,29.91,WNW,292,0.0,7.0,79,0.00,,---,0.00,VWS V14.00,2013-05-24 11:32:00,
2013-05-24 07:33:00,68.0,61.2,29.91,WNW,292,0.0,1.0,79,0.00,,---,0.00,VWS V14.00,2013-05-24 11:33:00,
2013-05-24 07:34:00,68.0,61.2,29.91,WNW,292,0.0,0.0,79,0.00,,---,0.00,VWS V14.00,2013-05-24 11:34:00,
2013-05-24 07:35:00,68.1,61.3,29.91,West,278,0.0,0.0,79,0.00,,---,0.00,VWS V14.00,2013-05-24 11:35:00,
2013-05-24 07:36:00,68.0,61.2,29.91,WNW,292,0.0,4.0,79,0.00,,---,0.00,VWS V14.00,2013-05-24 11:36:00,
2013-05-24 07:37:00,68.0,61.2,29.91,WNW,292,0.0,1.0,79,0.00,,---,0.00,VWS V14.00,2013-05-24 11:37:00,
2013-05-24 07:38:00,68.0,61.2,29.91,West,278,2.0,6.0,79,0.00,,---,0.00,VWS V14.00,2013-05-24 11:38:00,
2013-05-24 07:39:00,68.1,61.3,29.91,West,278,0.0,2.0,79,0.00,,---,0.00,VWS V14.00,2013-05-24 11:39:00,
2013-05-24 07:40:00,68.2,61.5,29.91,WNW,295,0.0,0.0,79,0.00,,---,0.00,VWS V14.00,2013-05-24 11:40:00,
2013-05-24 07:41:00,68.1,61.3,29.91,West,278,0.0,0.0,79,0.00,,---,0.00,VWS V14.00,2013-05-24 11:41:00,
2013-05-24 07:42:00,68.1,61.3,29.91,West,278,0.0,0.0,79,0.00,,---,0.00,VWS V14.00,2013-05-24 11:42:00,
2013-05-24 07:43:00,68.1,61.3,29.91,West,278,0.0,0.0,79,0.00,,---,0.00,VWS V14.00,2013-05-24 11:43:00,
2013-05-24 07:44:00,68.2,61.5,29.91,WNW,297,4.0,4.0,79,0.00,,---,0.00,VWS V14.00,2013-05-24 11:44:00,
2013-05-24 07:45:00,68.3,61.5,29.91,WNW,286,2.0,2.0,79,0.00,,---,0.00,VWS V14.00,2013-05-24 11:45:00,
2013-05-24 07:46:00,68.2,61.5,29.91,WNW,295,0.0,5.0,79,0.00,,---,0.00,VWS V14.00,2013-05-24 11:46:00,
2013-05-24 07:47:00,68.2,61.5,29.91,WNW,295,0.0,0.0,79,0.00,,---,0.00,VWS V14.00,2013-05-24 11:47:00,
2013-05-24 07:48:00,68.2,61.5,29.91,WNW,294,0.0,2.0,79,0.00,,---,0.00,VWS V14.00,2013-05-24 11:48:00,
2013-05-24 07:49:00,68.3,61.5,29.91,WNW,282,2.0,4.0,79,0.00,,---,0.00,VWS V14.00,2013-05-24 11:49:00,
2013-05-24 07:50:00,68.4,61.3,29.91,West,281,1.0,4.0,78,0.00,,---,0.00,VWS V14.00,2013-05-24 11:50:00,
2013-05-24 07:51:00,68.3,61.5,29.91,WNW,282,0.0,1.0,79,0.00,,---,0.00,VWS V14.00,2013-05-24 11:51:00,
2013-05-24 07:52:00,68.3,61.5,29.91,West,281,2.0,5.0,79,0.00,,---,0.00,VWS V14.00,2013-05-24 11:52:00,
2013-05-24 07:53:00,68.3,61.2,29.91,West,281,0.0,2.0,78,0.00,,---,0.00,VWS V14.00,2013-05-24 11:53:00,
2013-05-24 07:54:00,68.4,61.3,29.91,West,281,0.0,1.0,78,0.00,,---,0.00,VWS V14.00,2013-05-24 11:54:00,
2013-05-24 07:55:00,68.5,61.4,29.92,WNW,285,4.0,6.0,78,0.00,,---,0.00,VWS V14.00,2013-05-24 11:55:00,
2013-05-24 07:56:00,68.4,61.3,29.91,WNW,286,1.0,2.0,78,0.00,,---,0.00,VWS V14.00,2013-05-24 11:56:00,
2013-05-24 07:58:00,68.4,61.3,29.92,WSW,255,0.0,6.0,78,0.00,,---,0.00,VWS V14.00,2013-05-24 11:58:00,
2013-05-24 07:59:00,68.5,61.4,29.91,WSW,255,0.0,1.0,78,0.00,,---,0.00,VWS V14.00,2013-05-24 11:59:00,
2013-05-24 08:00:00,68.7,61.2,29.91,WNW,293,2.0,5.0,77,0.00,,---,0.00,VWS V14.00,2013-05-24 12:00:00,
2013-05-24 08:01:00,68.5,61.4,29.91,WNW,300,6.0,6.0,78,0.00,,---,0.00,VWS V14.00,2013-05-24 12:01:00,
2013-05-24 08:02:00,68.6,61.5,29.92,NW,304,2.0,6.0,78,0.00,,---,0.00,VWS V14.00,2013-05-24 12:02:00,
2013-05-24 08:03:00,68.6,61.1,29.91,WNW,286,0.0,6.0,77,0.00,,---,0.00,VWS V14.00,2013-05-24 12:03:00,
2013-05-24 08:04:00,68.6,61.1,29.91,WNW,286,0.0,1.0,77,0.00,,---,0.00,VWS V14.00,2013-05-24 12:04:00,
2013-05-24 08:05:00,68.8,61.3,29.92,WNW,288,0.0,0.0,77,0.00,,---,0.00,VWS V14.00,2013-05-24 12:05:00,
2013-05-24 08:06:00,68.7,61.6,29.91,WNW,294,2.0,5.0,78,0.00,,---,0.00,VWS V14.00,2013-05-24 12:06:00,
2013-05-24 08:07:00,68.7,61.2,29.91,WNW,293,0.0,5.0,77,0.00,,---,0.00,VWS V14.00,2013-05-24 12:07:00,
2013-05-24 08:08:00,68.8,61.3,29.91,WNW,295,0.0,4.0,77,0.00,,---,0.00,VWS V14.00,2013-05-24 12:08:00,
2013-05-24 08:09:00,68.8,61.3,29.92,WNW,293,1.0,4.0,77,0.00,,---,0.00,VWS V14.00,2013-05-24 12:09:00,
2013-05-24 08:10:00,69.0,61.5,29.92,WNW,285,6.0,6.0,77,0.00,,---,0.00,VWS V14.00,2013-05-24 12:10:00,
2013-05-24 08:11:00,68.8,61.3,29.92,WNW,288,0.0,4.0,77,0.00,,---,0.00,VWS V14.00,2013-05-24 12:11:00,
2013-05-24 08:12:00,68.9,61.4,29.92,WNW,288,2.0,2.0,77,0.00,,---,0.00,VWS V14.00,2013-05-24 12:12:00,
2013-05-24 08:13:00,68.9,61.4,29.92,West,263,7.0,8.0,77,0.00,,---,0.00,VWS V14.00,2013-05-24 12:13:00,
2013-05-24 08:14:00,69.0,61.5,29.92,NW,311,0.0,7.0,77,0.00,,---,0.00,VWS V14.00,2013-05-24 12:14:00,
2013-05-24 08:15:00,69.3,61.4,29.92,NW,305,4.0,7.0,76,0.00,,---,0.00,VWS V14.00,2013-05-24 12:15:00,
2013-05-24 08:16:00,69.0,61.5,29.92,WNW,283,0.0,4.0,77,0.00,,---,0.00,VWS V14.00,2013-05-24 12:16:00,
2013-05-24 08:17:00,69.0,61.5,29.92,WNW,288,4.0,11.0,77,0.00,,---,0.00,VWS V14.00,2013-05-24 12:17:00,
2013-05-24 08:18:00,69.1,61.6,29.92,WNW,296,5.0,5.0,77,0.00,,---,0.00,VWS V14.00,2013-05-24 12:18:00,
2013-05-24 08:19:00,69.1,61.6,29.92,WNW,298,4.0,5.0,77,0.00,,---,0.00,VWS V14.00,2013-05-24 12:19:00,
2013-05-24 08:20:00,69.4,61.5,29.92,WNW,295,6.0,6.0,76,0.00,,---,0.00,VWS V14.00,2013-05-24 12:20:00,
2013-05-24 08:21:00,69.2,61.3,29.92,West,267,4.0,5.0,76,0.00,,---,0.00,VWS V14.00,2013-05-24 12:21:00,
2013-05-24 08:22:00,69.3,61.4,29.92,WNW,298,1.0,7.0,76,0.00,,---,0.00,VWS V14.00,2013-05-24 12:22:00,
2013-05-24 08:23:00,69.3,61.4,29.92,NNW,329,0.0,4.0,76,0.00,,---,0.00,VWS V14.00,2013-05-24 12:23:00,
2013-05-24 08:24:00,69.3,61.4,29.92,NNW,329,0.0,0.0,76,0.00,,---,0.00,VWS V14.00,2013-05-24 12:24:00,
2013-05-24 08:25:00,69.6,61.7,29.92,WNW,296,2.0,4.0,76,0.00,,---,0.00,VWS V14.00,2013-05-24 12:25:00,
2013-05-24 08:26:00,69.4,61.5,29.92,West,271,2.0,2.0,76,0.00,,---,0.00,VWS V14.00,2013-05-24 12:26:00,
2013-05-24 08:27:00,69.4,61.5,29.92,WNW,290,0.0,7.0,76,0.00,,---,0.00,VWS V14.00,2013-05-24 12:27:00,
2013-05-24 08:28:00,69.5,61.6,29.92,WNW,302,5.0,5.0,76,0.00,,---,0.00,VWS V14.00,2013-05-24 12:28:00,
2013-05-24 08:29:00,69.5,61.6,29.92,WNW,302,1.0,5.0,76,0.00,,---,0.00,VWS V14.00,2013-05-24 12:29:00,
2013-05-24 08:30:00,69.9,61.6,29.92,WSW,247,0.0,1.0,75,0.00,,---,0.00,VWS V14.00,2013-05-24 12:30:00,
2013-05-24 08:31:00,69.6,61.7,29.92,NW,319,0.0,4.0,76,0.00,,---,0.00,VWS V14.00,2013-05-24 12:31:00,
2013-05-24 08:32:00,69.6,61.3,29.92,NW,305,0.0,4.0,75,0.00,,---,0.00,VWS V14.00,2013-05-24 12:32:00,
2013-05-24 08:33:00,69.7,61.4,29.92,WNW,302,4.0,7.0,75,0.00,,---,0.00,VWS V14.00,2013-05-24 12:33:00,
2013-05-24 08:34:00,69.7,61.4,29.92,West,269,0.0,8.0,75,0.00,,---,0.00,VWS V14.00,2013-05-24 12:34:00,
2013-05-24 08:35:00,70.1,61.8,29.92,WNW,296,4.0,4.0,75,0.00,,---,0.00,VWS V14.00,2013-05-24 12:35:00,
2013-05-24 08:36:00,69.8,61.5,29.92,WSW,241,0.0,1.0,75,0.00,,---,0.00,VWS V14.00,2013-05-24 12:36:00,
2013-05-24 08:37:00,69.9,61.6,29.92,WSW,247,0.0,1.0,75,0.00,,---,0.00,VWS V14.00,2013-05-24 12:37:00,
2013-05-24 08:38:00,69.9,61.6,29.92,WNW,301,2.0,5.0,75,0.00,,---,0.00,VWS V14.00,2013-05-24 12:38:00,
2013-05-24 08:39:00,70.0,61.7,29.92,NW,304,5.0,7.0,75,0.00,,---,0.00,VWS V14.00,2013-05-24 12:39:00,
2013-05-24 08:40:00,70.4,61.7,29.92,WNW,300,7.0,7.0,74,0.00,,---,0.00,VWS V14.00,2013-05-24 12:40:00,
2013-05-24 08:41:00,70.1,61.8,29.92,WNW,294,4.0,4.0,75,0.00,,---,0.00,VWS V14.00,2013-05-24 12:41:00,
2013-05-24 08:42:00,70.1,61.8,29.92,WNW,290,4.0,5.0,75,0.00,,---,0.00,VWS V14.00,2013-05-24 12:42:00,
2013-05-24 08:43:00,70.2,61.9,29.92,NW,313,0.0,9.0,75,0.00,,---,0.00,VWS V14.00,2013-05-24 12:43:00,
2013-05-24 08:44:00,70.2,61.5,29.92,West,259,4.0,5.0,74,0.00,,---,0.00,VWS V14.00,2013-05-24 12:44:00,
2013-05-24 08:45:00,70.6,61.9,29.92,West,281,5.0,8.0,74,0.00,,---,0.00,VWS V14.00,2013-05-24 12:45:00,
2013-05-24 08:46:00,70.3,61.6,29.92,WNW,290,6.0,7.0,74,0.00,,---,0.00,VWS V14.00,2013-05-24 12:46:00,
2013-05-24 08:47:00,70.4,61.7,29.92,WNW,289,1.0,7.0,74,0.00,,---,0.00,VWS V14.00,2013-05-24 12:47:00,
2013-05-24 08:48:00,70.4,61.3,29.92,WNW,295,2.0,7.0,73,0.00,,---,0.00,VWS V14.00,2013-05-24 12:48:00,
2013-05-24 08:49:00,70.5,61.4,29.92,WNW,296,0.0,4.0,73,0.00,,---,0.00,VWS V14.00,2013-05-24 12:49:00,
2013-05-24 08:50:00,70.8,61.7,29.93,WNW,295,4.0,4.0,73,0.00,,---,0.00,VWS V14.00,2013-05-24 12:50:00,
2013-05-24 08:51:00,70.6,61.9,29.92,NW,310,6.0,7.0,74,0.00,,---,0.00,VWS V14.00,2013-05-24 12:51:00,
2013-05-24 08:52:00,70.6,61.5,29.92,NW,305,4.0,8.0,73,0.00,,---,0.00,VWS V14.00,2013-05-24 12:52:00,
2013-05-24 08:53:00,70.7,61.6,29.92,WNW,288,0.0,5.0,73,0.00,,---,0.00,VWS V14.00,2013-05-24 12:53:00,
2013-05-24 08:54:00,70.7,61.6,29.92,WNW,288,1.0,1.0,73,0.00,,---,0.00,VWS V14.00,2013-05-24 12:54:00,
2013-05-24 08:55:00,71.0,61.5,29.93,WNW,300,1.0,2.0,72,0.00,,---,0.00,VWS V14.00,2013-05-24 12:55:00,
2013-05-24 08:56:00,70.8,61.7,29.92,WNW,289,1.0,1.0,73,0.00,,---,0.00,VWS V14.00,2013-05-24 12:56:00,
2013-05-24 08:57:00,70.8,61.7,29.93,WNW,295,0.0,4.0,73,0.00,,---,0.00,VWS V14.00,2013-05-24 12:57:00,
2013-05-24 08:58:00,70.9,61.8,29.93,WNW,298,1.0,6.0,73,0.00,,---,0.00,VWS V14.00,2013-05-24 12:58:00,
2013-05-24 08:59:00,70.9,61.8,29.93,NW,311,5.0,6.0,73,0.00,,---,0.00,VWS V14.00,2013-05-24 12:59:00,
2013-05-24 09:00:00,71.3,61.8,29.93,WNW,292,2.0,2.0,72,0.00,,---,0.00,VWS V14.00,2013-05-24 13:00:00,
2013-05-24 09:01:00,71.0,61.5,29.93,WNW,300,2.0,4.0,72,0.00,,---,0.00,VWS V14.00,2013-05-24 13:01:00,
2013-05-24 09:02:00,71.1,61.6,29.93,WNW,300,1.0,2.0,72,0.00,,---,0.00,VWS V14.00,2013-05-24 13:02:00,
2013-05-24 09:03:00,71.1,61.6,29.93,WNW,300,1.0,4.0,72,0.00,,---,0.00,VWS V14.00,2013-05-24 13:03:00,
2013-05-24 09:04:00,71.2,61.7,29.93,WNW,286,8.0,9.0,72,0.00,,---,0.00,VWS V14.00,2013-05-24 13:04:00,
2013-05-24 09:05:00,71.6,61.7,29.93,WNW,301,0.0,0.0,71,0.00,,---,0.00,VWS V14.00,2013-05-24 13:05:00,
2013-05-24 09:06:00,71.3,61.8,29.93,WNW,292,2.0,4.0,72,0.00,,---,0.00,VWS V14.00,2013-05-24 13:06:00,
2013-05-24 09:07:00,71.4,61.9,29.93,WNW,302,4.0,5.0,72,0.00,,---,0.00,VWS V14.00,2013-05-24 13:07:00,
2013-05-24 09:08:00,71.4,61.5,29.93,NW,304,4.0,4.0,71,0.00,,---,0.00,VWS V14.00,2013-05-24 13:08:00,
2013-05-24 09:09:00,71.5,61.6,29.93,NW,304,0.0,4.0,71,0.00,,---,0.00,VWS V14.00,2013-05-24 13:09:00,
2013-05-24 09:10:00,71.8,61.9,29.93,NW,309,0.0,0.0,71,0.00,,---,0.00,VWS V14.00,2013-05-24 13:10:00,
2013-05-24 09:11:00,71.6,61.7,29.93,WNW,301,0.0,4.0,71,0.00,,---,0.00,VWS V14.00,2013-05-24 13:11:00,
2013-05-24 09:12:00,71.6,61.7,29.93,NW,323,7.0,8.0,71,0.00,,---,0.00,VWS V14.00,2013-05-24 13:12:00,
2013-05-24 09:13:00,71.7,61.8,29.93,West,266,4.0,7.0,71,0.00,,---,0.00,VWS V14.00,2013-05-24 13:13:00,
2013-05-24 09:14:00,71.7,61.8,29.93,NW,304,4.0,4.0,71,0.00,,---,0.00,VWS V14.00,2013-05-24 13:14:00,
2013-05-24 09:15:00,72.1,61.8,29.93,West,271,6.0,9.0,70,0.00,,---,0.00,VWS V14.00,2013-05-24 13:15:00,
2013-05-24 09:16:00,71.8,61.9,29.93,NW,309,0.0,1.0,71,0.00,,---,0.00,VWS V14.00,2013-05-24 13:16:00,
2013-05-24 09:17:00,71.9,62.0,29.93,NW,309,0.0,2.0,71,0.00,,---,0.00,VWS V14.00,2013-05-24 13:17:00,
2013-05-24 09:18:00,71.9,62.0,29.93,NW,309,0.0,1.0,71,0.00,,---,0.00,VWS V14.00,2013-05-24 13:18:00,
2013-05-24 09:19:00,71.9,62.0,29.93,WNW,288,0.0,4.0,71,0.00,,---,0.00,VWS V14.00,2013-05-24 13:19:00,
2013-05-24 09:20:00,72.3,62.0,29.93,NW,312,4.0,4.0,70,0.00,,---,0.00,VWS V14.00,2013-05-24 13:20:00,
2013-05-24 09:21:00,72.0,61.7,29.93,WNW,302,4.0,5.0,70,0.00,,---,0.00,VWS V14.00,2013-05-24 13:21:00,
2013-05-24 09:22:00,72.1,61.8,29.93,WNW,300,5.0,9.0,70,0.00,,---,0.00,VWS V14.00,2013-05-24 13:22:00,
2013-05-24 09:23:00,72.2,61.5,29.93,WNW,292,2.0,5.0,69,0.00,,---,0.00,VWS V14.00,2013-05-24 13:23:00,
2013-05-24 09:24:00,72.2,61.9,29.93,WNW,299,0.0,4.0,70,0.00,,---,0.00,VWS V14.00,2013-05-24 13:24:00,
2013-05-24 09:25:00,72.6,61.9,29.93,SW,217,0.0,6.0,69,0.00,,---,0.00,VWS V14.00,2013-05-24 13:25:00,
2013-05-24 09:26:00,72.3,62.0,29.93,WNW,295,4.0,5.0,70,0.00,,---,0.00,VWS V14.00,2013-05-24 13:26:00,
2013-05-24 09:27:00,72.4,62.1,29.93,NW,312,4.0,5.0,70,0.00,,---,0.00,VWS V14.00,2013-05-24 13:27:00,
2013-05-24 09:28:00,72.4,62.1,29.93,WNW,303,0.0,5.0,70,0.00,,---,0.00,VWS V14.00,2013-05-24 13:28:00,
2013-05-24 09:29:00,72.5,62.2,29.93,WNW,290,2.0,2.0,70,0.00,,---,0.00,VWS V14.00,2013-05-24 13:29:00,
2013-05-24 09:30:00,72.8,62.0,29.93,WNW,300,4.0,4.0,69,0.00,,---,0.00,VWS V14.00,2013-05-24 13:30:00,
2013-05-24 09:31:00,72.6,61.9,29.93,WNW,291,6.0,8.0,69,0.00,,---,0.00,VWS V14.00,2013-05-24 13:31:00,
2013-05-24 09:32:00,72.6,61.9,29.93,SW,217,0.0,6.0,69,0.00,,---,0.00,VWS V14.00,2013-05-24 13:32:00,
2013-05-24 09:33:00,72.7,62.0,29.93,WNW,298,2.0,5.0,69,0.00,,---,0.00,VWS V14.00,2013-05-24 13:33:00,
2013-05-24 09:34:00,72.7,62.0,29.93,WNW,298,0.0,2.0,69,0.00,,---,0.00,VWS V14.00,2013-05-24 13:34:00,
2013-05-24 09:35:00,73.0,62.2,29.93,NNE,27,1.0,1.0,69,0.00,,---,0.00,VWS V14.00,2013-05-24 13:35:00,
2013-05-24 09:36:00,72.8,62.0,29.93,NE,48,2.0,4.0,69,0.00,,---,0.00,VWS V14.00,2013-05-24 13:36:00,
2013-05-24 09:37:00,72.8,62.0,29.93,WNW,300,1.0,4.0,69,0.00,,---,0.00,VWS V14.00,2013-05-24 13:37:00,
2013-05-24 09:38:00,72.9,61.7,29.93,WNW,300,0.0,2.0,68,0.00,,---,0.00,VWS V14.00,2013-05-24 13:38:00,
2013-05-24 09:39:00,72.9,62.1,29.93,NW,314,0.0,2.0,69,0.00,,---,0.00,VWS V14.00,2013-05-24 13:39:00,
2013-05-24 09:40:00,73.2,62.4,29.93,WNW,302,2.0,4.0,69,0.00,,---,0.00,VWS V14.00,2013-05-24 13:40:00,
2013-05-24 09:41:00,73.0,62.2,29.93,NNE,27,1.0,1.0,69,0.00,,---,0.00,VWS V14.00,2013-05-24 13:41:00,
2013-05-24 09:42:00,73.0,61.8,29.93,NW,321,1.0,5.0,68,0.00,,---,0.00,VWS V14.00,2013-05-24 13:42:00,
2013-05-24 09:43:00,73.1,61.9,29.93,NW,321,0.0,1.0,68,0.00,,---,0.00,VWS V14.00,2013-05-24 13:43:00,
2013-05-24 09:44:00,73.1,61.9,29.93,NW,321,0.0,0.0,68,0.00,,---,0.00,VWS V14.00,2013-05-24 13:44:00,
2013-05-24 09:45:00,73.4,62.2,29.93,ENE,61,0.0,2.0,68,0.00,,---,0.00,VWS V14.00,2013-05-24 13:45:00,
2013-05-24 09:46:00,73.2,62.4,29.93,NW,317,2.0,2.0,69,0.00,,---,0.00,VWS V14.00,2013-05-24 13:46:00,
2013-05-24 09:47:00,73.2,62.4,29.93,West,274,4.0,4.0,69,0.00,,---,0.00,VWS V14.00,2013-05-24 13:47:00,
2013-05-24 09:48:00,73.3,62.1,29.93,WSW,256,0.0,4.0,68,0.00,,---,0.00,VWS V14.00,2013-05-24 13:48:00,
2013-05-24 09:49:00,73.3,62.1,29.93,East,85,4.0,5.0,68,0.00,,---,0.00,VWS V14.00,2013-05-24 13:49:00,
2013-05-24 09:50:00,73.7,62.5,29.93,NNE,28,0.0,0.0,68,0.00,,---,0.00,VWS V14.00,2013-05-24 13:50:00,
2013-05-24 09:51:00,73.4,62.2,29.93,ENE,61,2.0,3.0,68,0.00,,---,0.00,VWS V14.00,2013-05-24 13:51:00,
2013-05-24 09:52:00,73.4,62.2,29.93,ENE,59,3.0,3.0,68,0.00,,---,0.00,VWS V14.00,2013-05-24 13:52:00,
2013-05-24 09:53:00,73.5,62.3,29.93,NE,38,0.0,5.0,68,0.00,,---,0.00,VWS V14.00,2013-05-24 13:53:00,
2013-05-24 09:54:00,73.6,62.4,29.93,NE,38,0.0,1.0,68,0.00,,---,0.00,VWS V14.00,2013-05-24 13:54:00,
2013-05-24 09:55:00,73.9,62.7,29.93,WNW,299,1.0,5.0,68,0.00,,---,0.00,VWS V14.00,2013-05-24 13:55:00,
2013-05-24 09:56:00,73.7,62.5,29.93,NNE,28,0.0,2.0,68,0.00,,---,0.00,VWS V14.00,2013-05-24 13:56:00,
2013-05-24 09:57:00,73.7,62.5,29.93,NNE,28,0.0,0.0,68,0.00,,---,0.00,VWS V14.00,2013-05-24 13:57:00,
2013-05-24 09:58:00,73.7,62.9,29.93,NW,326,0.0,4.0,69,0.00,,---,0.00,VWS V14.00,2013-05-24 13:58:00,
2013-05-24 09:59:00,73.8,62.6,29.93,WNW,301,1.0,4.0,68,0.00,,---,0.00,VWS V14.00,2013-05-24 13:59:00,
2013-05-24 10:00:00,74.2,62.5,29.93,NE,43,1.0,3.0,67,0.00,,---,0.00,VWS V14.00,2013-05-24 14:00:00,
2013-05-24 10:01:00,73.9,62.7,29.93,WNW,300,4.0,5.0,68,0.00,,---,0.00,VWS V14.00,2013-05-24 14:01:00,
2013-05-24 10:02:00,73.9,62.3,29.93,West,277,6.0,6.0,67,0.00,,---,0.00,VWS V14.00,2013-05-24 14:02:00,
2013-05-24 10:03:00,74.0,62.4,29.93,NNW,339,0.0,7.0,67,0.00,,---,0.00,VWS V14.00,2013-05-24 14:03:00,
2013-05-24 10:04:00,74.1,62.5,29.93,NW,323,4.0,4.0,67,0.00,,---,0.00,VWS V14.00,2013-05-24 14:04:00,
2013-05-24 10:05:00,74.5,62.4,29.93,WNW,296,4.0,4.0,66,0.00,,---,0.00,VWS V14.00,2013-05-24 14:05:00,
2013-05-24 10:06:00,74.2,62.5,29.93,NE,46,2.0,2.0,67,0.00,,---,0.00,VWS V14.00,2013-05-24 14:06:00,
2013-05-24 10:07:00,74.3,63.1,29.93,NE,50,2.0,4.0,68,0.00,,---,0.00,VWS V14.00,2013-05-24 14:07:00,
2013-05-24 10:08:00,74.3,62.6,29.93,ENE,57,3.0,3.0,67,0.00,,---,0.00,VWS V14.00,2013-05-24 14:08:00,
2013-05-24 10:09:00,74.4,62.3,29.93,ENE,57,0.0,3.0,66,0.00,,---,0.00,VWS V14.00,2013-05-24 14:09:00,
2013-05-24 10:10:00,74.7,62.6,29.93,NW,306,1.0,1.0,66,0.00,,---,0.00,VWS V14.00,2013-05-24 14:10:00,
2013-05-24 10:11:00,74.5,62.4,29.93,NE,53,0.0,1.0,66,0.00,,---,0.00,VWS V14.00,2013-05-24 14:11:00,
2013-05-24 10:12:00,74.5,62.4,29.93,ENE,71,0.0,4.0,66,0.00,,---,0.00,VWS V14.00,2013-05-24 14:12:00,
2013-05-24 10:13:00,74.6,62.5,29.93,NW,313,1.0,4.0,66,0.00,,---,0.00,VWS V14.00,2013-05-24 14:13:00,
2013-05-24 10:14:00,74.6,62.5,29.93,NW,307,2.0,2.0,66,0.00,,---,0.00,VWS V14.00,2013-05-24 14:14:00,
2013-05-24 10:15:00,75.0,62.5,29.93,NW,306,0.0,0.0,65,0.00,,---,0.00,VWS V14.00,2013-05-24 14:15:00,
2013-05-24 10:16:00,74.7,62.6,29.93,NW,306,0.0,1.0,66,0.00,,---,0.00,VWS V14.00,2013-05-24 14:16:00,
2013-05-24 10:17:00,74.8,62.7,29.93,NW,306,0.0,1.0,66,0.00,,---,0.00,VWS V14.00,2013-05-24 14:17:00,
2013-05-24 10:18:00,74.8,62.7,29.93,NW,306,0.0,1.0,66,0.00,,---,0.00,VWS V14.00,2013-05-24 14:18:00,
2013-05-24 10:19:00,74.9,62.3,29.93,NW,306,0.0,0.0,65,0.00,,---,0.00,VWS V14.00,2013-05-24 14:19:00,
2013-05-24 10:20:00,75.2,62.2,29.93,WNW,283,1.0,1.0,64,0.00,,---,0.00,VWS V14.00,2013-05-24 14:20:00,
2013-05-24 10:21:00,75.0,62.9,29.93,NW,306,0.0,2.0,66,0.00,,---,0.00,VWS V14.00,2013-05-24 14:21:00,
2013-05-24 10:22:00,75.0,62.5,29.93,NW,306,1.0,1.0,65,0.00,,---,0.00,VWS V14.00,2013-05-24 14:22:00,
2013-05-24 10:23:00,75.0,62.0,29.93,NW,306,0.0,1.0,64,0.00,,---,0.00,VWS V14.00,2013-05-24 14:23:00,
2013-05-24 10:24:00,75.1,62.1,29.93,WNW,299,0.0,4.0,64,0.00,,---,0.00,VWS V14.00,2013-05-24 14:24:00,
2013-05-24 10:25:00,75.4,61.9,29.93,WNW,290,5.0,5.0,63,0.00,,---,0.00,VWS V14.00,2013-05-24 14:25:00,
2013-05-24 10:26:00,75.1,62.5,29.93,WNW,283,0.0,4.0,65,0.00,,---,0.00,VWS V14.00,2013-05-24 14:26:00,
2013-05-24 10:27:00,75.2,62.2,29.93,West,280,1.0,4.0,64,0.00,,---,0.00,VWS V14.00,2013-05-24 14:27:00,
2013-05-24 10:28:00,75.3,62.3,29.93,WNW,293,2.0,4.0,64,0.00,,---,0.00,VWS V14.00,2013-05-24 14:28:00,
2013-05-24 10:29:00,75.3,61.4,29.93,WNW,290,0.0,4.0,62,0.00,,---,0.00,VWS V14.00,2013-05-24 14:29:00,
2013-05-24 10:30:00,75.7,62.2,29.93,East,84,0.0,1.0,63,0.00,,---,0.00,VWS V14.00,2013-05-24 14:30:00,
2013-05-24 10:31:00,75.4,61.9,29.93,WNW,290,1.0,1.0,63,0.00,,---,0.00,VWS V14.00,2013-05-24 14:31:00,
2013-05-24 10:32:00,75.5,62.0,29.93,WNW,290,0.0,5.0,63,0.00,,---,0.00,VWS V14.00,2013-05-24 14:32:00,
2013-05-24 10:33:00,75.5,62.0,29.93,WNW,290,2.0,2.0,63,0.00,,---,0.00,VWS V14.00,2013-05-24 14:33:00,
2013-05-24 10:34:00,75.6,62.1,29.93,WNW,290,0.0,4.0,63,0.00,,---,0.00,VWS V14.00,2013-05-24 14:34:00,
2013-05-24 10:35:00,75.9,62.0,29.94,WNW,296,1.0,1.0,62,0.00,,---,0.00,VWS V14.00,2013-05-24 14:35:00,
2013-05-24 10:36:00,75.7,62.2,29.93,East,84,1.0,2.0,63,0.00,,---,0.00,VWS V14.00,2013-05-24 14:36:00,
2013-05-24 10:37:00,75.7,62.2,29.93,East,84,0.0,1.0,63,0.00,,---,0.00,VWS V14.00,2013-05-24 14:37:00,
2013-05-24 10:38:00,75.8,61.9,29.93,NW,316,1.0,1.0,62,0.00,,---,0.00,VWS V14.00,2013-05-24 14:38:00,
2013-05-24 10:39:00,75.8,62.3,29.93,WNW,287,2.0,4.0,63,0.00,,---,0.00,VWS V14.00,2013-05-24 14:39:00,
2013-05-24 10:40:00,76.2,62.2,29.94,ENE,59,5.0,5.0,62,0.00,,---,0.00,VWS V14.00,2013-05-24 14:40:00,
2013-05-24 10:41:00,75.9,62.0,29.94,WNW,296,0.0,4.0,62,0.00,,---,0.00,VWS V14.00,2013-05-24 14:41:00,
2013-05-24 10:42:00,76.0,62.0,29.94,WNW,296,4.0,4.0,62,0.00,,---,0.00,VWS V14.00,2013-05-24 14:42:00,
2013-05-24 10:43:00,76.0,62.0,29.94,WNW,302,2.0,4.0,62,0.00,,---,0.00,VWS V14.00,2013-05-24 14:43:00,
2013-05-24 10:44:00,76.1,62.6,29.94,ENE,63,0.0,4.0,63,0.00,,---,0.00,VWS V14.00,2013-05-24 14:44:00,
2013-05-24 10:45:00,76.5,62.5,29.94,ENE,61,0.0,0.0,62,0.00,,---,0.00,VWS V14.00,2013-05-24 14:45:00,
2013-05-24 10:46:00,76.2,62.2,29.94,ENE,59,3.0,5.0,62,0.00,,---,0.00,VWS V14.00,2013-05-24 14:46:00,
2013-05-24 10:47:00,76.3,61.9,29.94,NE,46,0.0,5.0,61,0.00,,---,0.00,VWS V14.00,2013-05-24 14:47:00,
2013-05-24 10:48:00,76.4,62.0,29.94,NE,42,2.0,3.0,61,0.00,,---,0.00,VWS V14.00,2013-05-24 14:48:00,
2013-05-24 10:49:00,76.4,62.0,29.94,NE,42,0.0,2.0,61,0.00,,---,0.00,VWS V14.00,2013-05-24 14:49:00,
2013-05-24 10:50:00,76.8,62.3,29.95,WNW,299,0.0,0.0,61,0.00,,---,0.00,VWS V14.00,2013-05-24 14:50:00,
2013-05-24 10:51:00,76.5,62.5,29.95,ENE,61,0.0,1.0,62,0.00,,---,0.00,VWS V14.00,2013-05-24 14:51:00,
2013-05-24 10:52:00,76.6,63.1,29.94,ENE,61,0.0,0.0,63,0.00,,---,0.00,VWS V14.00,2013-05-24 14:52:00,
2013-05-24 10:53:00,76.6,62.6,29.95,ENE,61,0.0,1.0,62,0.00,,---,0.00,VWS V14.00,2013-05-24 14:53:00,
2013-05-24 10:54:00,76.7,62.7,29.95,ENE,61,0.0,2.0,62,0.00,,---,0.00,VWS V14.00,2013-05-24 14:54:00,
2013-05-24 10:55:00,77.1,62.6,29.95,WSW,252,1.0,1.0,61,0.00,,---,0.00,VWS V14.00,2013-05-24 14:55:00,
2013-05-24 10:56:00,76.7,62.7,29.95,WNW,299,0.0,4.0,62,0.00,,---,0.00,VWS V14.00,2013-05-24 14:56:00,
2013-05-24 10:57:00,76.8,62.3,29.95,WNW,286,0.0,4.0,61,0.00,,---,0.00,VWS V14.00,2013-05-24 14:57:00,
2013-05-24 10:58:00,76.9,62.9,29.94,WNW,289,0.0,1.0,62,0.00,,---,0.00,VWS V14.00,2013-05-24 14:58:00,
2013-05-24 10:59:00,76.9,62.9,29.95,West,279,2.0,2.0,62,0.00,,---,0.00,VWS V14.00,2013-05-24 14:59:00,
2013-05-24 11:00:00,77.4,62.0,29.95,WNW,284,0.0,4.0,59,0.00,,---,0.00,VWS V14.00,2013-05-24 15:00:00,
2013-05-24 11:01:00,77.1,62.6,29.95,WNW,284,0.0,6.0,61,0.00,,---,0.00,VWS V14.00,2013-05-24 15:01:00,
2013-05-24 11:02:00,77.1,62.6,29.95,West,266,0.0,2.0,61,0.00,,---,0.00,VWS V14.00,2013-05-24 15:02:00,
2013-05-24 11:03:00,77.2,62.7,29.95,West,278,1.0,2.0,61,0.00,,---,0.00,VWS V14.00,2013-05-24 15:03:00,
2013-05-24 11:04:00,77.3,62.3,29.95,West,279,0.0,1.0,60,0.00,,---,0.00,VWS V14.00,2013-05-24 15:04:00,
2013-05-24 11:05:00,77.6,61.7,29.95,NW,308,0.0,0.0,58,0.00,,---,0.00,VWS V14.00,2013-05-24 15:05:00,
2013-05-24 11:06:00,77.4,62.0,29.95,WNW,297,2.0,5.0,59,0.00,,---,0.00,VWS V14.00,2013-05-24 15:06:00,
2013-05-24 11:07:00,77.4,61.5,29.95,NNE,30,1.0,4.0,58,0.00,,---,0.00,VWS V14.00,2013-05-24 15:07:00,
2013-05-24 11:08:00,77.5,62.5,29.95,NNE,30,0.0,1.0,60,0.00,,---,0.00,VWS V14.00,2013-05-24 15:08:00,
2013-05-24 11:09:00,77.5,62.1,29.95,WNW,296,2.0,9.0,59,0.00,,---,0.00,VWS V14.00,2013-05-24 15:09:00,
2013-05-24 11:10:00,77.8,61.9,29.95,WNW,296,2.0,2.0,58,0.00,,---,0.00,VWS V14.00,2013-05-24 15:10:00,
2013-05-24 11:11:00,77.6,61.7,29.95,NW,308,0.0,4.0,58,0.00,,---,0.00,VWS V14.00,2013-05-24 15:11:00,
2013-05-24 11:12:00,77.7,61.8,29.95,WNW,301,1.0,4.0,58,0.00,,---,0.00,VWS V14.00,2013-05-24 15:12:00,
2013-05-24 11:13:00,77.7,61.8,29.95,WNW,294,2.0,7.0,58,0.00,,---,0.00,VWS V14.00,2013-05-24 15:13:00,
2013-05-24 11:14:00,77.8,61.4,29.95,WNW,293,0.0,5.0,57,0.00,,---,0.00,VWS V14.00,2013-05-24 15:14:00,
2013-05-24 11:15:00,78.0,62.0,29.95,North,360,0.0,0.0,58,0.00,,---,0.00,VWS V14.00,2013-05-24 15:15:00,
2013-05-24 11:16:00,77.8,61.9,29.95,WNW,302,0.0,1.0,58,0.00,,---,0.00,VWS V14.00,2013-05-24 15:16:00,
2013-05-24 11:17:00,77.9,62.0,29.95,ENE,75,2.0,2.0,58,0.00,,---,0.00,VWS V14.00,2013-05-24 15:17:00,
2013-05-24 11:18:00,77.9,62.4,29.95,NE,46,0.0,2.0,59,0.00,,---,0.00,VWS V14.00,2013-05-24 15:18:00,
2013-05-24 11:19:00,78.0,62.0,29.95,WSW,250,2.0,3.0,58,0.00,,---,0.00,VWS V14.00,2013-05-24 15:19:00,
2013-05-24 11:20:00,78.2,61.7,29.95,NW,317,2.0,2.0,57,0.00,,---,0.00,VWS V14.00,2013-05-24 15:20:00,
2013-05-24 11:21:00,78.0,62.0,29.95,North,360,0.0,2.0,58,0.00,,---,0.00,VWS V14.00,2013-05-24 15:21:00,
2013-05-24 11:22:00,78.1,62.1,29.95,NNE,28,0.0,2.0,58,0.00,,---,0.00,VWS V14.00,2013-05-24 15:22:00,
2013-05-24 11:23:00,78.1,61.6,29.95,ENE,64,1.0,4.0,57,0.00,,---,0.00,VWS V14.00,2013-05-24 15:23:00,
2013-05-24 11:24:00,78.1,61.1,29.95,ENE,64,0.0,2.0,56,0.00,,---,0.00,VWS V14.00,2013-05-24 15:24:00,
2013-05-24 11:25:00,78.3,61.3,29.96,NW,312,1.0,6.0,56,0.00,,---,0.00,VWS V14.00,2013-05-24 15:25:00,
2013-05-24 11:26:00,78.2,61.7,29.95,NW,318,0.0,2.0,57,0.00,,---,0.00,VWS V14.00,2013-05-24 15:26:00,
2013-05-24 11:27:00,78.2,61.7,29.95,NW,317,1.0,2.0,57,0.00,,---,0.00,VWS V14.00,2013-05-24 15:27:00,
2013-05-24 11:28:00,78.2,61.7,29.95,West,273,2.0,8.0,57,0.00,,---,0.00,VWS V14.00,2013-05-24 15:28:00,
2013-05-24 11:29:00,78.3,61.3,29.95,NW,309,5.0,5.0,56,0.00,,---,0.00,VWS V14.00,2013-05-24 15:29:00,
2013-05-24 11:30:00,78.4,61.4,29.95,NW,319,5.0,6.0,56,0.00,,---,0.00,VWS V14.00,2013-05-24 15:30:00,
2013-05-24 11:31:00,78.3,61.3,29.95,NW,312,6.0,6.0,56,0.00,,---,0.00,VWS V14.00,2013-05-24 15:31:00,
2013-05-24 11:32:00,78.3,61.3,29.96,NW,312,0.0,6.0,56,0.00,,---,0.00,VWS V14.00,2013-05-24 15:32:00,
2013-05-24 11:33:00,78.3,61.3,29.95,NNW,327,8.0,13.0,56,0.00,,---,0.00,VWS V14.00,2013-05-24 15:33:00,
2013-05-24 11:34:00,78.4,61.4,29.96,WNW,292,2.0,13.0,56,0.00,,---,0.00,VWS V14.00,2013-05-24 15:34:00,
2013-05-24 11:35:00,78.6,62.1,29.95,NE,37,0.0,0.0,57,0.00,,---,0.00,VWS V14.00,2013-05-24 15:35:00,
2013-05-24 11:36:00,78.4,61.4,29.96,West,266,3.0,7.0,56,0.00,,---,0.00,VWS V14.00,2013-05-24 15:36:00,
2013-05-24 11:37:00,78.4,61.4,29.95,WNW,294,2.0,6.0,56,0.00,,---,0.00,VWS V14.00,2013-05-24 15:37:00,
2013-05-24 11:38:00,78.5,61.5,29.95,West,277,4.0,4.0,56,0.00,,---,0.00,VWS V14.00,2013-05-24 15:38:00,
2013-05-24 11:39:00,78.5,62.0,29.96,WNW,286,0.0,4.0,57,0.00,,---,0.00,VWS V14.00,2013-05-24 15:39:00,
2013-05-24 11:40:00,78.7,61.2,29.96,North,10,0.0,2.0,55,0.00,,---,0.00,VWS V14.00,2013-05-24 15:40:00,
2013-05-24 11:41:00,78.6,62.1,29.95,NE,37,0.0,2.0,57,0.00,,---,0.00,VWS V14.00,2013-05-24 15:41:00,
2013-05-24 11:42:00,78.6,61.6,29.95,NE,37,0.0,1.0,56,0.00,,---,0.00,VWS V14.00,2013-05-24 15:42:00,
2013-05-24 11:43:00,78.6,61.6,29.96,NW,316,2.0,4.0,56,0.00,,---,0.00,VWS V14.00,2013-05-24 15:43:00,
2013-05-24 11:44:00,78.6,61.6,29.95,WNW,291,2.0,5.0,56,0.00,,---,0.00,VWS V14.00,2013-05-24 15:44:00,
2013-05-24 11:45:00,78.8,61.3,29.95,NNW,331,1.0,2.0,55,0.00,,---,0.00,VWS V14.00,2013-05-24 15:45:00,
2013-05-24 11:46:00,78.7,61.2,29.95,North,10,1.0,4.0,55,0.00,,---,0.00,VWS V14.00,2013-05-24 15:46:00,
2013-05-24 11:47:00,78.7,61.7,29.96,NW,316,0.0,5.0,56,0.00,,---,0.00,VWS V14.00,2013-05-24 15:47:00,
2013-05-24 11:48:00,78.7,61.2,29.96,NW,304,1.0,5.0,55,0.00,,---,0.00,VWS V14.00,2013-05-24 15:48:00,
2013-05-24 11:49:00,78.7,60.7,29.95,NW,304,0.0,1.0,54,0.00,,---,0.00,VWS V14.00,2013-05-24 15:49:00,
2013-05-24 11:50:00,79.1,62.1,29.96,West,261,2.0,3.0,56,0.00,,---,0.00,VWS V14.00,2013-05-24 15:50:00,
2013-05-24 11:51:00,78.8,61.3,29.95,NW,321,2.0,8.0,55,0.00,,---,0.00,VWS V14.00,2013-05-24 15:51:00,
2013-05-24 11:52:00,78.8,61.8,29.95,NNW,333,1.0,2.0,56,0.00,,---,0.00,VWS V14.00,2013-05-24 15:52:00,
2013-05-24 11:53:00,78.9,61.9,29.96,NNW,333,0.0,2.0,56,0.00,,---,0.00,VWS V14.00,2013-05-24 15:53:00,
2013-05-24 11:54:00,78.9,62.4,29.96,NW,313,0.0,4.0,57,0.00,,---,0.00,VWS V14.00,2013-05-24 15:54:00,
2013-05-24 11:55:00,79.3,61.8,29.96,West,279,5.0,5.0,55,0.00,,---,0.00,VWS V14.00,2013-05-24 15:55:00,
2013-05-24 11:56:00,79.0,62.0,29.96,West,264,3.0,5.0,56,0.00,,---,0.00,VWS V14.00,2013-05-24 15:56:00,
2013-05-24 11:57:00,79.1,61.6,29.96,West,274,0.0,3.0,55,0.00,,---,0.00,VWS V14.00,2013-05-24 15:57:00,
2013-05-24 11:58:00,79.1,62.1,29.96,North,350,0.0,2.0,56,0.00,,---,0.00,VWS V14.00,2013-05-24 15:58:00,
2013-05-24 11:59:00,79.2,61.7,29.96,WSW,241,6.0,6.0,55,0.00,,---,0.00,VWS V14.00,2013-05-24 15:59:00,
2013-05-24 12:00:00,79.6,62.5,29.96,WNW,298,6.0,8.0,56,0.00,,---,0.00,VWS V14.00,2013-05-24 16:00:00,
2013-05-24 12:01:00,79.3,61.2,29.96,West,268,1.0,5.0,54,0.00,,---,0.00,VWS V14.00,2013-05-24 16:01:00,
2013-05-24 12:02:00,79.3,61.8,29.96,West,261,0.0,5.0,55,0.00,,---,0.00,VWS V14.00,2013-05-24 16:02:00,
2013-05-24 12:03:00,79.4,61.8,29.96,West,261,1.0,1.0,55,0.00,,---,0.00,VWS V14.00,2013-05-24 16:03:00,
2013-05-24 12:04:00,79.5,62.5,29.96,ENE,60,2.0,3.0,56,0.00,,---,0.00,VWS V14.00,2013-05-24 16:04:00,
2013-05-24 12:05:00,79.9,61.3,29.96,West,271,7.0,7.0,53,0.00,,---,0.00,VWS V14.00,2013-05-24 16:05:00,
2013-05-24 12:06:00,79.6,62.5,29.96,NW,307,4.0,5.0,56,0.00,,---,0.00,VWS V14.00,2013-05-24 16:06:00,
2013-05-24 12:07:00,79.7,62.1,29.96,NW,305,0.0,8.0,55,0.00,,---,0.00,VWS V14.00,2013-05-24 16:07:00,
2013-05-24 12:08:00,79.8,61.7,29.96,NW,304,0.0,2.0,54,0.00,,---,0.00,VWS V14.00,2013-05-24 16:08:00,
2013-05-24 12:09:00,79.8,61.2,29.96,NW,304,1.0,1.0,53,0.00,,---,0.00,VWS V14.00,2013-05-24 16:09:00,
2013-05-24 12:10:00,80.4,62.2,29.96,WNW,294,6.0,7.0,54,0.00,,---,0.00,VWS V14.00,2013-05-24 16:10:00,
2013-05-24 12:11:00,79.9,61.3,29.96,NW,313,4.0,8.0,53,0.00,,---,0.00,VWS V14.00,2013-05-24 16:11:00,
2013-05-24 12:12:00,80.0,61.3,29.96,WSW,240,1.0,8.0,53,0.00,,---,0.00,VWS V14.00,2013-05-24 16:12:00,
2013-05-24 12:13:00,80.1,61.4,29.96,WNW,282,0.0,5.0,53,0.00,,---,0.00,VWS V14.00,2013-05-24 16:13:00,
2013-05-24 12:14:00,80.2,62.1,29.96,WNW,303,2.0,4.0,54,0.00,,---,0.00,VWS V14.00,2013-05-24 16:14:00,
2013-05-24 12:15:00,80.6,61.4,29.96,WNW,294,1.0,4.0,52,0.00,,---,0.00,VWS V14.00,2013-05-24 16:15:00,
2013-05-24 12:16:00,80.4,62.2,29.96,NW,306,4.0,4.0,54,0.00,,---,0.00,VWS V14.00,2013-05-24 16:16:00,
2013-05-24 12:17:00,80.5,61.8,29.96,WNW,286,0.0,7.0,53,0.00,,---,0.00,VWS V14.00,2013-05-24 16:17:00,
2013-05-24 12:18:00,80.5,61.8,29.96,WNW,286,4.0,4.0,53,0.00,,---,0.00,VWS V14.00,2013-05-24 16:18:00,
2013-05-24 12:19:00,80.6,61.4,29.96,NW,309,2.0,6.0,52,0.00,,---,0.00,VWS V14.00,2013-05-24 16:19:00,
2013-05-24 12:20:00,80.8,60.4,29.96,WNW,292,2.0,2.0,50,0.00,,---,0.00,VWS V14.00,2013-05-24 16:20:00,
2013-05-24 12:21:00,80.7,61.5,29.96,WNW,296,4.0,7.0,52,0.00,,---,0.00,VWS V14.00,2013-05-24 16:21:00,
2013-05-24 12:22:00,80.7,62.0,29.96,WNW,284,5.0,6.0,53,0.00,,---,0.00,VWS V14.00,2013-05-24 16:22:00,
2013-05-24 12:23:00,80.7,61.5,29.96,West,278,0.0,6.0,52,0.00,,---,0.00,VWS V14.00,2013-05-24 16:23:00,
2013-05-24 12:24:00,80.7,60.9,29.96,NW,304,2.0,6.0,51,0.00,,---,0.00,VWS V14.00,2013-05-24 16:24:00,
2013-05-24 12:25:00,80.9,61.1,29.96,WNW,290,11.0,11.0,51,0.00,,---,0.00,VWS V14.00,2013-05-24 16:25:00,
2013-05-24 12:26:00,80.8,60.4,29.96,WNW,290,2.0,2.0,50,0.00,,---,0.00,VWS V14.00,2013-05-24 16:26:00,
2013-05-24 12:27:00,80.9,61.1,29.96,WNW,284,0.0,2.0,51,0.00,,---,0.00,VWS V14.00,2013-05-24 16:27:00,
2013-05-24 12:28:00,80.9,61.1,29.96,WNW,286,1.0,1.0,51,0.00,,---,0.00,VWS V14.00,2013-05-24 16:28:00,
2013-05-24 12:29:00,80.9,61.6,29.96,WNW,285,1.0,4.0,52,0.00,,---,0.00,VWS V14.00,2013-05-24 16:29:00,
2013-05-24 12:30:00,80.9,61.1,29.96,NE,54,0.0,3.0,51,0.00,,---,0.00,VWS V14.00,2013-05-24 16:30:00,
2013-05-24 12:31:00,80.9,60.5,29.96,WNW,294,8.0,8.0,50,0.00,,---,0.00,VWS V14.00,2013-05-24 16:31:00,
2013-05-24 12:32:00,80.9,60.5,29.96,WNW,301,8.0,13.0,50,0.00,,---,0.00,VWS V14.00,2013-05-24 16:32:00,
2013-05-24 12:33:00,80.9,60.5,29.96,West,279,6.0,11.0,50,0.00,,---,0.00,VWS V14.00,2013-05-24 16:33:00,
2013-05-24 12:34:00,80.9,60.5,29.96,NW,313,0.0,11.0,50,0.00,,---,0.00,VWS V14.00,2013-05-24 16:34:00,
2013-05-24 12:35:00,80.9,61.1,29.96,NW,309,0.0,6.0,51,0.00,,---,0.00,VWS V14.00,2013-05-24 16:35:00,
2013-05-24 12:36:00,80.9,61.1,29.96,NE,54,2.0,2.0,51,0.00,,---,0.00,VWS V14.00,2013-05-24 16:36:00,
2013-05-24 12:37:00,80.9,61.1,29.96,NE,49,1.0,3.0,51,0.00,,---,0.00,VWS V14.00,2013-05-24 16:37:00,
2013-05-24 12:38:00,80.9,61.1,29.96,NNE,15,9.0,9.0,51,0.00,,---,0.00,VWS V14.00,2013-05-24 16:38:00,
2013-05-24 12:39:00,80.9,61.1,29.96,NNW,332,1.0,11.0,51,0.00,,---,0.00,VWS V14.00,2013-05-24 16:39:00,
2013-05-24 12:40:00,81.0,60.1,29.96,WNW,298,0.0,0.0,49,0.00,,---,0.00,VWS V14.00,2013-05-24 16:40:00,
2013-05-24 12:41:00,80.9,61.1,29.96,NW,309,0.0,6.0,51,0.00,,---,0.00,VWS V14.00,2013-05-24 16:41:00,
2013-05-24 12:42:00,80.9,61.1,29.96,NW,309,0.0,0.0,51,0.00,,---,0.00,VWS V14.00,2013-05-24 16:42:00,
2013-05-24 12:43:00,80.9,61.1,29.96,NW,307,1.0,9.0,51,0.00,,---,0.00,VWS V14.00,2013-05-24 16:43:00,
2013-05-24 12:44:00,81.0,61.7,29.96,NNW,331,0.0,8.0,52,0.00,,---,0.00,VWS V14.00,2013-05-24 16:44:00,
2013-05-24 12:45:00,81.1,60.7,29.96,NW,311,1.0,1.0,50,0.00,,---,0.00,VWS V14.00,2013-05-24 16:45:00,
2013-05-24 12:46:00,81.0,60.1,29.96,WNW,298,0.0,5.0,49,0.00,,---,0.00,VWS V14.00,2013-05-24 16:46:00,
2013-05-24 12:47:00,81.0,60.6,29.96,WNW,293,7.0,7.0,50,0.00,,---,0.00,VWS V14.00,2013-05-24 16:47:00,
2013-05-24 12:48:00,81.0,60.1,29.96,WNW,303,4.0,5.0,49,0.00,,---,0.00,VWS V14.00,2013-05-24 16:48:00,
2013-05-24 12:49:00,81.0,60.6,29.96,WNW,288,5.0,8.0,50,0.00,,---,0.00,VWS V14.00,2013-05-24 16:49:00,
2013-05-24 12:50:00,81.2,60.8,29.96,NW,313,1.0,1.0,50,0.00,,---,0.00,VWS V14.00,2013-05-24 16:50:00,
2013-05-24 12:51:00,81.0,60.6,29.96,NW,311,1.0,6.0,50,0.00,,---,0.00,VWS V14.00,2013-05-24 16:51:00,
2013-05-24 12:52:00,81.1,60.7,29.96,WNW,286,0.0,5.0,50,0.00,,---,0.00,VWS V14.00,2013-05-24 16:52:00,
2013-05-24 12:53:00,81.1,60.7,29.96,NW,312,0.0,5.0,50,0.00,,---,0.00,VWS V14.00,2013-05-24 16:53:00,
2013-05-24 12:54:00,81.1,60.7,29.96,WNW,282,2.0,4.0,50,0.00,,---,0.00,VWS V14.00,2013-05-24 16:54:00,
2013-05-24 12:55:00,81.4,62.1,29.96,NW,313,0.0,0.0,52,0.00,,---,0.00,VWS V14.00,2013-05-24 16:55:00,
2013-05-24 12:56:00,81.2,60.8,29.96,NW,309,1.0,9.0,50,0.00,,---,0.00,VWS V14.00,2013-05-24 16:56:00,
2013-05-24 12:57:00,81.3,60.9,29.96,NW,317,1.0,4.0,50,0.00,,---,0.00,VWS V14.00,2013-05-24 16:57:00,
2013-05-24 12:58:00,81.3,61.5,29.96,NNW,333,0.0,2.0,51,0.00,,---,0.00,VWS V14.00,2013-05-24 16:58:00,
2013-05-24 12:59:00,81.3,62.0,29.96,WNW,291,5.0,5.0,52,0.00,,---,0.00,VWS V14.00,2013-05-24 16:59:00,
2013-05-24 13:00:00,81.4,61.5,29.96,NW,310,6.0,6.0,51,0.00,,---,0.00,VWS V14.00,2013-05-24 17:00:00,
2013-05-24 13:01:00,81.4,62.1,29.96,NW,313,0.0,1.0,52,0.00,,---,0.00,VWS V14.00,2013-05-24 17:01:00,
2013-05-24 13:02:00,81.4,63.2,29.96,NNE,26,0.0,2.0,54,0.00,,---,0.00,VWS V14.00,2013-05-24 17:02:00,
2013-05-24 13:03:00,81.4,63.7,29.96,NNE,26,0.0,1.0,55,0.00,,---,0.00,VWS V14.00,2013-05-24 17:03:00,
2013-05-24 13:04:00,81.4,62.6,29.96,NNE,26,0.0,1.0,53,0.00,,---,0.00,VWS V14.00,2013-05-24 17:04:00,
2013-05-24 13:05:00,81.4,61.5,29.96,WNW,302,5.0,5.0,51,0.00,,---,0.00,VWS V14.00,2013-05-24 17:05:00,
2013-05-24 13:06:00,81.4,62.6,29.96,WNW,298,6.0,8.0,53,0.00,,---,0.00,VWS V14.00,2013-05-24 17:06:00,
2013-05-24 13:07:00,81.4,61.0,29.96,NW,314,0.0,6.0,50,0.00,,---,0.00,VWS V14.00,2013-05-24 17:07:00,
2013-05-24 13:08:00,81.4,61.0,29.96,WNW,302,4.0,14.0,50,0.00,,---,0.00,VWS V14.00,2013-05-24 17:08:00,
2013-05-24 13:09:00,81.4,61.0,29.96,WSW,246,1.0,14.0,50,0.00,,---,0.00,VWS V14.00,2013-05-24 17:09:00,
2013-05-24 13:10:00,81.6,61.7,29.96,WSW,250,0.0,0.0,51,0.00,,---,0.00,VWS V14.00,2013-05-24 17:10:00,
2013-05-24 13:11:00,81.4,61.5,29.96,WNW,289,5.0,5.0,51,0.00,,---,0.00,VWS V14.00,2013-05-24 17:11:00,
2013-05-24 13:12:00,81.4,61.5,29.96,WSW,256,8.0,8.0,51,0.00,,---,0.00,VWS V14.00,2013-05-24 17:12:00,
2013-05-24 13:13:00,81.5,62.2,29.97,NW,317,0.0,8.0,52,0.00,,---,0.00,VWS V14.00,2013-05-24 17:13:00,
2013-05-24 13:14:00,81.5,61.7,29.96,WNW,303,2.0,4.0,51,0.00,,---,0.00,VWS V14.00,2013-05-24 17:14:00,
2013-05-24 13:15:00,81.7,61.3,29.96,NNE,21,0.0,0.0,50,0.00,,---,0.00,VWS V14.00,2013-05-24 17:15:00,
2013-05-24 13:16:00,81.6,61.7,29.96,WSW,250,0.0,7.0,51,0.00,,---,0.00,VWS V14.00,2013-05-24 17:16:00,
2013-05-24 13:17:00,81.7,62.4,29.96,WSW,254,1.0,1.0,52,0.00,,---,0.00,VWS V14.00,2013-05-24 17:17:00,
2013-05-24 13:18:00,81.7,62.9,29.96,NNE,31,1.0,5.0,53,0.00,,---,0.00,VWS V14.00,2013-05-24 17:18:00,
2013-05-24 13:19:00,81.7,61.3,29.96,NNW,342,0.0,2.0,50,0.00,,---,0.00,VWS V14.00,2013-05-24 17:19:00,
2013-05-24 13:20:00,81.6,61.7,29.97,WNW,300,0.0,0.0,51,0.00,,---,0.00,VWS V14.00,2013-05-24 17:20:00,
2013-05-24 13:21:00,81.7,61.3,29.96,NNE,21,0.0,2.0,50,0.00,,---,0.00,VWS V14.00,2013-05-24 17:21:00,
2013-05-24 13:22:00,81.7,61.8,29.96,West,278,5.0,5.0,51,0.00,,---,0.00,VWS V14.00,2013-05-24 17:22:00,
2013-05-24 13:23:00,81.6,61.2,29.96,NW,315,1.0,5.0,50,0.00,,---,0.00,VWS V14.00,2013-05-24 17:23:00,
2013-05-24 13:24:00,81.6,61.7,29.96,ENE,59,0.0,4.0,51,0.00,,---,0.00,VWS V14.00,2013-05-24 17:24:00,
2013-05-24 13:25:00,81.7,61.8,29.97,ENE,75,4.0,4.0,51,0.00,,---,0.00,VWS V14.00,2013-05-24 17:25:00,
2013-05-24 13:26:00,81.6,61.7,29.97,WNW,300,0.0,5.0,51,0.00,,---,0.00,VWS V14.00,2013-05-24 17:26:00,
2013-05-24 13:27:00,81.6,62.3,29.97,WNW,286,2.0,4.0,52,0.00,,---,0.00,VWS V14.00,2013-05-24 17:27:00,
2013-05-24 13:28:00,81.6,62.8,29.97,NE,44,1.0,2.0,53,0.00,,---,0.00,VWS V14.00,2013-05-24 17:28:00,
2013-05-24 13:29:00,81.6,62.3,29.96,West,270,6.0,14.0,52,0.00,,---,0.00,VWS V14.00,2013-05-24 17:29:00,
2013-05-24 13:30:00,82.0,62.1,29.96,NNW,338,2.0,2.0,51,0.00,,---,0.00,VWS V14.00,2013-05-24 17:30:00,
2013-05-24 13:31:00,81.7,61.8,29.96,East,80,3.0,7.0,51,0.00,,---,0.00,VWS V14.00,2013-05-24 17:31:00,
2013-05-24 13:32:00,81.8,61.9,29.97,WNW,287,2.0,6.0,51,0.00,,---,0.00,VWS V14.00,2013-05-24 17:32:00,
2013-05-24 13:33:00,81.8,61.9,29.97,WNW,286,1.0,6.0,51,0.00,,---,0.00,VWS V14.00,2013-05-24 17:33:00,
2013-05-24 13:34:00,81.9,62.0,29.96,WNW,302,0.0,2.0,51,0.00,,---,0.00,VWS V14.00,2013-05-24 17:34:00,
2013-05-24 13:35:00,82.5,61.4,29.96,NW,322,4.0,4.0,49,0.00,,---,0.00,VWS V14.00,2013-05-24 17:35:00,
2013-05-24 13:36:00,82.0,62.1,29.96,NNW,338,0.0,1.0,51,0.00,,---,0.00,VWS V14.00,2013-05-24 17:36:00,
2013-05-24 13:37:00,82.1,62.2,29.96,NNW,338,0.0,5.0,51,0.00,,---,0.00,VWS V14.00,2013-05-24 17:37:00,
2013-05-24 13:38:00,82.2,61.7,29.97,West,261,0.0,7.0,50,0.00,,---,0.00,VWS V14.00,2013-05-24 17:38:00,
2013-05-24 13:39:00,82.3,61.8,29.96,NNW,332,5.0,6.0,50,0.00,,---,0.00,VWS V14.00,2013-05-24 17:39:00,
2013-05-24 13:40:00,82.8,61.7,29.96,NNE,27,0.0,0.0,49,0.00,,---,0.00,VWS V14.00,2013-05-24 17:40:00,
2013-05-24 13:41:00,82.5,61.4,29.96,WNW,298,4.0,7.0,49,0.00,,---,0.00,VWS V14.00,2013-05-24 17:41:00,
2013-05-24 13:42:00,82.5,62.0,29.96,WNW,286,0.0,6.0,50,0.00,,---,0.00,VWS V14.00,2013-05-24 17:42:00,
2013-05-24 13:43:00,82.6,61.5,29.97,NNW,344,0.0,6.0,49,0.00,,---,0.00,VWS V14.00,2013-05-24 17:43:00,
2013-05-24 13:44:00,82.7,61.0,29.97,NNW,327,5.0,8.0,48,0.00,,---,0.00,VWS V14.00,2013-05-24 17:44:00,
2013-05-24 13:45:00,82.9,62.9,29.96,SW,223,2.0,4.0,51,0.00,,---,0.00,VWS V14.00,2013-05-24 17:45:00,
2013-05-24 13:46:00,82.8,61.7,29.96,NNE,27,0.0,3.0,49,0.00,,---,0.00,VWS V14.00,2013-05-24 17:46:00,
2013-05-24 13:47:00,82.8,61.7,29.96,ENE,61,1.0,1.0,49,0.00,,---,0.00,VWS V14.00,2013-05-24 17:47:00,
2013-05-24 13:48:00,82.8,61.1,29.96,SE,131,0.0,4.0,48,0.00,,---,0.00,VWS V14.00,2013-05-24 17:48:00,
2013-05-24 13:49:00,82.9,61.2,29.96,North,360,3.0,3.0,48,0.00,,---,0.00,VWS V14.00,2013-05-24 17:49:00,
2013-05-24 13:50:00,83.3,61.0,29.96,WNW,296,1.0,1.0,47,0.00,,---,0.00,VWS V14.00,2013-05-24 17:50:00,
2013-05-24 13:51:00,83.0,63.0,29.96,SSW,199,4.0,4.0,51,0.00,,---,0.00,VWS V14.00,2013-05-24 17:51:00,
2013-05-24 13:52:00,83.0,62.5,29.96,NW,311,0.0,5.0,50,0.00,,---,0.00,VWS V14.00,2013-05-24 17:52:00,
2013-05-24 13:53:00,83.1,62.0,29.96,NE,42,3.0,3.0,49,0.00,,---,0.00,VWS V14.00,2013-05-24 17:53:00,
2013-05-24 13:54:00,83.2,62.7,29.96,WNW,284,4.0,5.0,50,0.00,,---,0.00,VWS V14.00,2013-05-24 17:54:00,
2013-05-24 13:55:00,83.4,61.7,29.96,NW,315,0.0,1.0,48,0.00,,---,0.00,VWS V14.00,2013-05-24 17:55:00,
2013-05-24 13:56:00,83.3,61.0,29.96,WNW,296,1.0,2.0,47,0.00,,---,0.00,VWS V14.00,2013-05-24 17:56:00,
2013-05-24 13:57:00,83.4,61.7,29.96,WNW,296,1.0,1.0,48,0.00,,---,0.00,VWS V14.00,2013-05-24 17:57:00,
2013-05-24 13:58:00,83.4,62.3,29.96,SW,236,0.0,5.0,49,0.00,,---,0.00,VWS V14.00,2013-05-24 17:58:00,
2013-05-24 13:59:00,83.4,61.7,29.96,NW,309,0.0,8.0,48,0.00,,---,0.00,VWS V14.00,2013-05-24 17:59:00,
2013-05-24 14:00:00,83.3,60.4,29.96,West,273,2.0,2.0,46,0.00,,---,0.00,VWS V14.00,2013-05-24 18:00:00,
2013-05-24 14:01:00,83.4,61.7,29.96,NW,315,1.0,5.0,48,0.00,,---,0.00,VWS V14.00,2013-05-24 18:01:00,
2013-05-24 14:02:00,83.5,61.2,29.96,NW,321,0.0,6.0,47,0.00,,---,0.00,VWS V14.00,2013-05-24 18:02:00,
2013-05-24 14:03:00,83.4,61.1,29.96,NW,313,0.0,11.0,47,0.00,,---,0.00,VWS V14.00,2013-05-24 18:03:00,
2013-05-24 14:04:00,83.4,61.1,29.96,NNW,341,4.0,6.0,47,0.00,,---,0.00,VWS V14.00,2013-05-24 18:04:00,
2013-05-24 14:05:00,83.0,60.7,29.96,WNW,302,0.0,0.0,47,0.00,,---,0.00,VWS V14.00,2013-05-24 18:05:00,
2013-05-24 14:06:00,83.3,60.4,29.96,West,272,1.0,6.0,46,0.00,,---,0.00,VWS V14.00,2013-05-24 18:06:00,
2013-05-24 14:07:00,83.2,60.3,29.96,WNW,297,0.0,7.0,46,0.00,,---,0.00,VWS V14.00,2013-05-24 18:07:00,
2013-05-24 14:08:00,83.2,60.9,29.96,WNW,297,0.0,1.0,47,0.00,,---,0.00,VWS V14.00,2013-05-24 18:08:00,
2013-05-24 14:09:00,83.1,61.4,29.97,WNW,298,0.0,1.0,48,0.00,,---,0.00,VWS V14.00,2013-05-24 18:09:00,
2013-05-24 14:10:00,83.0,61.3,29.96,WNW,300,0.0,0.0,48,0.00,,---,0.00,VWS V14.00,2013-05-24 18:10:00,
2013-05-24 14:11:00,83.0,60.7,29.96,WNW,302,0.0,5.0,47,0.00,,---,0.00,VWS V14.00,2013-05-24 18:11:00,
2013-05-24 14:12:00,83.0,61.3,29.96,WNW,302,0.0,0.0,48,0.00,,---,0.00,VWS V14.00,2013-05-24 18:12:00,
2013-05-24 14:13:00,83.0,62.5,29.96,NNE,29,0.0,4.0,50,0.00,,---,0.00,VWS V14.00,2013-05-24 18:13:00,
2013-05-24 14:14:00,83.0,61.9,29.96,NW,314,2.0,10.0,49,0.00,,---,0.00,VWS V14.00,2013-05-24 18:14:00,
2013-05-24 14:15:00,83.3,61.6,29.96,West,273,11.0,11.0,48,0.00,,---,0.00,VWS V14.00,2013-05-24 18:15:00,
2013-05-24 14:16:00,83.0,61.3,29.96,WNW,300,0.0,5.0,48,0.00,,---,0.00,VWS V14.00,2013-05-24 18:16:00,
2013-05-24 14:17:00,83.1,62.0,29.96,WSW,241,4.0,4.0,49,0.00,,---,0.00,VWS V14.00,2013-05-24 18:17:00,
2013-05-24 14:18:00,83.1,61.4,29.96,WNW,286,8.0,9.0,48,0.00,,---,0.00,VWS V14.00,2013-05-24 18:18:00,
2013-05-24 14:19:00,83.2,62.7,29.97,West,271,2.0,8.0,50,0.00,,---,0.00,VWS V14.00,2013-05-24 18:19:00,
2013-05-24 14:20:00,83.7,61.3,29.96,East,101,0.0,0.0,47,0.00,,---,0.00,VWS V14.00,2013-05-24 18:20:00,
2013-05-24 14:21:00,83.3,61.6,29.96,West,273,11.0,11.0,48,0.00,,---,0.00,VWS V14.00,2013-05-24 18:21:00,
2013-05-24 14:22:00,83.4,61.7,29.96,North,351,0.0,11.0,48,0.00,,---,0.00,VWS V14.00,2013-05-24 18:22:00,
2013-05-24 14:23:00,83.5,62.9,29.96,West,273,8.0,8.0,50,0.00,,---,0.00,VWS V14.00,2013-05-24 18:23:00,
2013-05-24 14:24:00,83.5,61.8,29.96,WNW,299,0.0,8.0,48,0.00,,---,0.00,VWS V14.00,2013-05-24 18:24:00,
2013-05-24 14:25:00,84.0,62.2,29.97,NW,311,1.0,7.0,48,0.00,,---,0.00,VWS V14.00,2013-05-24 18:25:00,
2013-05-24 14:26:00,83.7,61.3,29.96,East,101,0.0,2.0,47,0.00,,---,0.00,VWS V14.00,2013-05-24 18:26:00,
2013-05-24 14:27:00,83.7,62.0,29.96,WSW,253,1.0,1.0,48,0.00,,---,0.00,VWS V14.00,2013-05-24 18:27:00,
2013-05-24 14:28:00,83.8,62.0,29.96,NW,311,1.0,4.0,48,0.00,,---,0.00,VWS V14.00,2013-05-24 18:28:00,
2013-05-24 14:29:00,83.8,62.0,29.97,WNW,287,9.0,12.0,48,0.00,,---,0.00,VWS V14.00,2013-05-24 18:29:00,
2013-05-24 14:30:00,84.2,61.8,29.97,NNW,336,1.0,2.0,47,0.00,,---,0.00,VWS V14.00,2013-05-24 18:30:00,
2013-05-24 14:31:00,84.0,62.2,29.97,NW,311,1.0,7.0,48,0.00,,---,0.00,VWS V14.00,2013-05-24 18:31:00,
2013-05-24 14:32:00,84.1,61.7,29.97,WNW,282,6.0,6.0,47,0.00,,---,0.00,VWS V14.00,2013-05-24 18:32:00,
2013-05-24 14:33:00,84.1,61.1,29.97,WNW,287,6.0,11.0,46,0.00,,---,0.00,VWS V14.00,2013-05-24 18:33:00,
2013-05-24 14:34:00,84.2,61.2,29.97,WNW,292,6.0,6.0,46,0.00,,---,0.00,VWS V14.00,2013-05-24 18:34:00,
2013-05-24 14:35:00,84.4,62.0,29.97,WNW,296,1.0,5.0,47,0.00,,---,0.00,VWS V14.00,2013-05-24 18:35:00,
2013-05-24 14:36:00,84.2,61.8,29.97,NNW,336,1.0,2.0,47,0.00,,---,0.00,VWS V14.00,2013-05-24 18:36:00,
2013-05-24 14:37:00,84.3,62.5,29.97,NNW,335,0.0,1.0,48,0.00,,---,0.00,VWS V14.00,2013-05-24 18:37:00,
2013-05-24 14:38:00,84.3,63.1,29.97,NW,322,1.0,2.0,49,0.00,,---,0.00,VWS V14.00,2013-05-24 18:38:00,
2013-05-24 14:39:00,84.3,61.9,29.97,NE,51,1.0,6.0,47,0.00,,---,0.00,VWS V14.00,2013-05-24 18:39:00,
2013-05-24 14:40:00,84.7,61.0,29.97,West,281,11.0,11.0,45,0.00,,---,0.00,VWS V14.00,2013-05-24 18:40:00,
2013-05-24 14:41:00,84.4,62.0,29.97,WNW,296,1.0,5.0,47,0.00,,---,0.00,VWS V14.00,2013-05-24 18:41:00,
2013-05-24 14:42:00,84.5,62.1,29.97,WNW,300,5.0,10.0,47,0.00,,---,0.00,VWS V14.00,2013-05-24 18:42:00,
2013-05-24 14:43:00,84.5,61.5,29.97,WNW,291,7.0,11.0,46,0.00,,---,0.00,VWS V14.00,2013-05-24 18:43:00,
2013-05-24 14:44:00,84.6,61.6,29.97,West,280,2.0,7.0,46,0.00,,---,0.00,VWS V14.00,2013-05-24 18:44:00,
2013-05-24 14:45:00,84.9,61.2,29.97,NW,317,6.0,13.0,45,0.00,,---,0.00,VWS V14.00,2013-05-24 18:45:00,
2013-05-24 14:46:00,84.7,61.0,29.97,West,281,11.0,11.0,45,0.00,,---,0.00,VWS V14.00,2013-05-24 18:46:00,
2013-05-24 14:47:00,84.7,61.0,29.97,South,180,2.0,11.0,45,0.00,,---,0.00,VWS V14.00,2013-05-24 18:47:00,
2013-05-24 14:48:00,84.8,61.7,29.97,NW,324,2.0,7.0,46,0.00,,---,0.00,VWS V14.00,2013-05-24 18:48:00,
2013-05-24 14:49:00,84.8,61.1,29.97,North,11,1.0,11.0,45,0.00,,---,0.00,VWS V14.00,2013-05-24 18:49:00,
2013-05-24 14:50:00,85.0,61.3,29.97,NW,320,5.0,8.0,45,0.00,,---,0.00,VWS V14.00,2013-05-24 18:50:00,
2013-05-24 14:51:00,84.9,61.2,29.97,NW,317,6.0,13.0,45,0.00,,---,0.00,VWS V14.00,2013-05-24 18:51:00,
2013-05-24 14:52:00,84.9,61.8,29.97,NE,43,0.0,6.0,46,0.00,,---,0.00,VWS V14.00,2013-05-24 18:52:00,
2013-05-24 14:53:00,85.0,61.3,29.97,WNW,293,4.0,9.0,45,0.00,,---,0.00,VWS V14.00,2013-05-24 18:53:00,
2013-05-24 14:54:00,85.0,61.3,29.97,WNW,294,2.0,7.0,45,0.00,,---,0.00,VWS V14.00,2013-05-24 18:54:00,
2013-05-24 14:55:00,85.0,62.5,29.97,WNW,297,0.0,1.0,47,0.00,,---,0.00,VWS V14.00,2013-05-24 18:55:00,
2013-05-24 14:56:00,85.0,61.3,29.97,NW,320,5.0,8.0,45,0.00,,---,0.00,VWS V14.00,2013-05-24 18:56:00,
2013-05-24 14:57:00,85.0,60.0,29.97,WNW,298,1.0,7.0,43,0.00,,---,0.00,VWS V14.00,2013-05-24 18:57:00,
2013-05-24 14:58:00,85.0,60.7,29.97,WNW,300,0.0,4.0,44,0.00,,---,0.00,VWS V14.00,2013-05-24 18:58:00,
2013-05-24 14:59:00,85.0,62.5,29.97,NW,316,0.0,4.0,47,0.00,,---,0.00,VWS V14.00,2013-05-24 18:59:00,
2013-05-24 15:00:00,85.1,60.8,29.97,NW,313,5.0,15.0,44,0.00,,---,0.00,VWS V14.00,2013-05-24 19:00:00,
2013-05-24 15:01:00,85.0,62.5,29.97,WNW,297,1.0,6.0,47,0.00,,---,0.00,VWS V14.00,2013-05-24 19:01:00,
2013-05-24 15:02:00,85.0,61.3,29.97,WNW,293,2.0,2.0,45,0.00,,---,0.00,VWS V14.00,2013-05-24 19:02:00,
2013-05-24 15:03:00,85.0,61.3,29.97,WNW,300,7.0,7.0,45,0.00,,---,0.00,VWS V14.00,2013-05-24 19:03:00,
2013-05-24 15:04:00,85.0,61.3,29.97,WNW,303,1.0,7.0,45,0.00,,---,0.00,VWS V14.00,2013-05-24 19:04:00,
2013-05-24 15:05:00,84.9,61.2,29.97,ENE,78,1.0,4.0,45,0.00,,---,0.00,VWS V14.00,2013-05-24 19:05:00,
2013-05-24 15:06:00,85.1,60.8,29.97,NW,313,5.0,15.0,44,0.00,,---,0.00,VWS V14.00,2013-05-24 19:06:00,
2013-05-24 15:07:00,85.1,60.1,29.97,NW,308,4.0,13.0,43,0.00,,---,0.00,VWS V14.00,2013-05-24 19:07:00,
2013-05-24 15:08:00,85.0,60.0,29.97,NNW,332,1.0,6.0,43,0.00,,---,0.00,VWS V14.00,2013-05-24 19:08:00,
2013-05-24 15:09:00,85.0,60.0,29.97,NW,313,1.0,4.0,43,0.00,,---,0.00,VWS V14.00,2013-05-24 19:09:00,
2013-05-24 15:10:00,84.7,60.4,29.97,ENE,67,1.0,5.0,44,0.00,,---,0.00,VWS V14.00,2013-05-24 19:10:00,
2013-05-24 15:11:00,84.9,61.2,29.97,ENE,78,1.0,4.0,45,0.00,,---,0.00,VWS V14.00,2013-05-24 19:11:00,
2013-05-24 15:12:00,84.9,60.6,29.97,ENE,78,0.0,1.0,44,0.00,,---,0.00,VWS V14.00,2013-05-24 19:12:00,
2013-05-24 15:13:00,84.8,61.7,29.97,ENE,57,3.0,4.0,46,0.00,,---,0.00,VWS V14.00,2013-05-24 19:13:00,
2013-05-24 15:14:00,84.8,61.1,29.97,North,9,1.0,3.0,45,0.00,,---,0.00,VWS V14.00,2013-05-24 19:14:00,
2013-05-24 15:15:00,84.7,61.0,29.97,NNW,338,0.0,5.0,45,0.00,,---,0.00,VWS V14.00,2013-05-24 19:15:00,
2013-05-24 15:16:00,84.7,60.4,29.97,ENE,67,1.0,5.0,44,0.00,,---,0.00,VWS V14.00,2013-05-24 19:16:00,
2013-05-24 15:17:00,84.7,60.4,29.97,NW,321,6.0,7.0,44,0.00,,---,0.00,VWS V14.00,2013-05-24 19:17:00,
2013-05-24 15:18:00,84.6,60.3,29.97,NW,323,0.0,6.0,44,0.00,,---,0.00,VWS V14.00,2013-05-24 19:18:00,
2013-05-24 15:19:00,84.7,61.7,29.97,SW,229,0.0,6.0,46,0.00,,---,0.00,VWS V14.00,2013-05-24 19:19:00,
2013-05-24 15:20:00,84.9,61.2,29.97,NW,308,0.0,8.0,45,0.00,,---,0.00,VWS V14.00,2013-05-24 19:20:00,
2013-05-24 15:21:00,84.7,61.0,29.97,NNW,338,0.0,5.0,45,0.00,,---,0.00,VWS V14.00,2013-05-24 19:21:00,
2013-05-24 15:22:00,84.7,62.3,29.97,WNW,302,0.0,5.0,47,0.00,,---,0.00,VWS V14.00,2013-05-24 19:22:00,
2013-05-24 15:23:00,84.8,61.7,29.97,WNW,303,1.0,2.0,46,0.00,,---,0.00,VWS V14.00,2013-05-24 19:23:00,
2013-05-24 15:24:00,84.8,61.1,29.97,NNW,330,2.0,5.0,45,0.00,,---,0.00,VWS V14.00,2013-05-24 19:24:00,
2013-05-24 15:25:00,85.2,60.2,29.97,NW,311,0.0,6.0,43,0.00,,---,0.00,VWS V14.00,2013-05-24 19:25:00,
2013-05-24 15:26:00,84.9,61.2,29.97,NW,308,0.0,8.0,45,0.00,,---,0.00,VWS V14.00,2013-05-24 19:26:00,
2013-05-24 15:27:00,85.0,61.3,29.97,NW,309,0.0,1.0,45,0.00,,---,0.00,VWS V14.00,2013-05-24 19:27:00,
2013-05-24 15:28:00,85.1,60.8,29.97,WNW,296,5.0,5.0,44,0.00,,---,0.00,VWS V14.00,2013-05-24 19:28:00,
2013-05-24 15:29:00,85.1,62.0,29.97,NNW,327,5.0,8.0,46,0.00,,---,0.00,VWS V14.00,2013-05-24 19:29:00,
2013-05-24 15:30:00,85.2,60.2,29.97,North,355,0.0,2.0,43,0.00,,---,0.00,VWS V14.00,2013-05-24 19:30:00,
2013-05-24 15:31:00,85.2,60.2,29.97,NW,311,0.0,6.0,43,0.00,,---,0.00,VWS V14.00,2013-05-24 19:31:00,
2013-05-24 15:32:00,85.3,60.3,29.97,WNW,298,7.0,9.0,43,0.00,,---,0.00,VWS V14.00,2013-05-24 19:32:00,
2013-05-24 15:33:00,85.3,60.3,29.97,WNW,300,7.0,13.0,43,0.00,,---,0.00,VWS V14.00,2013-05-24 19:33:00,
2013-05-24 15:34:00,85.3,59.6,29.97,WNW,284,0.0,7.0,42,0.00,,---,0.00,VWS V14.00,2013-05-24 19:34:00,
2013-05-24 15:35:00,85.2,62.1,29.97,WNW,302,0.0,1.0,46,0.00,,---,0.00,VWS V14.00,2013-05-24 19:35:00,
2013-05-24 15:36:00,85.2,60.2,29.97,North,355,0.0,2.0,43,0.00,,---,0.00,VWS V14.00,2013-05-24 19:36:00,
2013-05-24 15:37:00,85.2,60.8,29.97,North,351,0.0,1.0,44,0.00,,---,0.00,VWS V14.00,2013-05-24 19:37:00,
2013-05-24 15:38:00,85.1,60.1,29.97,NW,307,0.0,5.0,43,0.00,,---,0.00,VWS V14.00,2013-05-24 19:38:00,
2013-05-24 15:39:00,85.2,62.1,29.97,NW,307,0.0,0.0,46,0.00,,---,0.00,VWS V14.00,2013-05-24 19:39:00,
2013-05-24 15:40:00,85.0,60.7,29.97,NE,49,0.0,2.0,44,0.00,,---,0.00,VWS V14.00,2013-05-24 19:40:00,
2013-05-24 15:41:00,85.2,62.1,29.97,WNW,302,0.0,1.0,46,0.00,,---,0.00,VWS V14.00,2013-05-24 19:41:00,
2013-05-24 15:42:00,85.2,62.1,29.97,ENE,57,1.0,1.0,46,0.00,,---,0.00,VWS V14.00,2013-05-24 19:42:00,
2013-05-24 15:43:00,85.3,64.0,29.97,NNE,30,2.0,8.0,49,0.00,,---,0.00,VWS V14.00,2013-05-24 19:43:00,
2013-05-24 15:44:00,85.2,60.2,29.97,NNE,31,3.0,6.0,43,0.00,,---,0.00,VWS V14.00,2013-05-24 19:44:00,
2013-05-24 15:45:00,84.9,60.6,29.97,NE,52,0.0,2.0,44,0.00,,---,0.00,VWS V14.00,2013-05-24 19:45:00,
2013-05-24 15:46:00,85.0,60.7,29.97,NE,49,0.0,2.0,44,0.00,,---,0.00,VWS V14.00,2013-05-24 19:46:00,
2013-05-24 15:47:00,85.0,61.3,29.97,NNE,32,1.0,11.0,45,0.00,,---,0.00,VWS V14.00,2013-05-24 19:47:00,
2013-05-24 15:48:00,84.9,59.9,29.97,WNW,300,2.0,8.0,43,0.00,,---,0.00,VWS V14.00,2013-05-24 19:48:00,
2013-05-24 15:49:00,84.9,59.9,29.97,NW,315,4.0,8.0,43,0.00,,---,0.00,VWS V14.00,2013-05-24 19:49:00,
2013-05-24 15:50:00,85.1,62.6,29.98,NE,42,0.0,3.0,47,0.00,,---,0.00,VWS V14.00,2013-05-24 19:50:00,
2013-05-24 15:51:00,84.9,60.6,29.97,NE,52,0.0,2.0,44,0.00,,---,0.00,VWS V14.00,2013-05-24 19:51:00,
2013-05-24 15:52:00,85.0,60.7,29.97,NNW,348,0.0,1.0,44,0.00,,---,0.00,VWS V14.00,2013-05-24 19:52:00,
2013-05-24 15:53:00,85.0,60.7,29.97,NNW,348,0.0,1.0,44,0.00,,---,0.00,VWS V14.00,2013-05-24 19:53:00,
2013-05-24 15:54:00,85.0,61.3,29.97,NNW,348,1.0,1.0,45,0.00,,---,0.00,VWS V14.00,2013-05-24 19:54:00,
2013-05-24 15:55:00,85.2,60.8,29.97,West,259,0.0,3.0,44,0.00,,---,0.00,VWS V14.00,2013-05-24 19:55:00,
2013-05-24 15:56:00,85.1,62.6,29.98,NE,42,0.0,3.0,47,0.00,,---,0.00,VWS V14.00,2013-05-24 19:56:00,
2013-05-24 15:57:00,85.1,60.8,29.97,ESE,103,0.0,6.0,44,0.00,,---,0.00,VWS V14.00,2013-05-24 19:57:00,
2013-05-24 15:58:00,85.1,60.1,29.97,NW,307,0.0,8.0,43,0.00,,---,0.00,VWS V14.00,2013-05-24 19:58:00,
2013-05-24 15:59:00,85.2,62.1,29.97,NW,306,2.0,2.0,46,0.00,,---,0.00,VWS V14.00,2013-05-24 19:59:00,
2013-05-24 16:00:00,85.3,60.9,29.97,NNE,33,1.0,1.0,44,0.00,,---,0.00,VWS V14.00,2013-05-24 20:00:00,
2013-05-24 16:01:00,85.2,60.8,29.97,WSW,248,0.0,3.0,44,0.00,,---,0.00,VWS V14.00,2013-05-24 20:01:00,
2013-05-24 16:02:00,85.2,60.2,29.97,West,275,2.0,4.0,43,0.00,,---,0.00,VWS V14.00,2013-05-24 20:02:00,
2013-05-24 16:03:00,85.3,60.9,29.97,NNE,30,0.0,2.0,44,0.00,,---,0.00,VWS V14.00,2013-05-24 20:03:00,
2013-05-24 16:04:00,85.3,60.9,29.97,NNE,30,0.0,1.0,44,0.00,,---,0.00,VWS V14.00,2013-05-24 20:04:00,
2013-05-24 16:05:00,85.4,59.7,29.97,WNW,290,8.0,9.0,42,0.00,,---,0.00,VWS V14.00,2013-05-24 20:05:00,
2013-05-24 16:06:00,85.3,60.9,29.97,NNE,33,0.0,1.0,44,0.00,,---,0.00,VWS V14.00,2013-05-24 20:06:00,
2013-05-24 16:07:00,85.3,60.9,29.97,NNE,33,0.0,1.0,44,0.00,,---,0.00,VWS V14.00,2013-05-24 20:07:00,
2013-05-24 16:08:00,85.4,61.7,29.97,WNW,300,1.0,11.0,45,0.00,,---,0.00,VWS V14.00,2013-05-24 20:08:00,
2013-05-24 16:09:00,85.4,61.7,29.97,NNW,347,1.0,5.0,45,0.00,,---,0.00,VWS V14.00,2013-05-24 20:09:00,
2013-05-24 16:10:00,85.5,60.5,29.98,West,280,5.0,9.0,43,0.00,,---,0.00,VWS V14.00,2013-05-24 20:10:00,
2013-05-24 16:11:00,85.4,59.7,29.97,NW,315,2.0,9.0,42,0.00,,---,0.00,VWS V14.00,2013-05-24 20:11:00,
2013-05-24 16:12:00,85.5,60.5,29.97,NNE,22,1.0,6.0,43,0.00,,---,0.00,VWS V14.00,2013-05-24 20:12:00,
2013-05-24 16:13:00,85.5,60.5,29.97,NNW,327,0.0,2.0,43,0.00,,---,0.00,VWS V14.00,2013-05-24 20:13:00,
2013-05-24 16:14:00,85.5,60.5,29.98,WNW,284,0.0,7.0,43,0.00,,---,0.00,VWS V14.00,2013-05-24 20:14:00,
2013-05-24 16:15:00,85.6,60.6,29.98,NW,326,1.0,5.0,43,0.00,,---,0.00,VWS V14.00,2013-05-24 20:15:00,
2013-05-24 16:16:00,85.5,60.5,29.98,NW,325,5.0,9.0,43,0.00,,---,0.00,VWS V14.00,2013-05-24 20:16:00,
2013-05-24 16:17:00,85.6,59.2,29.97,NW,311,4.0,5.0,41,0.00,,---,0.00,VWS V14.00,2013-05-24 20:17:00,
2013-05-24 16:18:00,85.6,59.9,29.98,ENE,60,1.0,8.0,42,0.00,,---,0.00,VWS V14.00,2013-05-24 20:18:00,
2013-05-24 16:19:00,85.6,60.6,29.98,NNE,33,1.0,6.0,43,0.00,,---,0.00,VWS V14.00,2013-05-24 20:19:00,
2013-05-24 16:20:00,85.6,60.6,29.98,NE,50,0.0,2.0,43,0.00,,---,0.00,VWS V14.00,2013-05-24 20:20:00,
2013-05-24 16:21:00,85.6,60.6,29.98,NNW,336,1.0,5.0,43,0.00,,---,0.00,VWS V14.00,2013-05-24 20:21:00,
2013-05-24 16:22:00,85.6,61.2,29.98,NE,48,3.0,3.0,44,0.00,,---,0.00,VWS V14.00,2013-05-24 20:22:00,
2013-05-24 16:23:00,85.6,61.2,29.98,NE,40,0.0,6.0,44,0.00,,---,0.00,VWS V14.00,2013-05-24 20:23:00,
2013-05-24 16:24:00,85.6,61.2,29.98,NE,34,0.0,4.0,44,0.00,,---,0.00,VWS V14.00,2013-05-24 20:24:00,
2013-05-24 16:25:00,85.2,60.2,29.98,NNW,338,0.0,5.0,43,0.00,,---,0.00,VWS V14.00,2013-05-24 20:25:00,
2013-05-24 16:26:00,85.6,61.8,29.98,ENE,65,3.0,3.0,45,0.00,,---,0.00,VWS V14.00,2013-05-24 20:26:00,
2013-05-24 16:27:00,85.5,60.5,29.98,NNE,23,2.0,5.0,43,0.00,,---,0.00,VWS V14.00,2013-05-24 20:27:00,
2013-05-24 16:28:00,85.5,60.5,29.98,East,80,3.0,5.0,43,0.00,,---,0.00,VWS V14.00,2013-05-24 20:28:00,
2013-05-24 16:29:00,85.4,60.4,29.98,ENE,65,1.0,6.0,43,0.00,,---,0.00,VWS V14.00,2013-05-24 20:29:00,
2013-05-24 16:30:00,84.9,61.8,29.98,WNW,293,0.0,5.0,46,0.00,,---,0.00,VWS V14.00,2013-05-24 20:30:00,
2013-05-24 16:31:00,85.1,60.1,29.98,WNW,302,0.0,5.0,43,0.00,,---,0.00,VWS V14.00,2013-05-24 20:31:00,
2013-05-24 16:32:00,85.1,60.8,29.98,South,177,0.0,2.0,44,0.00,,---,0.00,VWS V14.00,2013-05-24 20:32:00,
2013-05-24 16:33:00,85.1,61.4,29.98,ENE,63,0.0,3.0,45,0.00,,---,0.00,VWS V14.00,2013-05-24 20:33:00,
2013-05-24 16:34:00,85.0,60.7,29.98,NE,46,0.0,3.0,44,0.00,,---,0.00,VWS V14.00,2013-05-24 20:34:00,
2013-05-24 16:35:00,85.0,60.7,29.98,West,281,1.0,4.0,44,0.00,,---,0.00,VWS V14.00,2013-05-24 20:35:00,
2013-05-24 16:36:00,84.9,61.8,29.98,ENE,66,3.0,5.0,46,0.00,,---,0.00,VWS V14.00,2013-05-24 20:36:00,
2013-05-24 16:37:00,84.9,61.2,29.98,NNW,327,1.0,3.0,45,0.00,,---,0.00,VWS V14.00,2013-05-24 20:37:00,
2013-05-24 16:38:00,84.9,61.2,29.98,NNW,329,0.0,4.0,45,0.00,,---,0.00,VWS V14.00,2013-05-24 20:38:00,
2013-05-24 16:39:00,84.9,60.6,29.98,WNW,288,1.0,13.0,44,0.00,,---,0.00,VWS V14.00,2013-05-24 20:39:00,
2013-05-24 16:40:00,85.0,60.7,29.98,ENE,67,0.0,4.0,44,0.00,,---,0.00,VWS V14.00,2013-05-24 20:40:00,
2013-05-24 16:41:00,85.0,60.7,29.98,WNW,298,2.0,4.0,44,0.00,,---,0.00,VWS V14.00,2013-05-24 20:41:00,
2013-05-24 16:42:00,85.0,60.7,29.98,WNW,295,7.0,8.0,44,0.00,,---,0.00,VWS V14.00,2013-05-24 20:42:00,
2013-05-24 16:43:00,85.0,60.0,29.98,West,265,2.0,7.0,43,0.00,,---,0.00,VWS V14.00,2013-05-24 20:43:00,
2013-05-24 16:44:00,85.0,60.7,29.98,ENE,65,0.0,7.0,44,0.00,,---,0.00,VWS V14.00,2013-05-24 20:44:00,
2013-05-24 16:45:00,85.3,60.9,29.98,SW,232,1.0,4.0,44,0.00,,---,0.00,VWS V14.00,2013-05-24 20:45:00,
2013-05-24 16:46:00,85.0,60.7,29.98,West,267,3.0,4.0,44,0.00,,---,0.00,VWS V14.00,2013-05-24 20:46:00,
2013-05-24 16:47:00,85.1,60.1,29.98,West,267,1.0,4.0,43,0.00,,---,0.00,VWS V14.00,2013-05-24 20:47:00,
2013-05-24 16:48:00,85.1,62.0,29.98,West,267,0.0,1.0,46,0.00,,---,0.00,VWS V14.00,2013-05-24 20:48:00,
2013-05-24 16:49:00,85.1,61.4,29.98,West,279,8.0,8.0,45,0.00,,---,0.00,VWS V14.00,2013-05-24 20:49:00,
2013-05-24 16:50:00,85.5,61.1,29.98,WNW,300,0.0,1.0,44,0.00,,---,0.00,VWS V14.00,2013-05-24 20:50:00,
2013-05-24 16:51:00,85.3,60.9,29.98,SW,232,0.0,4.0,44,0.00,,---,0.00,VWS V14.00,2013-05-24 20:51:00,
2013-05-24 16:52:00,85.4,61.0,29.98,WSW,246,4.0,10.0,44,0.00,,---,0.00,VWS V14.00,2013-05-24 20:52:00,
2013-05-24 16:53:00,85.4,60.4,29.98,WNW,289,2.0,4.0,43,0.00,,---,0.00,VWS V14.00,2013-05-24 20:53:00,
2013-05-24 16:54:00,85.5,61.8,29.98,WNW,296,0.0,2.0,45,0.00,,---,0.00,VWS V14.00,2013-05-24 20:54:00,
2013-05-24 16:55:00,85.3,60.3,29.98,North,355,0.0,1.0,43,0.00,,---,0.00,VWS V14.00,2013-05-24 20:55:00,
2013-05-24 16:56:00,85.5,61.1,29.98,WNW,300,0.0,1.0,44,0.00,,---,0.00,VWS V14.00,2013-05-24 20:56:00,
2013-05-24 16:57:00,85.5,61.1,29.98,NNE,33,1.0,4.0,44,0.00,,---,0.00,VWS V14.00,2013-05-24 20:57:00,
2013-05-24 16:58:00,85.5,60.5,29.98,NNE,29,2.0,6.0,43,0.00,,---,0.00,VWS V14.00,2013-05-24 20:58:00,
2013-05-24 16:59:00,85.4,60.4,29.98,WNW,298,1.0,4.0,43,0.00,,---,0.00,VWS V14.00,2013-05-24 20:59:00,
2013-05-24 17:00:00,85.2,61.5,29.98,West,269,0.0,2.0,45,0.00,,---,0.00,VWS V14.00,2013-05-24 21:00:00,
2013-05-24 17:01:00,85.3,61.6,29.98,North,355,0.0,1.0,45,0.00,,---,0.00,VWS V14.00,2013-05-24 21:01:00,
2013-05-24 17:02:00,85.3,62.2,29.98,NE,47,0.0,5.0,46,0.00,,---,0.00,VWS V14.00,2013-05-24 21:02:00,
2013-05-24 17:03:00,85.2,60.8,29.98,ENE,57,0.0,0.0,44,0.00,,---,0.00,VWS V14.00,2013-05-24 21:03:00,
2013-05-24 17:04:00,85.2,60.8,29.98,ENE,57,0.0,1.0,44,0.00,,---,0.00,VWS V14.00,2013-05-24 21:04:00,
2013-05-24 17:05:00,85.3,60.9,29.98,NNE,32,1.0,4.0,44,0.00,,---,0.00,VWS V14.00,2013-05-24 21:05:00,
2013-05-24 17:06:00,85.2,61.5,29.98,West,269,0.0,2.0,45,0.00,,---,0.00,VWS V14.00,2013-05-24 21:06:00,
2013-05-24 17:07:00,85.2,61.5,29.98,WNW,298,4.0,5.0,45,0.00,,---,0.00,VWS V14.00,2013-05-24 21:07:00,
2013-05-24 17:08:00,85.2,60.8,29.98,NW,321,1.0,6.0,44,0.00,,---,0.00,VWS V14.00,2013-05-24 21:08:00,
2013-05-24 17:09:00,85.2,61.5,29.98,NW,321,0.0,2.0,45,0.00,,---,0.00,VWS V14.00,2013-05-24 21:09:00,
2013-05-24 17:10:00,85.2,60.8,29.98,NNW,336,1.0,4.0,44,0.00,,---,0.00,VWS V14.00,2013-05-24 21:10:00,
2013-05-24 17:11:00,85.3,60.9,29.98,NNE,32,1.0,4.0,44,0.00,,---,0.00,VWS V14.00,2013-05-24 21:11:00,
2013-05-24 17:12:00,85.3,60.9,29.98,NE,35,0.0,2.0,44,0.00,,---,0.00,VWS V14.00,2013-05-24 21:12:00,
2013-05-24 17:13:00,85.3,62.2,29.98,NE,35,0.0,1.0,46,0.00,,---,0.00,VWS V14.00,2013-05-24 21:13:00,
2013-05-24 17:14:00,85.3,60.3,29.98,NE,48,3.0,5.0,43,0.00,,---,0.00,VWS V14.00,2013-05-24 21:14:00,
2013-05-24 17:15:00,85.0,59.4,29.98,WNW,293,0.0,6.0,42,0.00,,---,0.00,VWS V14.00,2013-05-24 21:15:00,
2013-05-24 17:16:00,85.2,60.8,29.98,NE,47,3.0,4.0,44,0.00,,---,0.00,VWS V14.00,2013-05-24 21:16:00,
2013-05-24 17:17:00,85.2,60.2,29.98,NNE,32,4.0,5.0,43,0.00,,---,0.00,VWS V14.00,2013-05-24 21:17:00,
2013-05-24 17:18:00,85.1,60.1,29.98,NE,35,3.0,8.0,43,0.00,,---,0.00,VWS V14.00,2013-05-24 21:18:00,
2013-05-24 17:19:00,85.1,60.1,29.98,NE,35,0.0,3.0,43,0.00,,---,0.00,VWS V14.00,2013-05-24 21:19:00,
2013-05-24 17:20:00,84.9,60.6,29.99,WNW,296,4.0,7.0,44,0.00,,---,0.00,VWS V14.00,2013-05-24 21:20:00,
2013-05-24 17:21:00,85.0,59.4,29.98,WNW,293,0.0,6.0,42,0.00,,---,0.00,VWS V14.00,2013-05-24 21:21:00,
2013-05-24 17:22:00,84.9,59.3,29.98,NNW,334,1.0,5.0,42,0.00,,---,0.00,VWS V14.00,2013-05-24 21:22:00,
2013-05-24 17:23:00,85.0,60.7,29.98,NE,35,1.0,2.0,44,0.00,,---,0.00,VWS V14.00,2013-05-24 21:23:00,
2013-05-24 17:24:00,84.9,59.9,29.98,NW,315,2.0,4.0,43,0.00,,---,0.00,VWS V14.00,2013-05-24 21:24:00,
2013-05-24 17:25:00,85.0,60.7,29.98,NE,45,5.0,6.0,44,0.00,,---,0.00,VWS V14.00,2013-05-24 21:25:00,
2013-05-24 17:26:00,84.9,60.6,29.99,WNW,297,2.0,7.0,44,0.00,,---,0.00,VWS V14.00,2013-05-24 21:26:00,
2013-05-24 17:27:00,85.0,60.7,29.99,NE,34,2.0,5.0,44,0.00,,---,0.00,VWS V14.00,2013-05-24 21:27:00,
2013-05-24 17:28:00,85.0,61.3,29.98,WNW,294,1.0,4.0,45,0.00,,---,0.00,VWS V14.00,2013-05-24 21:28:00,
2013-05-24 17:29:00,85.0,60.7,29.98,NNE,32,2.0,4.0,44,0.00,,---,0.00,VWS V14.00,2013-05-24 21:29:00,
2013-05-24 17:30:00,85.0,59.4,29.99,NW,306,1.0,14.0,42,0.00,,---,0.00,VWS V14.00,2013-05-24 21:30:00,
2013-05-24 17:31:00,85.0,60.7,29.98,NE,44,2.0,6.0,44,0.00,,---,0.00,VWS V14.00,2013-05-24 21:31:00,
2013-05-24 17:32:00,85.0,60.0,29.98,ENE,63,1.0,4.0,43,0.00,,---,0.00,VWS V14.00,2013-05-24 21:32:00,
2013-05-24 17:33:00,85.0,60.7,29.99,NE,55,2.0,4.0,44,0.00,,---,0.00,VWS V14.00,2013-05-24 21:33:00,
2013-05-24 17:34:00,85.0,60.0,29.99,NNE,33,1.0,4.0,43,0.00,,---,0.00,VWS V14.00,2013-05-24 21:34:00,
2013-05-24 17:35:00,85.0,59.4,29.99,NW,315,0.0,5.0,42,0.00,,---,0.00,VWS V14.00,2013-05-24 21:35:00,
2013-05-24 17:36:00,85.0,59.4,29.99,NW,306,2.0,14.0,42,0.00,,---,0.00,VWS V14.00,2013-05-24 21:36:00,
2013-05-24 17:37:00,85.0,59.4,29.99,NW,304,4.0,6.0,42,0.00,,---,0.00,VWS V14.00,2013-05-24 21:37:00,
2013-05-24 17:38:00,85.0,58.7,29.99,NNW,344,1.0,11.0,41,0.00,,---,0.00,VWS V14.00,2013-05-24 21:38:00,
2013-05-24 17:39:00,85.0,59.4,29.99,West,275,6.0,6.0,42,0.00,,---,0.00,VWS V14.00,2013-05-24 21:39:00,
2013-05-24 17:40:00,85.0,59.4,29.99,ENE,78,0.0,4.0,42,0.00,,---,0.00,VWS V14.00,2013-05-24 21:40:00,
2013-05-24 17:41:00,85.0,59.4,29.99,NW,315,0.0,5.0,42,0.00,,---,0.00,VWS V14.00,2013-05-24 21:41:00,
2013-05-24 17:42:00,85.0,58.7,29.99,NNW,327,0.0,8.0,41,0.00,,---,0.00,VWS V14.00,2013-05-24 21:42:00,
2013-05-24 17:43:00,85.0,58.7,29.99,NW,305,0.0,7.0,41,0.00,,---,0.00,VWS V14.00,2013-05-24 21:43:00,
2013-05-24 17:44:00,85.0,59.4,29.98,NW,311,0.0,6.0,42,0.00,,---,0.00,VWS V14.00,2013-05-24 21:44:00,
2013-05-24 17:45:00,85.0,59.4,29.99,NE,55,1.0,5.0,42,0.00,,---,0.00,VWS V14.00,2013-05-24 21:45:00,
2013-05-24 17:46:00,85.0,59.4,29.99,ENE,78,0.0,4.0,42,0.00,,---,0.00,VWS V14.00,2013-05-24 21:46:00,
2013-05-24 17:47:00,85.0,60.0,29.99,NNW,343,1.0,2.0,43,0.00,,---,0.00,VWS V14.00,2013-05-24 21:47:00,
2013-05-24 17:48:00,85.0,60.0,29.99,NNW,346,0.0,4.0,43,0.00,,---,0.00,VWS V14.00,2013-05-24 21:48:00,
2013-05-24 17:49:00,85.0,60.0,29.99,North,5,0.0,2.0,43,0.00,,---,0.00,VWS V14.00,2013-05-24 21:49:00,
2013-05-24 17:50:00,84.7,60.4,29.99,NE,53,5.0,5.0,44,0.00,,---,0.00,VWS V14.00,2013-05-24 21:50:00,
2013-05-24 17:51:00,85.0,59.4,29.99,NE,53,4.0,5.0,42,0.00,,---,0.00,VWS V14.00,2013-05-24 21:51:00,
2013-05-24 17:52:00,84.9,59.3,29.99,ENE,67,1.0,9.0,42,0.00,,---,0.00,VWS V14.00,2013-05-24 21:52:00,
2013-05-24 17:53:00,84.8,59.8,29.99,NE,34,0.0,4.0,43,0.00,,---,0.00,VWS V14.00,2013-05-24 21:53:00,
2013-05-24 17:54:00,84.8,59.2,29.99,West,267,3.0,9.0,42,0.00,,---,0.00,VWS V14.00,2013-05-24 21:54:00,
2013-05-24 17:55:00,84.3,58.7,29.99,NW,312,4.0,6.0,42,0.00,,---,0.00,VWS V14.00,2013-05-24 21:55:00,
2013-05-24 17:56:00,84.6,60.3,29.99,NNE,28,6.0,6.0,44,0.00,,---,0.00,VWS V14.00,2013-05-24 21:56:00,
2013-05-24 17:57:00,84.6,59.7,29.99,NW,315,1.0,8.0,43,0.00,,---,0.00,VWS V14.00,2013-05-24 21:57:00,
2013-05-24 17:58:00,84.5,58.9,29.99,North,360,4.0,11.0,42,0.00,,---,0.00,VWS V14.00,2013-05-24 21:58:00,
2013-05-24 17:59:00,84.4,58.2,29.99,WNW,286,11.0,11.0,41,0.00,,---,0.00,VWS V14.00,2013-05-24 21:59:00,
2013-05-24 18:00:00,84.2,59.3,29.99,North,5,2.0,5.0,43,0.00,,---,0.00,VWS V14.00,2013-05-24 22:00:00,
2013-05-24 18:01:00,84.3,58.7,29.99,WSW,254,4.0,6.0,42,0.00,,---,0.00,VWS V14.00,2013-05-24 22:01:00,
2013-05-24 18:02:00,84.3,59.4,29.99,West,263,2.0,6.0,43,0.00,,---,0.00,VWS V14.00,2013-05-24 22:02:00,
2013-05-24 18:03:00,84.3,59.4,29.99,ENE,70,5.0,7.0,43,0.00,,---,0.00,VWS V14.00,2013-05-24 22:03:00,
2013-05-24 18:04:00,84.2,59.3,29.99,NW,322,2.0,5.0,43,0.00,,---,0.00,VWS V14.00,2013-05-24 22:04:00,
2013-05-24 18:05:00,84.0,59.1,29.99,NW,316,2.0,4.0,43,0.00,,---,0.00,VWS V14.00,2013-05-24 22:05:00,
2013-05-24 18:06:00,84.2,59.3,29.99,NNE,19,1.0,5.0,43,0.00,,---,0.00,VWS V14.00,2013-05-24 22:06:00,
2013-05-24 18:07:00,84.2,58.6,29.99,ENE,73,1.0,6.0,42,0.00,,---,0.00,VWS V14.00,2013-05-24 22:07:00,
2013-05-24 18:08:00,84.1,58.5,29.99,NE,52,0.0,2.0,42,0.00,,---,0.00,VWS V14.00,2013-05-24 22:08:00,
2013-05-24 18:09:00,84.1,59.2,29.99,NE,45,1.0,3.0,43,0.00,,---,0.00,VWS V14.00,2013-05-24 22:09:00,
2013-05-24 18:10:00,83.8,57.6,29.99,ENE,78,1.0,3.0,41,0.00,,---,0.00,VWS V14.00,2013-05-24 22:10:00,
2013-05-24 18:11:00,83.9,58.4,29.99,NNW,347,0.0,4.0,42,0.00,,---,0.00,VWS V14.00,2013-05-24 22:11:00,
2013-05-24 18:12:00,83.9,58.4,29.99,West,270,0.0,3.0,42,0.00,,---,0.00,VWS V14.00,2013-05-24 22:12:00,
2013-05-24 18:13:00,83.9,58.4,29.99,ENE,73,0.0,2.0,42,0.00,,---,0.00,VWS V14.00,2013-05-24 22:13:00,
2013-05-24 18:14:00,83.8,59.6,29.99,ENE,67,0.0,6.0,44,0.00,,---,0.00,VWS V14.00,2013-05-24 22:14:00,
2013-05-24 18:15:00,83.6,58.1,29.99,West,275,6.0,6.0,42,0.00,,---,0.00,VWS V14.00,2013-05-24 22:15:00,
2013-05-24 18:16:00,83.7,57.5,29.99,ENE,61,2.0,3.0,41,0.00,,---,0.00,VWS V14.00,2013-05-24 22:16:00,
2013-05-24 18:17:00,83.7,58.2,29.99,ENE,61,0.0,2.0,42,0.00,,---,0.00,VWS V14.00,2013-05-24 22:17:00,
2013-05-24 18:18:00,83.7,58.2,29.99,ENE,61,0.0,0.0,42,0.00,,---,0.00,VWS V14.00,2013-05-24 22:18:00,
2013-05-24 18:19:00,83.6,58.8,29.99,NW,315,5.0,7.0,43,0.00,,---,0.00,VWS V14.00,2013-05-24 22:19:00,
2013-05-24 18:20:00,83.5,56.7,30.00,NNW,338,0.0,1.0,40,0.00,,---,0.00,VWS V14.00,2013-05-24 22:20:00,
2013-05-24 18:21:00,83.6,58.1,29.99,WSW,246,4.0,6.0,42,0.00,,---,0.00,VWS V14.00,2013-05-24 22:21:00,
2013-05-24 18:22:00,83.6,57.4,29.99,WNW,300,1.0,11.0,41,0.00,,---,0.00,VWS V14.00,2013-05-24 22:22:00,
2013-05-24 18:23:00,83.6,56.8,29.99,WNW,294,12.0,12.0,40,0.00,,---,0.00,VWS V14.00,2013-05-24 22:23:00,
2013-05-24 18:24:00,83.5,57.3,29.99,NNW,348,0.0,12.0,41,0.00,,---,0.00,VWS V14.00,2013-05-24 22:24:00,
2013-05-24 18:25:00,83.4,57.3,30.00,NNW,329,0.0,1.0,41,0.00,,---,0.00,VWS V14.00,2013-05-24 22:25:00,
2013-05-24 18:26:00,83.5,56.7,30.00,NE,34,2.0,2.0,40,0.00,,---,0.00,VWS V14.00,2013-05-24 22:26:00,
2013-05-24 18:27:00,83.5,57.3,30.00,NNW,340,1.0,5.0,41,0.00,,---,0.00,VWS V14.00,2013-05-24 22:27:00,
2013-05-24 18:28:00,83.4,56.6,30.00,North,5,0.0,1.0,40,0.00,,---,0.00,VWS V14.00,2013-05-24 22:28:00,
2013-05-24 18:29:00,83.4,56.6,29.99,NW,324,1.0,7.0,40,0.00,,---,0.00,VWS V14.00,2013-05-24 22:29:00,
2013-05-24 18:30:00,83.4,55.9,30.00,NW,313,8.0,8.0,39,0.00,,---,0.00,VWS V14.00,2013-05-24 22:30:00,
2013-05-24 18:31:00,83.5,57.3,30.00,WNW,284,2.0,2.0,41,0.00,,---,0.00,VWS V14.00,2013-05-24 22:31:00,
2013-05-24 18:32:00,83.4,56.6,30.00,ENE,57,3.0,7.0,40,0.00,,---,0.00,VWS V14.00,2013-05-24 22:32:00,
2013-05-24 18:33:00,83.4,56.6,30.00,WNW,284,1.0,6.0,40,0.00,,---,0.00,VWS V14.00,2013-05-24 22:33:00,
2013-05-24 18:34:00,83.4,55.9,30.00,WNW,292,1.0,2.0,39,0.00,,---,0.00,VWS V14.00,2013-05-24 22:34:00,
2013-05-24 18:35:00,83.3,55.8,30.00,NNW,328,1.0,6.0,39,0.00,,---,0.00,VWS V14.00,2013-05-24 22:35:00,
2013-05-24 18:36:00,83.4,55.9,30.00,NW,306,4.0,8.0,39,0.00,,---,0.00,VWS V14.00,2013-05-24 22:36:00,
2013-05-24 18:37:00,83.4,55.2,30.00,ENE,72,0.0,5.0,38,0.00,,---,0.00,VWS V14.00,2013-05-24 22:37:00,
2013-05-24 18:38:00,83.4,55.9,30.00,ENE,73,0.0,2.0,39,0.00,,---,0.00,VWS V14.00,2013-05-24 22:38:00,
2013-05-24 18:39:00,83.4,55.9,30.00,ENE,64,0.0,2.0,39,0.00,,---,0.00,VWS V14.00,2013-05-24 22:39:00,
2013-05-24 18:40:00,83.2,55.7,30.00,NNW,329,0.0,2.0,39,0.00,,---,0.00,VWS V14.00,2013-05-24 22:40:00,
2013-05-24 18:41:00,83.3,55.8,30.00,NNW,328,0.0,6.0,39,0.00,,---,0.00,VWS V14.00,2013-05-24 22:41:00,
2013-05-24 18:42:00,83.3,55.8,30.00,NW,314,1.0,4.0,39,0.00,,---,0.00,VWS V14.00,2013-05-24 22:42:00,
2013-05-24 18:43:00,83.3,55.8,30.00,NW,324,1.0,2.0,39,0.00,,---,0.00,VWS V14.00,2013-05-24 22:43:00,
2013-05-24 18:44:00,83.2,55.7,30.00,NNW,335,0.0,6.0,39,0.00,,---,0.00,VWS V14.00,2013-05-24 22:44:00,
2013-05-24 18:45:00,83.2,55.7,30.00,NE,50,6.0,6.0,39,0.00,,---,0.00,VWS V14.00,2013-05-24 22:45:00,
2013-05-24 18:46:00,83.2,55.7,30.00,NW,319,0.0,2.0,39,0.00,,---,0.00,VWS V14.00,2013-05-24 22:46:00,
2013-05-24 18:47:00,83.2,55.7,30.00,NE,36,2.0,4.0,39,0.00,,---,0.00,VWS V14.00,2013-05-24 22:47:00,
2013-05-24 18:48:00,83.2,55.7,30.00,NNE,28,0.0,3.0,39,0.00,,---,0.00,VWS V14.00,2013-05-24 22:48:00,
2013-05-24 18:49:00,83.2,55.7,30.00,NW,306,1.0,2.0,39,0.00,,---,0.00,VWS V14.00,2013-05-24 22:49:00,
2013-05-24 18:50:00,83.0,54.1,30.00,WNW,296,1.0,8.0,37,0.00,,---,0.00,VWS V14.00,2013-05-24 22:50:00,
2013-05-24 18:51:00,83.1,55.6,30.00,ENE,73,1.0,7.0,39,0.00,,---,0.00,VWS V14.00,2013-05-24 22:51:00,
2013-05-24 18:52:00,83.1,54.9,30.00,ENE,59,0.0,2.0,38,0.00,,---,0.00,VWS V14.00,2013-05-24 22:52:00,
2013-05-24 18:53:00,83.1,54.9,30.00,WNW,302,5.0,7.0,38,0.00,,---,0.00,VWS V14.00,2013-05-24 22:53:00,
2013-05-24 18:54:00,83.1,54.9,30.00,NE,44,2.0,5.0,38,0.00,,---,0.00,VWS V14.00,2013-05-24 22:54:00,
2013-05-24 18:55:00,82.8,54.6,30.00,ENE,70,0.0,4.0,38,0.00,,---,0.00,VWS V14.00,2013-05-24 22:55:00,
2013-05-24 18:56:00,83.0,54.1,30.00,WNW,296,0.0,8.0,37,0.00,,---,0.00,VWS V14.00,2013-05-24 22:56:00,
2013-05-24 18:57:00,83.0,54.8,30.00,NNE,32,0.0,3.0,38,0.00,,---,0.00,VWS V14.00,2013-05-24 22:57:00,
2013-05-24 18:58:00,82.9,54.7,30.00,NE,34,0.0,4.0,38,0.00,,---,0.00,VWS V14.00,2013-05-24 22:58:00,
2013-05-24 18:59:00,82.8,54.6,30.00,NW,311,1.0,6.0,38,0.00,,---,0.00,VWS V14.00,2013-05-24 22:59:00,
2013-05-24 19:00:00,82.5,55.1,30.00,WNW,294,0.0,1.0,39,0.00,,---,0.00,VWS V14.00,2013-05-24 23:00:00,
2013-05-24 19:01:00,82.8,54.6,30.00,ENE,70,1.0,4.0,38,0.00,,---,0.00,VWS V14.00,2013-05-24 23:01:00,
2013-05-24 19:02:00,82.7,54.5,30.00,NE,55,1.0,1.0,38,0.00,,---,0.00,VWS V14.00,2013-05-24 23:02:00,
2013-05-24 19:03:00,82.7,54.5,30.00,NNE,25,1.0,2.0,38,0.00,,---,0.00,VWS V14.00,2013-05-24 23:03:00,
2013-05-24 19:04:00,82.6,54.5,30.00,NW,325,0.0,2.0,38,0.00,,---,0.00,VWS V14.00,2013-05-24 23:04:00,
2013-05-24 19:05:00,82.2,54.8,30.01,NW,317,0.0,2.0,39,0.00,,---,0.00,VWS V14.00,2013-05-24 23:05:00,
2013-05-24 19:06:00,82.5,55.1,30.00,WNW,294,0.0,1.0,39,0.00,,---,0.00,VWS V14.00,2013-05-24 23:06:00,
2013-05-24 19:07:00,82.5,54.4,30.00,NE,55,2.0,8.0,38,0.00,,---,0.00,VWS V14.00,2013-05-24 23:07:00,
2013-05-24 19:08:00,82.4,54.3,30.00,NE,42,0.0,3.0,38,0.00,,---,0.00,VWS V14.00,2013-05-24 23:08:00,
2013-05-24 19:09:00,82.3,54.2,30.00,NE,49,0.0,2.0,38,0.00,,---,0.00,VWS V14.00,2013-05-24 23:09:00,
2013-05-24 19:10:00,81.7,50.6,30.01,ENE,61,2.0,3.0,34,0.00,,---,0.00,VWS V14.00,2013-05-24 23:10:00,
2013-05-24 19:11:00,82.2,54.1,30.01,NW,317,0.0,2.0,38,0.00,,---,0.00,VWS V14.00,2013-05-24 23:11:00,
2013-05-24 19:12:00,82.2,54.8,30.00,NE,37,2.0,2.0,39,0.00,,---,0.00,VWS V14.00,2013-05-24 23:12:00,
2013-05-24 19:13:00,82.1,54.0,30.01,NW,311,2.0,4.0,38,0.00,,---,0.00,VWS V14.00,2013-05-24 23:13:00,
2013-05-24 19:14:00,82.0,53.9,30.01,NE,38,4.0,6.0,38,0.00,,---,0.00,VWS V14.00,2013-05-24 23:14:00,
2013-05-24 19:15:00,81.1,48.5,30.02,NE,55,0.0,4.0,32,0.00,,---,0.00,VWS V14.00,2013-05-24 23:15:00,
2013-05-24 19:16:00,81.7,49.8,30.01,NE,34,4.0,5.0,33,0.00,,---,0.00,VWS V14.00,2013-05-24 23:16:00,
2013-05-24 19:17:00,81.5,48.8,30.01,NE,51,2.0,5.0,32,0.00,,---,0.00,VWS V14.00,2013-05-24 23:17:00,
2013-05-24 19:18:00,81.4,49.6,30.01,NNW,348,0.0,5.0,33,0.00,,---,0.00,VWS V14.00,2013-05-24 23:18:00,
2013-05-24 19:19:00,81.3,49.5,30.02,SSE,153,1.0,2.0,33,0.00,,---,0.00,VWS V14.00,2013-05-24 23:19:00,
2013-05-24 19:20:00,80.5,48.0,30.02,NE,51,1.0,5.0,32,0.00,,---,0.00,VWS V14.00,2013-05-24 23:20:00,
2013-05-24 19:21:00,81.0,48.4,30.02,NE,55,0.0,4.0,32,0.00,,---,0.00,VWS V14.00,2013-05-24 23:21:00,
2013-05-24 19:22:00,80.9,48.3,30.02,ENE,71,1.0,3.0,32,0.00,,---,0.00,VWS V14.00,2013-05-24 23:22:00,
2013-05-24 19:23:00,80.8,47.4,30.02,NE,38,0.0,6.0,31,0.00,,---,0.00,VWS V14.00,2013-05-24 23:23:00,
2013-05-24 19:24:00,80.7,48.1,30.02,NE,38,1.0,1.0,32,0.00,,---,0.00,VWS V14.00,2013-05-24 23:24:00,
2013-05-24 19:25:00,80.0,47.5,30.02,NE,51,0.0,1.0,32,0.00,,---,0.00,VWS V14.00,2013-05-24 23:25:00,
2013-05-24 19:26:00,80.5,48.0,30.02,NNE,30,1.0,5.0,32,0.00,,---,0.00,VWS V14.00,2013-05-24 23:26:00,
2013-05-24 19:27:00,80.4,47.9,30.02,NNE,30,1.0,1.0,32,0.00,,---,0.00,VWS V14.00,2013-05-24 23:27:00,
2013-05-24 19:28:00,80.3,47.8,30.02,ENE,74,1.0,2.0,32,0.00,,---,0.00,VWS V14.00,2013-05-24 23:28:00,
2013-05-24 19:29:00,80.2,46.9,30.02,East,82,1.0,6.0,31,0.00,,---,0.00,VWS V14.00,2013-05-24 23:29:00,
2013-05-24 19:30:00,79.5,47.1,30.02,NE,54,3.0,3.0,32,0.00,,---,0.00,VWS V14.00,2013-05-24 23:30:00,
2013-05-24 19:31:00,79.9,47.4,30.02,ENE,57,2.0,2.0,32,0.00,,---,0.00,VWS V14.00,2013-05-24 23:31:00,
2013-05-24 19:32:00,79.8,47.3,30.02,ENE,64,0.0,4.0,32,0.00,,---,0.00,VWS V14.00,2013-05-24 23:32:00,
2013-05-24 19:33:00,79.8,47.3,30.02,NW,309,0.0,8.0,32,0.00,,---,0.00,VWS V14.00,2013-05-24 23:33:00,
2013-05-24 19:34:00,79.7,48.1,30.02,North,350,1.0,1.0,33,0.00,,---,0.00,VWS V14.00,2013-05-24 23:34:00,
2013-05-24 19:35:00,79.0,47.5,30.03,NNW,331,0.0,4.0,33,0.00,,---,0.00,VWS V14.00,2013-05-24 23:35:00,
2013-05-24 19:36:00,79.5,47.1,30.02,NE,54,0.0,3.0,32,0.00,,---,0.00,VWS V14.00,2013-05-24 23:36:00,
2013-05-24 19:37:00,79.4,47.8,30.03,NE,42,5.0,5.0,33,0.00,,---,0.00,VWS V14.00,2013-05-24 23:37:00,
2013-05-24 19:38:00,79.3,47.7,30.03,NE,35,4.0,6.0,33,0.00,,---,0.00,VWS V14.00,2013-05-24 23:38:00,
2013-05-24 19:39:00,79.2,46.8,30.03,NE,40,0.0,4.0,32,0.00,,---,0.00,VWS V14.00,2013-05-24 23:39:00,
2013-05-24 19:40:00,78.6,46.3,30.04,NE,40,4.0,5.0,32,0.00,,---,0.00,VWS V14.00,2013-05-24 23:40:00,
2013-05-24 19:41:00,79.0,47.5,30.03,NNW,331,1.0,4.0,33,0.00,,---,0.00,VWS V14.00,2013-05-24 23:41:00,
2013-05-24 19:42:00,78.9,47.4,30.03,NE,55,0.0,4.0,33,0.00,,---,0.00,VWS V14.00,2013-05-24 23:42:00,
2013-05-24 19:43:00,78.8,46.5,30.03,NE,55,0.0,1.0,32,0.00,,---,0.00,VWS V14.00,2013-05-24 23:43:00,
2013-05-24 19:44:00,78.7,46.4,30.03,NE,53,1.0,5.0,32,0.00,,---,0.00,VWS V14.00,2013-05-24 23:44:00,
2013-05-24 19:45:00,78.2,45.1,30.04,NNW,344,2.0,9.0,31,0.00,,---,0.00,VWS V14.00,2013-05-24 23:45:00,
2013-05-24 19:46:00,78.6,45.5,30.04,NNE,20,3.0,5.0,31,0.00,,---,0.00,VWS V14.00,2013-05-24 23:46:00,
2013-05-24 19:47:00,78.5,45.4,30.04,NE,42,1.0,4.0,31,0.00,,---,0.00,VWS V14.00,2013-05-24 23:47:00,
2013-05-24 19:48:00,78.4,45.3,30.04,NE,38,3.0,3.0,31,0.00,,---,0.00,VWS V14.00,2013-05-24 23:48:00,
2013-05-24 19:49:00,78.3,45.2,30.04,NE,55,1.0,5.0,31,0.00,,---,0.00,VWS V14.00,2013-05-24 23:49:00,
2013-05-24 19:50:00,77.8,43.9,30.04,NW,312,0.0,6.0,30,0.00,,---,0.00,VWS V14.00,2013-05-24 23:50:00,
2013-05-24 19:51:00,78.1,45.0,30.04,West,270,1.0,9.0,31,0.00,,---,0.00,VWS V14.00,2013-05-24 23:51:00,
2013-05-24 19:52:00,78.1,45.0,30.04,West,277,0.0,1.0,31,0.00,,---,0.00,VWS V14.00,2013-05-24 23:52:00,
2013-05-24 19:53:00,78.0,45.8,30.04,NW,311,0.0,2.0,32,0.00,,---,0.00,VWS V14.00,2013-05-24 23:53:00,
2013-05-24 19:54:00,78.0,45.8,30.04,NE,56,2.0,4.0,32,0.00,,---,0.00,VWS V14.00,2013-05-24 23:54:00,
2013-05-24 19:55:00,77.4,44.4,30.05,NE,45,1.0,2.0,31,0.00,,---,0.00,VWS V14.00,2013-05-24 23:55:00,
2013-05-24 19:56:00,77.8,43.9,30.04,NW,313,0.0,6.0,30,0.00,,---,0.00,VWS V14.00,2013-05-24 23:56:00,
2013-05-24 19:57:00,77.7,44.7,30.05,NNE,28,0.0,4.0,31,0.00,,---,0.00,VWS V14.00,2013-05-24 23:57:00,
2013-05-24 19:58:00,77.6,43.7,30.05,ESE,112,2.0,2.0,30,0.00,,---,0.00,VWS V14.00,2013-05-24 23:58:00,
2013-05-24 19:59:00,77.5,43.7,30.05,NE,45,0.0,3.0,30,0.00,,---,0.00,VWS V14.00,2013-05-24 23:59:00,
2013-05-24 20:00:00,77.1,43.3,30.05,SSE,155,0.0,4.0,30,0.00,,---,0.00,VWS V14.00,2013-05-25 00:00:00,
2013-05-24 20:01:00,77.4,44.4,30.05,NE,45,2.0,2.0,31,0.00,,---,0.00,VWS V14.00,2013-05-25 00:01:00,
2013-05-24 20:02:00,77.4,44.4,30.05,NE,51,0.0,4.0,31,0.00,,---,0.00,VWS V14.00,2013-05-25 00:02:00,
2013-05-24 20:03:00,77.3,43.5,30.05,NW,319,1.0,2.0,30,0.00,,---,0.00,VWS V14.00,2013-05-25 00:03:00,
2013-05-24 20:04:00,77.2,44.2,30.05,NNE,22,4.0,6.0,31,0.00,,---,0.00,VWS V14.00,2013-05-25 00:04:00,
2013-05-24 20:05:00,76.7,43.0,30.05,NE,36,0.0,1.0,30,0.00,,---,0.00,VWS V14.00,2013-05-25 00:05:00,
2013-05-24 20:06:00,77.0,43.2,30.05,SSE,155,0.0,4.0,30,0.00,,---,0.00,VWS V14.00,2013-05-25 00:06:00,
2013-05-24 20:07:00,77.0,43.2,30.05,ENE,59,1.0,3.0,30,0.00,,---,0.00,VWS V14.00,2013-05-25 00:07:00,
2013-05-24 20:08:00,76.9,43.1,30.05,NNE,32,1.0,11.0,30,0.00,,---,0.00,VWS V14.00,2013-05-25 00:08:00,
2013-05-24 20:09:00,76.8,43.0,30.05,NNE,32,0.0,1.0,30,0.00,,---,0.00,VWS V14.00,2013-05-25 00:09:00,
2013-05-24 20:10:00,76.4,43.6,30.06,NNE,14,0.0,0.0,31,0.00,,---,0.00,VWS V14.00,2013-05-25 00:10:00,
2013-05-24 20:11:00,76.7,43.0,30.05,NE,36,0.0,1.0,30,0.00,,---,0.00,VWS V14.00,2013-05-25 00:11:00,
2013-05-24 20:12:00,76.7,43.8,30.06,NE,36,0.0,0.0,31,0.00,,---,0.00,VWS V14.00,2013-05-25 00:12:00,
2013-05-24 20:13:00,76.6,42.9,30.06,NNW,340,0.0,2.0,30,0.00,,---,0.00,VWS V14.00,2013-05-25 00:13:00,
2013-05-24 20:14:00,76.6,42.9,30.06,NNW,340,1.0,1.0,30,0.00,,---,0.00,VWS V14.00,2013-05-25 00:14:00,
2013-05-24 20:15:00,76.2,43.4,30.06,NNW,344,0.0,0.0,31,0.00,,---,0.00,VWS V14.00,2013-05-25 00:15:00,
2013-05-24 20:16:00,76.4,43.6,30.06,NNE,14,0.0,0.0,31,0.00,,---,0.00,VWS V14.00,2013-05-25 00:16:00,
2013-05-24 20:17:00,76.4,43.6,30.06,NNE,33,0.0,2.0,31,0.00,,---,0.00,VWS V14.00,2013-05-25 00:17:00,
2013-05-24 20:18:00,76.3,42.6,30.06,NNE,33,0.0,0.0,30,0.00,,---,0.00,VWS V14.00,2013-05-25 00:18:00,
2013-05-24 20:19:00,76.3,43.5,30.06,NNW,344,0.0,1.0,31,0.00,,---,0.00,VWS V14.00,2013-05-25 00:19:00,
2013-05-24 20:20:00,76.0,44.0,30.06,WNW,290,0.0,0.0,32,0.00,,---,0.00,VWS V14.00,2013-05-25 00:20:00,
2013-05-24 20:21:00,76.2,44.2,30.06,NNW,344,0.0,0.0,32,0.00,,---,0.00,VWS V14.00,2013-05-25 00:21:00,
2013-05-24 20:22:00,76.2,44.2,30.06,WNW,293,0.0,2.0,32,0.00,,---,0.00,VWS V14.00,2013-05-25 00:22:00,
2013-05-24 20:23:00,76.1,43.3,30.06,WNW,293,0.0,0.0,31,0.00,,---,0.00,VWS V14.00,2013-05-25 00:23:00,
2013-05-24 20:24:00,76.0,43.2,30.06,WNW,293,0.0,1.0,31,0.00,,---,0.00,VWS V14.00,2013-05-25 00:24:00,
2013-05-24 20:25:00,75.6,42.9,30.06,NE,55,0.0,1.0,31,0.00,,---,0.00,VWS V14.00,2013-05-25 00:25:00,
2013-05-24 20:26:00,76.0,43.2,30.06,SW,215,0.0,0.0,31,0.00,,---,0.00,VWS V14.00,2013-05-25 00:26:00,
2013-05-24 20:27:00,75.9,43.1,30.06,SSW,205,0.0,1.0,31,0.00,,---,0.00,VWS V14.00,2013-05-25 00:27:00,
2013-05-24 20:28:00,75.8,43.9,30.06,SSW,202,0.0,1.0,32,0.00,,---,0.00,VWS V14.00,2013-05-25 00:28:00,
2013-05-24 20:29:00,75.7,43.8,30.06,NE,39,3.0,3.0,32,0.00,,---,0.00,VWS V14.00,2013-05-25 00:29:00,
2013-05-24 20:30:00,75.3,43.4,30.07,North,360,0.0,1.0,32,0.00,,---,0.00,VWS V14.00,2013-05-25 00:30:00,
2013-05-24 20:31:00,75.6,42.9,30.06,NE,55,0.0,1.0,31,0.00,,---,0.00,VWS V14.00,2013-05-25 00:31:00,
2013-05-24 20:32:00,75.5,42.8,30.06,NE,55,0.0,1.0,31,0.00,,---,0.00,VWS V14.00,2013-05-25 00:32:00,
2013-05-24 20:33:00,75.5,43.6,30.07,NE,55,0.0,0.0,32,0.00,,---,0.00,VWS V14.00,2013-05-25 00:33:00,
2013-05-24 20:34:00,75.4,44.3,30.07,North,355,2.0,2.0,33,0.00,,---,0.00,VWS V14.00,2013-05-25 00:34:00,
2013-05-24 20:35:00,74.9,43.1,30.07,ENE,70,0.0,0.0,32,0.00,,---,0.00,VWS V14.00,2013-05-25 00:35:00,
2013-05-24 20:36:00,75.3,43.4,30.07,North,5,1.0,2.0,32,0.00,,---,0.00,VWS V14.00,2013-05-25 00:36:00,
2013-05-24 20:37:00,75.2,43.3,30.07,North,5,0.0,1.0,32,0.00,,---,0.00,VWS V14.00,2013-05-25 00:37:00,
2013-05-24 20:38:00,75.1,43.3,30.07,North,5,0.0,0.0,32,0.00,,---,0.00,VWS V14.00,2013-05-25 00:38:00,
2013-05-24 20:39:00,75.1,43.3,30.07,ENE,70,0.0,4.0,32,0.00,,---,0.00,VWS V14.00,2013-05-25 00:39:00,
2013-05-24 20:40:00,74.7,43.7,30.07,ENE,70,0.0,0.0,33,0.00,,---,0.00,VWS V14.00,2013-05-25 00:40:00,
2013-05-24 20:41:00,74.9,43.1,30.07,ENE,70,0.0,0.0,32,0.00,,---,0.00,VWS V14.00,2013-05-25 00:41:00,
2013-05-24 20:42:00,74.9,43.1,30.07,ENE,70,0.0,1.0,32,0.00,,---,0.00,VWS V14.00,2013-05-25 00:42:00,
2013-05-24 20:43:00,74.8,43.8,30.07,ENE,70,0.0,0.0,33,0.00,,---,0.00,VWS V14.00,2013-05-25 00:43:00,
2013-05-24 20:44:00,74.8,43.8,30.07,ENE,70,0.0,1.0,33,0.00,,---,0.00,VWS V14.00,2013-05-25 00:44:00,
2013-05-24 20:45:00,74.4,42.7,30.07,ENE,70,0.0,1.0,32,0.00,,---,0.00,VWS V14.00,2013-05-25 00:45:00,
2013-05-24 20:46:00,74.7,43.7,30.07,ENE,70,0.0,1.0,33,0.00,,---,0.00,VWS V14.00,2013-05-25 00:46:00,
2013-05-24 20:47:00,74.6,43.6,30.07,ENE,70,0.0,0.0,33,0.00,,---,0.00,VWS V14.00,2013-05-25 00:47:00,
2013-05-24 20:48:00,74.6,44.4,30.07,ENE,70,0.0,0.0,34,0.00,,---,0.00,VWS V14.00,2013-05-25 00:48:00,
2013-05-24 20:49:00,74.5,43.5,30.07,ENE,70,0.0,0.0,33,0.00,,---,0.00,VWS V14.00,2013-05-25 00:49:00,
2013-05-24 20:50:00,74.1,44.0,30.08,ENE,70,0.0,0.0,34,0.00,,---,0.00,VWS V14.00,2013-05-25 00:50:00,
2013-05-24 20:51:00,74.4,43.5,30.07,ENE,70,0.0,1.0,33,0.00,,---,0.00,VWS V14.00,2013-05-25 00:51:00,
2013-05-24 20:52:00,74.4,44.2,30.07,ENE,70,0.0,0.0,34,0.00,,---,0.00,VWS V14.00,2013-05-25 00:52:00,
2013-05-24 20:53:00,74.3,44.1,30.07,ENE,70,0.0,1.0,34,0.00,,---,0.00,VWS V14.00,2013-05-25 00:53:00,
2013-05-24 20:54:00,74.2,43.3,30.07,ENE,70,0.0,0.0,33,0.00,,---,0.00,VWS V14.00,2013-05-25 00:54:00,
2013-05-24 20:55:00,73.7,43.6,30.08,NW,326,0.0,0.0,34,0.00,,---,0.00,VWS V14.00,2013-05-25 00:55:00,
2013-05-24 20:56:00,74.1,44.0,30.08,ENE,70,0.0,0.0,34,0.00,,---,0.00,VWS V14.00,2013-05-25 00:56:00,
2013-05-24 20:57:00,74.0,43.9,30.07,NNW,330,0.0,4.0,34,0.00,,---,0.00,VWS V14.00,2013-05-25 00:57:00,
2013-05-24 20:58:00,73.9,43.8,30.08,NNW,330,0.0,0.0,34,0.00,,---,0.00,VWS V14.00,2013-05-25 00:58:00,
2013-05-24 20:59:00,73.9,43.8,30.08,NNW,328,0.0,1.0,34,0.00,,---,0.00,VWS V14.00,2013-05-25 00:59:00,
2013-05-24 21:00:00,73.4,44.1,30.08,NW,326,0.0,0.0,35,0.00,,---,0.00,VWS V14.00,2013-05-25 01:00:00,
2013-05-24 21:01:00,73.7,44.4,30.08,NW,326,0.0,0.0,35,0.00,,---,0.00,VWS V14.00,2013-05-25 01:01:00,
2013-05-24 21:02:00,73.7,44.4,30.08,NW,326,0.0,0.0,35,0.00,,---,0.00,VWS V14.00,2013-05-25 01:02:00,
2013-05-24 21:03:00,73.6,44.3,30.08,NW,326,0.0,0.0,35,0.00,,---,0.00,VWS V14.00,2013-05-25 01:03:00,
2013-05-24 21:04:00,73.5,44.2,30.08,NW,326,0.0,0.0,35,0.00,,---,0.00,VWS V14.00,2013-05-25 01:04:00,
2013-05-24 21:05:00,73.1,43.8,30.08,NW,326,0.0,0.0,35,0.00,,---,0.00,VWS V14.00,2013-05-25 01:05:00,
2013-05-24 21:06:00,73.4,44.1,30.08,NW,326,0.0,0.0,35,0.00,,---,0.00,VWS V14.00,2013-05-25 01:06:00,
2013-05-24 21:07:00,73.4,44.8,30.08,NW,326,0.0,0.0,36,0.00,,---,0.00,VWS V14.00,2013-05-25 01:07:00,
2013-05-24 21:08:00,73.3,44.8,30.08,NW,326,1.0,1.0,36,0.00,,---,0.00,VWS V14.00,2013-05-25 01:08:00,
2013-05-24 21:09:00,73.3,44.8,30.08,NW,326,0.0,1.0,36,0.00,,---,0.00,VWS V14.00,2013-05-25 01:09:00,
2013-05-24 21:10:00,72.9,44.4,30.08,NW,326,0.0,0.0,36,0.00,,---,0.00,VWS V14.00,2013-05-25 01:10:00,
2013-05-24 21:11:00,73.1,43.8,30.08,NW,326,0.0,0.0,35,0.00,,---,0.00,VWS V14.00,2013-05-25 01:11:00,
2013-05-24 21:12:00,73.1,44.6,30.08,NW,326,0.0,0.0,36,0.00,,---,0.00,VWS V14.00,2013-05-25 01:12:00,
2013-05-24 21:13:00,73.0,44.5,30.08,NW,326,0.0,0.0,36,0.00,,---,0.00,VWS V14.00,2013-05-25 01:13:00,
2013-05-24 21:14:00,73.0,44.5,30.08,NW,326,0.0,0.0,36,0.00,,---,0.00,VWS V14.00,2013-05-25 01:14:00,
2013-05-24 21:15:00,72.6,44.1,30.08,NW,326,0.0,0.0,36,0.00,,---,0.00,VWS V14.00,2013-05-25 01:15:00,
2013-05-24 21:16:00,72.9,44.4,30.08,NW,326,0.0,0.0,36,0.00,,---,0.00,VWS V14.00,2013-05-25 01:16:00,
2013-05-24 21:17:00,72.8,44.3,30.08,NW,326,0.0,0.0,36,0.00,,---,0.00,VWS V14.00,2013-05-25 01:17:00,
2013-05-24 21:18:00,72.7,44.2,30.08,NW,326,0.0,0.0,36,0.00,,---,0.00,VWS V14.00,2013-05-25 01:18:00,
2013-05-24 21:19:00,72.7,44.2,30.08,NW,326,0.0,0.0,36,0.00,,---,0.00,VWS V14.00,2013-05-25 01:19:00,
2013-05-24 21:20:00,72.3,44.6,30.08,NW,326,0.0,0.0,37,0.00,,---,0.00,VWS V14.00,2013-05-25 01:20:00,
2013-05-24 21:21:00,72.6,44.1,30.08,NW,326,0.0,0.0,36,0.00,,---,0.00,VWS V14.00,2013-05-25 01:21:00,
2013-05-24 21:22:00,72.5,45.5,30.08,NW,325,0.0,0.0,38,0.00,,---,0.00,VWS V14.00,2013-05-25 01:22:00,
2013-05-24 21:23:00,72.5,45.5,30.08,NW,326,0.0,0.0,38,0.00,,---,0.00,VWS V14.00,2013-05-25 01:23:00,
2013-05-24 21:24:00,72.4,44.7,30.08,NW,326,0.0,0.0,37,0.00,,---,0.00,VWS V14.00,2013-05-25 01:24:00,
2013-05-24 21:25:00,72.1,45.8,30.09,NW,326,0.0,0.0,39,0.00,,---,0.00,VWS V14.00,2013-05-25 01:25:00,
2013-05-24 21:26:00,72.3,45.3,30.08,NW,326,0.0,0.0,38,0.00,,---,0.00,VWS V14.00,2013-05-25 01:26:00,
2013-05-24 21:27:00,72.3,45.3,30.08,NW,326,0.0,0.0,38,0.00,,---,0.00,VWS V14.00,2013-05-25 01:27:00,
2013-05-24 21:28:00,72.2,45.2,30.08,NW,326,0.0,0.0,38,0.00,,---,0.00,VWS V14.00,2013-05-25 01:28:00,
2013-05-24 21:29:00,72.1,45.1,30.08,NW,326,0.0,0.0,38,0.00,,---,0.00,VWS V14.00,2013-05-25 01:29:00,
2013-05-24 21:30:00,71.7,44.8,30.09,ENE,65,0.0,1.0,38,0.00,,---,0.00,VWS V14.00,2013-05-25 01:30:00,
2013-05-24 21:31:00,72.0,45.7,30.09,NW,326,0.0,0.0,39,0.00,,---,0.00,VWS V14.00,2013-05-25 01:31:00,
2013-05-24 21:32:00,72.0,45.7,30.09,NNW,329,0.0,2.0,39,0.00,,---,0.00,VWS V14.00,2013-05-25 01:32:00,
2013-05-24 21:33:00,71.9,45.6,30.09,ENE,66,2.0,3.0,39,0.00,,---,0.00,VWS V14.00,2013-05-25 01:33:00,
2013-05-24 21:34:00,71.8,45.5,30.09,ENE,65,1.0,4.0,39,0.00,,---,0.00,VWS V14.00,2013-05-25 01:34:00,
2013-05-24 21:35:00,71.3,45.8,30.09,ENE,65,0.0,1.0,40,0.00,,---,0.00,VWS V14.00,2013-05-25 01:35:00,
2013-05-24 21:36:00,71.6,45.4,30.09,ENE,65,0.0,1.0,39,0.00,,---,0.00,VWS V14.00,2013-05-25 01:36:00,
2013-05-24 21:37:00,71.6,46.0,30.09,ENE,65,0.0,0.0,40,0.00,,---,0.00,VWS V14.00,2013-05-25 01:37:00,
2013-05-24 21:38:00,71.5,45.9,30.09,ENE,65,0.0,1.0,40,0.00,,---,0.00,VWS V14.00,2013-05-25 01:38:00,
2013-05-24 21:39:00,71.4,45.2,30.09,ENE,65,1.0,1.0,39,0.00,,---,0.00,VWS V14.00,2013-05-25 01:39:00,
2013-05-24 21:40:00,71.1,45.6,30.09,ENE,65,0.0,1.0,40,0.00,,---,0.00,VWS V14.00,2013-05-25 01:40:00,
2013-05-24 21:41:00,71.3,45.8,30.09,ENE,65,0.0,1.0,40,0.00,,---,0.00,VWS V14.00,2013-05-25 01:41:00,
2013-05-24 21:42:00,71.2,45.7,30.09,ENE,65,1.0,1.0,40,0.00,,---,0.00,VWS V14.00,2013-05-25 01:42:00,
2013-05-24 21:43:00,71.2,46.3,30.09,ENE,65,0.0,1.0,41,0.00,,---,0.00,VWS V14.00,2013-05-25 01:43:00,
2013-05-24 21:44:00,71.2,45.7,30.09,ENE,65,0.0,0.0,40,0.00,,---,0.00,VWS V14.00,2013-05-25 01:44:00,
2013-05-24 21:45:00,70.9,46.0,30.09,ENE,59,0.0,1.0,41,0.00,,---,0.00,VWS V14.00,2013-05-25 01:45:00,
2013-05-24 21:46:00,71.1,45.6,30.09,ENE,67,0.0,2.0,40,0.00,,---,0.00,VWS V14.00,2013-05-25 01:46:00,
2013-05-24 21:47:00,71.0,46.1,30.09,ENE,67,0.0,2.0,41,0.00,,---,0.00,VWS V14.00,2013-05-25 01:47:00,
2013-05-24 21:48:00,71.0,45.5,30.09,NE,55,0.0,2.0,40,0.00,,---,0.00,VWS V14.00,2013-05-25 01:48:00,
2013-05-24 21:49:00,71.0,46.1,30.09,ENE,59,3.0,3.0,41,0.00,,---,0.00,VWS V14.00,2013-05-25 01:49:00,
2013-05-24 21:50:00,70.7,46.5,30.09,East,80,0.0,1.0,42,0.00,,---,0.00,VWS V14.00,2013-05-25 01:50:00,
2013-05-24 21:51:00,70.9,46.0,30.09,ENE,59,0.0,1.0,41,0.00,,---,0.00,VWS V14.00,2013-05-25 01:51:00,
2013-05-24 21:52:00,70.8,46.6,30.09,ENE,59,0.0,0.0,42,0.00,,---,0.00,VWS V14.00,2013-05-25 01:52:00,
2013-05-24 21:53:00,70.8,46.6,30.10,East,80,0.0,3.0,42,0.00,,---,0.00,VWS V14.00,2013-05-25 01:53:00,
2013-05-24 21:54:00,70.8,47.2,30.10,East,80,0.0,1.0,43,0.00,,---,0.00,VWS V14.00,2013-05-25 01:54:00,
2013-05-24 21:55:00,70.6,47.0,30.10,East,79,0.0,0.0,43,0.00,,---,0.00,VWS V14.00,2013-05-25 01:55:00,
2013-05-24 21:56:00,70.7,46.5,30.09,East,80,0.0,1.0,42,0.00,,---,0.00,VWS V14.00,2013-05-25 01:56:00,
2013-05-24 21:57:00,70.7,46.5,30.10,East,80,0.0,1.0,42,0.00,,---,0.00,VWS V14.00,2013-05-25 01:57:00,
2013-05-24 21:58:00,70.7,46.5,30.10,East,79,0.0,1.0,42,0.00,,---,0.00,VWS V14.00,2013-05-25 01:58:00,
2013-05-24 21:59:00,70.6,46.4,30.10,East,79,1.0,2.0,42,0.00,,---,0.00,VWS V14.00,2013-05-25 01:59:00,
2013-05-24 22:00:00,70.5,47.0,30.10,East,79,1.0,1.0,43,0.00,,---,0.00,VWS V14.00,2013-05-25 02:00:00,
2013-05-24 22:01:00,70.6,47.0,30.10,East,79,0.0,0.0,43,0.00,,---,0.00,VWS V14.00,2013-05-25 02:01:00,
2013-05-24 22:02:00,70.6,47.0,30.10,East,79,0.0,1.0,43,0.00,,---,0.00,VWS V14.00,2013-05-25 02:02:00,
2013-05-24 22:03:00,70.5,47.0,30.10,East,79,1.0,1.0,43,0.00,,---,0.00,VWS V14.00,2013-05-25 02:03:00,
2013-05-24 22:04:00,70.5,47.0,30.10,East,79,0.0,1.0,43,0.00,,---,0.00,VWS V14.00,2013-05-25 02:04:00,
2013-05-24 22:05:00,70.4,48.1,30.11,ENE,78,0.0,0.0,45,0.00,,---,0.00,VWS V14.00,2013-05-25 02:05:00,
2013-05-24 22:06:00,70.5,47.0,30.10,ENE,78,1.0,2.0,43,0.00,,---,0.00,VWS V14.00,2013-05-25 02:06:00,
2013-05-24 22:07:00,70.4,47.5,30.10,ENE,78,0.0,1.0,44,0.00,,---,0.00,VWS V14.00,2013-05-25 02:07:00,
2013-05-24 22:08:00,70.4,47.5,30.10,ENE,78,0.0,0.0,44,0.00,,---,0.00,VWS V14.00,2013-05-25 02:08:00,
2013-05-24 22:09:00,70.4,47.5,30.10,ENE,78,0.0,0.0,44,0.00,,---,0.00,VWS V14.00,2013-05-25 02:09:00,
2013-05-24 22:10:00,70.2,47.3,30.11,ENE,66,0.0,0.0,44,0.00,,---,0.00,VWS V14.00,2013-05-25 02:10:00,
2013-05-24 22:11:00,70.4,48.1,30.11,ENE,78,1.0,1.0,45,0.00,,---,0.00,VWS V14.00,2013-05-25 02:11:00,
2013-05-24 22:12:00,70.3,48.0,30.11,ENE,67,0.0,1.0,45,0.00,,---,0.00,VWS V14.00,2013-05-25 02:12:00,
2013-05-24 22:13:00,70.3,48.0,30.11,ENE,67,0.0,0.0,45,0.00,,---,0.00,VWS V14.00,2013-05-25 02:13:00,
2013-05-24 22:14:00,70.3,48.0,30.11,ENE,67,1.0,1.0,45,0.00,,---,0.00,VWS V14.00,2013-05-25 02:14:00,
2013-05-24 22:15:00,70.1,47.8,30.11,ENE,66,0.0,0.0,45,0.00,,---,0.00,VWS V14.00,2013-05-25 02:15:00,
2013-05-24 22:16:00,70.2,47.3,30.11,ENE,66,0.0,0.0,44,0.00,,---,0.00,VWS V14.00,2013-05-25 02:16:00,
2013-05-24 22:17:00,70.2,47.9,30.11,ENE,66,1.0,1.0,45,0.00,,---,0.00,VWS V14.00,2013-05-25 02:17:00,
2013-05-24 22:18:00,70.2,47.9,30.11,ENE,66,0.0,1.0,45,0.00,,---,0.00,VWS V14.00,2013-05-25 02:18:00,
2013-05-24 22:19:00,70.1,47.8,30.11,ENE,66,0.0,0.0,45,0.00,,---,0.00,VWS V14.00,2013-05-25 02:19:00,
2013-05-24 22:20:00,69.9,47.6,30.12,ENE,58,1.0,1.0,45,0.00,,---,0.00,VWS V14.00,2013-05-25 02:20:00,
2013-05-24 22:21:00,70.1,47.8,30.11,ENE,66,0.0,0.0,45,0.00,,---,0.00,VWS V14.00,2013-05-25 02:21:00,
2013-05-24 22:22:00,70.0,47.7,30.12,West,280,0.0,2.0,45,0.00,,---,0.00,VWS V14.00,2013-05-25 02:22:00,
2013-05-24 22:23:00,70.0,47.7,30.11,West,280,0.0,0.0,45,0.00,,---,0.00,VWS V14.00,2013-05-25 02:23:00,
2013-05-24 22:24:00,69.7,47.4,30.12,NW,321,0.0,0.0,45,0.00,,---,0.00,VWS V14.00,2013-05-25 02:24:00,
2013-05-24 22:25:00,69.9,47.6,30.12,ENE,60,0.0,2.0,45,0.00,,---,0.00,VWS V14.00,2013-05-25 02:25:00,
2013-05-24 22:26:00,69.9,47.6,30.12,ENE,58,0.0,1.0,45,0.00,,---,0.00,VWS V14.00,2013-05-25 02:26:00,
2013-05-24 22:27:00,69.9,47.6,30.12,ENE,58,0.0,0.0,45,0.00,,---,0.00,VWS V14.00,2013-05-25 02:27:00,
2013-05-24 22:28:00,69.8,47.5,30.12,NE,45,1.0,3.0,45,0.00,,---,0.00,VWS V14.00,2013-05-25 02:28:00,
2013-05-24 22:29:00,69.6,47.3,30.12,NNW,336,0.0,1.0,45,0.00,,---,0.00,VWS V14.00,2013-05-25 02:29:00,
2013-05-24 22:30:00,69.8,47.5,30.12,NW,321,0.0,1.0,45,0.00,,---,0.00,VWS V14.00,2013-05-25 02:30:00,
2013-05-24 22:31:00,69.7,47.4,30.12,NW,321,0.0,0.0,45,0.00,,---,0.00,VWS V14.00,2013-05-25 02:31:00,
2013-05-24 22:32:00,69.7,47.4,30.12,NNW,336,0.0,1.0,45,0.00,,---,0.00,VWS V14.00,2013-05-25 02:32:00,
2013-05-24 22:33:00,69.7,47.4,30.12,NNW,336,0.0,0.0,45,0.00,,---,0.00,VWS V14.00,2013-05-25 02:33:00,
2013-05-24 22:34:00,69.4,47.7,30.12,NNE,26,0.0,2.0,46,0.00,,---,0.00,VWS V14.00,2013-05-25 02:34:00,
2013-05-24 22:35:00,69.6,47.3,30.12,NNW,336,0.0,1.0,45,0.00,,---,0.00,VWS V14.00,2013-05-25 02:35:00,
2013-05-24 22:36:00,69.6,47.3,30.12,NNW,336,0.0,1.0,45,0.00,,---,0.00,VWS V14.00,2013-05-25 02:36:00,
2013-05-24 22:37:00,69.5,47.8,30.12,NNE,14,0.0,1.0,46,0.00,,---,0.00,VWS V14.00,2013-05-25 02:37:00,
2013-05-24 22:38:00,69.5,47.8,30.12,NNE,14,0.0,0.0,46,0.00,,---,0.00,VWS V14.00,2013-05-25 02:38:00,
2013-05-24 22:39:00,69.3,47.7,30.13,NNE,25,0.0,1.0,46,0.00,,---,0.00,VWS V14.00,2013-05-25 02:39:00,
2013-05-24 22:40:00,69.4,47.7,30.12,NNE,25,2.0,4.0,46,0.00,,---,0.00,VWS V14.00,2013-05-25 02:40:00,
2013-05-24 22:41:00,69.4,47.2,30.12,NNE,26,0.0,2.0,45,0.00,,---,0.00,VWS V14.00,2013-05-25 02:41:00,
2013-05-24 22:42:00,69.4,47.2,30.12,NNE,26,0.0,0.0,45,0.00,,---,0.00,VWS V14.00,2013-05-25 02:42:00,
2013-05-24 22:43:00,69.4,47.2,30.12,NNE,26,0.0,0.0,45,0.00,,---,0.00,VWS V14.00,2013-05-25 02:43:00,
2013-05-24 22:44:00,69.2,47.0,30.13,NNE,31,1.0,1.0,45,0.00,,---,0.00,VWS V14.00,2013-05-25 02:44:00,
2013-05-24 22:45:00,69.3,47.7,30.13,NNE,25,1.0,1.0,46,0.00,,---,0.00,VWS V14.00,2013-05-25 02:45:00,
2013-05-24 22:46:00,69.3,47.7,30.13,NNE,25,0.0,3.0,46,0.00,,---,0.00,VWS V14.00,2013-05-25 02:46:00,
2013-05-24 22:47:00,69.3,47.1,30.13,NNE,25,0.0,1.0,45,0.00,,---,0.00,VWS V14.00,2013-05-25 02:47:00,
2013-05-24 22:48:00,69.3,47.7,30.13,NNE,25,0.0,1.0,46,0.00,,---,0.00,VWS V14.00,2013-05-25 02:48:00,
2013-05-24 22:49:00,69.1,47.5,30.13,NE,42,0.0,1.0,46,0.00,,---,0.00,VWS V14.00,2013-05-25 02:49:00,
2013-05-24 22:50:00,69.2,47.6,30.13,NNE,31,0.0,1.0,46,0.00,,---,0.00,VWS V14.00,2013-05-25 02:50:00,
2013-05-24 22:51:00,69.2,47.0,30.13,NNE,33,0.0,2.0,45,0.00,,---,0.00,VWS V14.00,2013-05-25 02:51:00,
2013-05-24 22:52:00,69.1,46.9,30.13,NNE,33,0.0,1.0,45,0.00,,---,0.00,VWS V14.00,2013-05-25 02:52:00,
2013-05-24 22:53:00,69.1,46.9,30.13,NE,42,0.0,3.0,45,0.00,,---,0.00,VWS V14.00,2013-05-25 02:53:00,
2013-05-24 22:54:00,68.9,47.3,30.13,NE,42,0.0,0.0,46,0.00,,---,0.00,VWS V14.00,2013-05-25 02:54:00,
2013-05-24 22:55:00,69.0,47.4,30.13,NE,42,0.0,1.0,46,0.00,,---,0.00,VWS V14.00,2013-05-25 02:55:00,
2013-05-24 22:56:00,69.0,47.4,30.13,NE,42,0.0,1.0,46,0.00,,---,0.00,VWS V14.00,2013-05-25 02:56:00,
2013-05-24 22:57:00,69.0,47.4,30.13,NE,42,0.0,0.0,46,0.00,,---,0.00,VWS V14.00,2013-05-25 02:57:00,
2013-05-24 22:58:00,69.0,47.4,30.13,NE,42,0.0,0.0,46,0.00,,---,0.00,VWS V14.00,2013-05-25 02:58:00,
2013-05-24 22:59:00,68.8,47.8,30.13,NE,42,0.0,0.0,47,0.00,,---,0.00,VWS V14.00,2013-05-25 02:59:00,
2013-05-24 23:00:00,69.0,47.4,30.13,NE,42,0.0,0.0,46,0.00,,---,0.00,VWS V14.00,2013-05-25 03:00:00,
2013-05-24 23:01:00,68.9,47.3,30.13,NE,42,0.0,0.0,46,0.00,,---,0.00,VWS V14.00,2013-05-25 03:01:00,
2013-05-24 23:02:00,68.9,47.3,30.13,NE,42,0.0,2.0,46,0.00,,---,0.00,VWS V14.00,2013-05-25 03:02:00,
2013-05-24 23:03:00,68.9,47.3,30.13,NE,42,0.0,1.0,46,0.00,,---,0.00,VWS V14.00,2013-05-25 03:03:00,
2013-05-24 23:04:00,68.7,47.7,30.14,ENE,59,0.0,4.0,47,0.00,,---,0.00,VWS V14.00,2013-05-25 03:04:00,
2013-05-24 23:05:00,68.9,47.9,30.13,NE,42,0.0,0.0,47,0.00,,---,0.00,VWS V14.00,2013-05-25 03:05:00,
2013-05-24 23:06:00,68.8,47.8,30.13,NE,42,1.0,1.0,47,0.00,,---,0.00,VWS V14.00,2013-05-25 03:06:00,
2013-05-24 23:07:00,68.8,47.8,30.14,NE,42,0.0,1.0,47,0.00,,---,0.00,VWS V14.00,2013-05-25 03:07:00,
2013-05-24 23:08:00,68.8,47.8,30.13,NE,42,0.0,0.0,47,0.00,,---,0.00,VWS V14.00,2013-05-25 03:08:00,
2013-05-24 23:09:00,68.5,47.5,30.14,ENE,59,0.0,0.0,47,0.00,,---,0.00,VWS V14.00,2013-05-25 03:09:00,
2013-05-24 23:10:00,68.7,47.7,30.14,NE,55,4.0,4.0,47,0.00,,---,0.00,VWS V14.00,2013-05-25 03:10:00,
2013-05-24 23:11:00,68.7,47.7,30.14,ENE,59,0.0,4.0,47,0.00,,---,0.00,VWS V14.00,2013-05-25 03:11:00,
2013-05-24 23:12:00,68.6,47.0,30.14,ENE,59,0.0,1.0,46,0.00,,---,0.00,VWS V14.00,2013-05-25 03:12:00,
2013-05-24 23:13:00,68.6,47.0,30.14,ENE,59,0.0,0.0,46,0.00,,---,0.00,VWS V14.00,2013-05-25 03:13:00,
2013-05-24 23:14:00,68.4,47.4,30.14,ENE,59,0.0,0.0,47,0.00,,---,0.00,VWS V14.00,2013-05-25 03:14:00,
2013-05-24 23:15:00,68.6,47.6,30.14,ENE,59,0.0,1.0,47,0.00,,---,0.00,VWS V14.00,2013-05-25 03:15:00,
2013-05-24 23:16:00,68.5,47.5,30.14,ENE,59,0.0,1.0,47,0.00,,---,0.00,VWS V14.00,2013-05-25 03:16:00,
2013-05-24 23:17:00,68.5,46.9,30.14,ENE,59,0.0,0.0,46,0.00,,---,0.00,VWS V14.00,2013-05-25 03:17:00,
2013-05-24 23:18:00,68.5,47.5,30.14,ENE,59,0.0,1.0,47,0.00,,---,0.00,VWS V14.00,2013-05-25 03:18:00,
2013-05-24 23:19:00,68.2,47.2,30.14,ENE,59,0.0,0.0,47,0.00,,---,0.00,VWS V14.00,2013-05-25 03:19:00,
2013-05-24 23:20:00,68.4,47.4,30.14,ENE,59,0.0,0.0,47,0.00,,---,0.00,VWS V14.00,2013-05-25 03:20:00,
2013-05-24 23:21:00,68.4,47.4,30.14,ENE,59,0.0,0.0,47,0.00,,---,0.00,VWS V14.00,2013-05-25 03:21:00,
2013-05-24 23:22:00,68.3,47.3,30.14,ENE,59,0.0,1.0,47,0.00,,---,0.00,VWS V14.00,2013-05-25 03:22:00,
2013-05-24 23:23:00,68.3,47.3,30.14,ENE,59,0.0,1.0,47,0.00,,---,0.00,VWS V14.00,2013-05-25 03:23:00,
2013-05-24 23:24:00,68.1,47.1,30.14,ENE,59,0.0,0.0,47,0.00,,---,0.00,VWS V14.00,2013-05-25 03:24:00,
2013-05-24 23:25:00,68.2,47.2,30.14,ENE,59,0.0,0.0,47,0.00,,---,0.00,VWS V14.00,2013-05-25 03:25:00,
2013-05-24 23:26:00,68.2,47.2,30.14,ENE,59,0.0,0.0,47,0.00,,---,0.00,VWS V14.00,2013-05-25 03:26:00,
2013-05-24 23:27:00,68.2,47.8,30.14,ENE,59,0.0,0.0,48,0.00,,---,0.00,VWS V14.00,2013-05-25 03:27:00,
2013-05-24 23:28:00,68.1,47.7,30.14,ENE,59,0.0,0.0,48,0.00,,---,0.00,VWS V14.00,2013-05-25 03:28:00,
2013-05-24 23:29:00,67.9,47.0,30.15,ENE,59,0.0,0.0,47,0.00,,---,0.00,VWS V14.00,2013-05-25 03:29:00,
2013-05-24 23:30:00,68.1,47.1,30.14,ENE,59,0.0,1.0,47,0.00,,---,0.00,VWS V14.00,2013-05-25 03:30:00,
2013-05-24 23:31:00,68.1,47.1,30.14,ENE,59,0.0,1.0,47,0.00,,---,0.00,VWS V14.00,2013-05-25 03:31:00,
2013-05-24 23:32:00,68.0,47.0,30.14,ENE,59,0.0,0.0,47,0.00,,---,0.00,VWS V14.00,2013-05-25 03:32:00,
2013-05-24 23:33:00,68.0,47.0,30.14,ENE,59,0.0,0.0,47,0.00,,---,0.00,VWS V14.00,2013-05-25 03:33:00,
2013-05-24 23:34:00,67.8,47.4,30.15,ENE,59,0.0,0.0,48,0.00,,---,0.00,VWS V14.00,2013-05-25 03:34:00,
2013-05-24 23:35:00,67.9,47.0,30.15,ENE,59,0.0,0.0,47,0.00,,---,0.00,VWS V14.00,2013-05-25 03:35:00,
2013-05-24 23:36:00,67.9,47.5,30.15,ENE,59,0.0,0.0,48,0.00,,---,0.00,VWS V14.00,2013-05-25 03:36:00,
2013-05-24 23:37:00,67.9,47.5,30.15,ENE,59,0.0,0.0,48,0.00,,---,0.00,VWS V14.00,2013-05-25 03:37:00,
2013-05-24 23:38:00,67.8,47.4,30.15,ENE,59,0.0,0.0,48,0.00,,---,0.00,VWS V14.00,2013-05-25 03:38:00,
2013-05-24 23:39:00,67.6,47.8,30.15,ENE,59,0.0,0.0,49,0.00,,---,0.00,VWS V14.00,2013-05-25 03:39:00,
2013-05-24 23:40:00,67.8,47.4,30.15,ENE,59,0.0,0.0,48,0.00,,---,0.00,VWS V14.00,2013-05-25 03:40:00,
2013-05-24 23:41:00,67.7,47.3,30.15,ENE,59,0.0,0.0,48,0.00,,---,0.00,VWS V14.00,2013-05-25 03:41:00,
2013-05-24 23:42:00,67.7,47.3,30.15,ENE,59,0.0,0.0,48,0.00,,---,0.00,VWS V14.00,2013-05-25 03:42:00,
2013-05-24 23:43:00,67.7,47.3,30.15,ENE,59,0.0,0.0,48,0.00,,---,0.00,VWS V14.00,2013-05-25 03:43:00,
2013-05-24 23:44:00,67.4,48.7,30.15,ENE,59,0.0,0.0,51,0.00,,---,0.00,VWS V14.00,2013-05-25 03:44:00,
2013-05-24 23:45:00,67.6,47.8,30.15,ENE,59,0.0,0.0,49,0.00,,---,0.00,VWS V14.00,2013-05-25 03:45:00,
2013-05-24 23:46:00,67.6,48.3,30.15,ENE,59,0.0,0.0,50,0.00,,---,0.00,VWS V14.00,2013-05-25 03:46:00,
2013-05-24 23:47:00,67.5,48.2,30.15,ENE,59,0.0,0.0,50,0.00,,---,0.00,VWS V14.00,2013-05-25 03:47:00,
2013-05-24 23:48:00,67.5,48.2,30.15,ENE,59,0.0,0.0,50,0.00,,---,0.00,VWS V14.00,2013-05-25 03:48:00,
2013-05-24 23:49:00,67.2,49.0,30.15,ENE,59,0.0,0.0,52,0.00,,---,0.00,VWS V14.00,2013-05-25 03:49:00,
2013-05-24 23:50:00,67.4,48.1,30.15,ENE,59,0.0,0.0,50,0.00,,---,0.00,VWS V14.00,2013-05-25 03:50:00,
2013-05-24 23:51:00,67.4,48.7,30.15,ENE,59,0.0,0.0,51,0.00,,---,0.00,VWS V14.00,2013-05-25 03:51:00,
2013-05-24 23:52:00,67.4,48.1,30.15,ENE,59,0.0,0.0,50,0.00,,---,0.00,VWS V14.00,2013-05-25 03:52:00,
2013-05-24 23:53:00,67.3,48.0,30.15,ENE,59,0.0,0.0,50,0.00,,---,0.00,VWS V14.00,2013-05-25 03:53:00,
2013-05-24 23:54:00,67.0,48.8,30.14,ENE,59,0.0,0.0,52,0.00,,---,0.00,VWS V14.00,2013-05-25 03:54:00,
2013-05-24 23:55:00,67.2,49.0,30.15,ENE,59,0.0,0.0,52,0.00,,---,0.00,VWS V14.00,2013-05-25 03:55:00,
2013-05-24 23:56:00,67.2,49.0,30.15,ENE,59,0.0,0.0,52,0.00,,---,0.00,VWS V14.00,2013-05-25 03:56:00,
2013-05-24 23:57:00,67.2,49.0,30.15,ENE,59,0.0,0.0,52,0.00,,---,0.00,VWS V14.00,2013-05-25 03:57:00,
2013-05-24 23:58:00,67.1,48.9,30.15,ENE,59,0.0,0.0,52,0.00,,---,0.00,VWS V14.00,2013-05-25 03:58:00,
2013-05-24 23:59:00,66.7,48.5,30.15,ENE,59,0.0,0.0,52,0.00,,---,0.00,VWS V14.00,2013-05-25 03:59:00,